Darstellungsparameter: Aktuell verwendete Einstellungen:
Skalierung der Graphiken ... ?
xyx+y,   Skalierungsfaktor:      Skalierung: Modus: x, Faktor: 1
Darstellungszeitraum ... ?
Vom - - bis: - -   Zeitraum: 03.09.2008 - 03.12.2008
Min/Max/Avg-Anzeige ... ?
Zeige MMA aktuell
Zeige MMA Monat
Zeige MMA alles
Zeige --A aktuell
Zeige --A Monat
Zeige --A alles
Keine MMA-Anzeige
MMA:
Average (ber die Originaldaten)
MMA-Basis: 17.04.2019 - 19.05.2019
Quicknavigation für Darstellung... ?
Tage:      1T, 2T, 3T, 5T -1T -2T -3T -5T +1T +2T +3T +5T
Wochen: 1W, 2W, 3W -1W -2W -3W +1W +2W +3W
Monate: 1M, 3M, 6M -1M -3M -6M +1M +3M +6M
Jahre:    1J, 3J, 5J, 10J -1J -3J -5J -10J +1J +3J +5J +10J
Nutze für die Darstellung ... ?
Originaldaten oder Mittelwerte auf ...
Stundenbasis Tagesbasis Wochenbasis
Monatsbasis Jahresbasis      Datenbasis: Original-Daten
Darstellen als:
Statistik (Auto) Statistik J:M      Darstellung:
Zur Graphik,    zurück zur Übersicht aller Sensoren.
 
Tabellarische Datenbersicht: ?
 
Sensor: Nr:Datum:Temp:Abs-Feuchte:Windchill:Wind:
Aussen-T/F 1 03-09-2008 00:04:05 20.7 C 9.36 g/m*3 20.7 C 0 km/h
2 03-09-2008 00:16:05 20.8 C 9.42 g/m*3 20.8 C 0 km/h
3 03-09-2008 00:28:05 20.4 C 9.73 g/m*3 20.4 C 0 km/h
4 03-09-2008 00:40:05 18.4 C 11.17 g/m*3 18.4 C 0 km/h
5 03-09-2008 00:52:06 18 C 11.83 g/m*3 18 C 0 km/h
6 03-09-2008 01:04:06 17.8 C 12.29 g/m*3 17.8 C 0 km/h
7 03-09-2008 01:16:06 18 C 12.44 g/m*3 18 C 0 km/h
8 03-09-2008 01:28:06 18.4 C 12.58 g/m*3 18.4 C 0 km/h
9 03-09-2008 01:40:06 18.5 C 12.5 g/m*3 18.5 C 0 km/h
10 03-09-2008 01:52:06 18.6 C 12.41 g/m*3 18.6 C 0 km/h
11 03-09-2008 02:04:06 18.6 C 12.26 g/m*3 18.6 C 0 km/h
12 03-09-2008 02:16:06 18.4 C 12.11 g/m*3 18.4 C 0 km/h
13 03-09-2008 02:28:06 18.4 C 11.95 g/m*3 18.4 C 0 km/h
14 03-09-2008 02:40:06 18.3 C 11.88 g/m*3 18.3 C 0 km/h
15 03-09-2008 02:52:06 18.3 C 11.73 g/m*3 18.3 C 0 km/h
16 03-09-2008 03:04:06 18.5 C 11.87 g/m*3 18.5 C 0 km/h
17 03-09-2008 03:16:06 18.6 C 11.78 g/m*3 18.6 C 0 km/h
18 03-09-2008 03:28:06 18.5 C 11.71 g/m*3 18.5 C 0 km/h
19 03-09-2008 03:40:06 17.5 C 12.37 g/m*3 17.5 C 0 km/h
20 03-09-2008 03:52:06 17 C 12.3 g/m*3 17 C 0 km/h
21 03-09-2008 04:04:06 16.6 C 12.29 g/m*3 16.6 C 0 km/h
22 03-09-2008 04:16:06 16.4 C 12.42 g/m*3 16.4 C 0 km/h
23 03-09-2008 04:28:06 16.2 C 12.27 g/m*3 16.2 C 0 km/h
24 03-09-2008 04:40:06 16.2 C 12.41 g/m*3 16.2 C 0 km/h
25 03-09-2008 04:52:06 16 C 12.26 g/m*3 16 C 0 km/h
Sensor: Nr:Datum:Temp:Abs-Feuchte:Windchill:Wind:
Aussen-T/F 26 03-09-2008 05:04:07 15.9 C 12.32 g/m*3 15.9 C 0 km/h
27 03-09-2008 05:16:07 15.9 C 12.46 g/m*3 15.9 C 0 km/h
28 03-09-2008 05:28:07 15.8 C 12.38 g/m*3 15.8 C 0 km/h
29 03-09-2008 05:40:07 15.8 C 12.38 g/m*3 15.8 C 0 km/h
30 03-09-2008 05:52:07 15.7 C 12.31 g/m*3 15.7 C 0 km/h
31 03-09-2008 06:04:02 15.6 C 12.37 g/m*3 15.6 C 0 km/h
32 03-09-2008 06:16:02 15.5 C 12.29 g/m*3 15.5 C 0 km/h
33 03-09-2008 06:28:02 15.5 C 12.29 g/m*3 15.5 C 0 km/h
34 03-09-2008 06:40:02 15.5 C 12.29 g/m*3 15.5 C 0 km/h
35 03-09-2008 06:52:02 15.4 C 12.22 g/m*3 15.4 C 0 km/h
36 03-09-2008 07:04:02 15.1 C 11.87 g/m*3 15.1 C 0 km/h
37 03-09-2008 07:16:02 14.8 C 11.53 g/m*3 14.8 C 0 km/h
38 03-09-2008 07:28:02 14.8 C 11.53 g/m*3 14.8 C 0 km/h
39 03-09-2008 07:40:02 14.9 C 11.6 g/m*3 14.9 C 0 km/h
40 03-09-2008 07:52:02 14.8 C 11.4 g/m*3 14.8 C 0 km/h
41 03-09-2008 08:04:02 15 C 10.9 g/m*3 15 C 0 km/h
42 03-09-2008 08:16:02 15.1 C 10.71 g/m*3 15.1 C 0 km/h
43 03-09-2008 08:28:02 15 C 10.51 g/m*3 15 C 0 km/h
44 03-09-2008 08:40:02 15.1 C 10.06 g/m*3 15.1 C 0 km/h
45 03-09-2008 08:52:01 15.2 C 9.99 g/m*3 15.2 C 0 km/h
46 03-09-2008 09:04:02 15.6 C 10.24 g/m*3 15.6 C 0 km/h
47 03-09-2008 09:16:01 15.9 C 10.16 g/m*3 15.9 C 0 km/h
48 03-09-2008 09:28:01 15.8 C 9.83 g/m*3 15.8 C 0 km/h
49 03-09-2008 09:40:02 16.1 C 10.01 g/m*3 16.1 C 0 km/h
50 03-09-2008 09:52:01 16.1 C 9.6 g/m*3 16.1 C 0 km/h
Sensor: Nr:Datum:Temp:Abs-Feuchte:Windchill:Wind:
Aussen-T/F 51 03-09-2008 10:04:01 16 C 9.26 g/m*3 16 C 0 km/h
52 03-09-2008 10:16:02 16.2 C 9.24 g/m*3 16.2 C 0 km/h
53 03-09-2008 10:28:02 16.6 C 9.04 g/m*3 16.6 C 0 km/h
54 03-09-2008 10:40:01 16.7 C 9.24 g/m*3 16.7 C 0 km/h
55 03-09-2008 10:52:01 16.6 C 8.9 g/m*3 16.6 C 0 km/h
56 03-09-2008 11:04:02 16.8 C 9.01 g/m*3 16.8 C 0 km/h
57 03-09-2008 11:16:01 16.6 C 8.9 g/m*3 16.6 C 0 km/h
58 03-09-2008 11:28:01 16.8 C 8.86 g/m*3 16.8 C 0 km/h
59 03-09-2008 11:40:02 16.6 C 8.9 g/m*3 16.6 C 0 km/h
60 03-09-2008 11:52:02 16.5 C 8.57 g/m*3 16.5 C 0 km/h
61 03-09-2008 12:04:02 16.7 C 8.67 g/m*3 16.7 C 0 km/h
62 03-09-2008 12:16:02 16.9 C 8.77 g/m*3 16.9 C 0 km/h
63 03-09-2008 12:28:02 17 C 9.55 g/m*3 17 C 0 km/h
64 03-09-2008 12:40:02 17.2 C 9.37 g/m*3 17.2 C 0 km/h
65 03-09-2008 12:52:01 17.5 C 8.65 g/m*3 17.5 C 0 km/h
66 03-09-2008 13:04:02 17.7 C 8.3 g/m*3 17.7 C 0 km/h
67 03-09-2008 13:16:01 17.4 C 8.45 g/m*3 17.4 C 0 km/h
68 03-09-2008 13:28:01 17.3 C 8.25 g/m*3 17.3 C 0 km/h
69 03-09-2008 13:40:02 17 C 8.39 g/m*3 17 C 0 km/h
70 03-09-2008 13:52:02 15.9 C 9.34 g/m*3 15.9 C 0 km/h
71 03-09-2008 14:04:02 14.9 C 9.94 g/m*3 14.9 C 0 km/h
72 03-09-2008 14:16:02 14.9 C 10.32 g/m*3 14.9 C 0 km/h
73 03-09-2008 14:28:03 14.4 C 10.01 g/m*3 14.4 C 0 km/h
74 03-09-2008 14:40:02 13.6 C 9.42 g/m*3 13.6 C 0 km/h
75 03-09-2008 14:52:02 13.6 C 9.65 g/m*3 13.6 C 0 km/h
Sensor: Nr:Datum:Temp:Abs-Feuchte:Windchill:Wind:
Aussen-T/F 76 03-09-2008 15:04:02 13.8 C 10.01 g/m*3 13.8 C 0 km/h
77 03-09-2008 15:16:02 13.9 C 10.19 g/m*3 13.9 C 0 km/h
78 03-09-2008 15:28:02 13.8 C 10.25 g/m*3 13.8 C 0 km/h
79 03-09-2008 15:40:02 13.8 C 10.13 g/m*3 13.8 C 0 km/h
80 03-09-2008 15:52:01 13.7 C 10.18 g/m*3 13.7 C 0 km/h
81 03-09-2008 16:04:02 13.7 C 10.18 g/m*3 13.7 C 0 km/h
82 03-09-2008 16:16:02 13.5 C 10.06 g/m*3 13.5 C 0 km/h
83 03-09-2008 16:28:02 13.7 C 10.3 g/m*3 13.7 C 0 km/h
84 03-09-2008 16:40:02 14 C 10.49 g/m*3 14 C 0 km/h
85 03-09-2008 16:52:02 14 C 10.49 g/m*3 14 C 0 km/h
86 03-09-2008 17:04:02 13.6 C 10.36 g/m*3 13.6 C 0 km/h
87 03-09-2008 17:16:02 13.5 C 10.29 g/m*3 13.5 C 0 km/h
88 03-09-2008 17:28:02 14 C 10.61 g/m*3 14 C 0 km/h
89 03-09-2008 17:40:02 13.9 C 10.67 g/m*3 13.9 C 0 km/h
90 03-09-2008 17:52:01 14.1 C 10.68 g/m*3 14.1 C 0 km/h
91 03-09-2008 18:04:02 13.9 C 10.67 g/m*3 13.9 C 0 km/h
92 03-09-2008 18:16:01 13.7 C 10.54 g/m*3 13.7 C 0 km/h
93 03-09-2008 18:28:01 13.7 C 10.54 g/m*3 13.7 C 0 km/h
94 03-09-2008 18:40:02 13.5 C 10.41 g/m*3 13.5 C 0 km/h
95 03-09-2008 18:52:02 13.4 C 10.35 g/m*3 13.4 C 0 km/h
96 03-09-2008 19:04:02 13.3 C 10.28 g/m*3 13.3 C 0 km/h
97 03-09-2008 19:16:02 13 C 9.98 g/m*3 13 C 0 km/h
98 03-09-2008 19:28:02 12.8 C 9.86 g/m*3 12.8 C 0 km/h
99 03-09-2008 19:40:02 12.8 C 9.97 g/m*3 12.8 C 0 km/h
100 03-09-2008 19:52:02 12.7 C 9.8 g/m*3 12.7 C 0 km/h
Sensor: Nr:Datum:Temp:Abs-Feuchte:Windchill:Wind:
Aussen-T/F 101 03-09-2008 20:04:01 12.8 C 9.97 g/m*3 12.8 C 0 km/h
102 03-09-2008 20:16:02 12.7 C 9.8 g/m*3 12.7 C 0 km/h
103 03-09-2008 20:28:02 12.5 C 9.57 g/m*3 12.5 C 0 km/h
104 03-09-2008 20:40:02 12.4 C 9.4 g/m*3 12.4 C 0 km/h
105 03-09-2008 20:52:02 12.4 C 9.4 g/m*3 12.4 C 0 km/h
106 03-09-2008 21:04:02 12.4 C 9.4 g/m*3 12.4 C 0 km/h
107 03-09-2008 21:16:01 12.2 C 9.28 g/m*3 12.2 C 0 km/h
108 03-09-2008 21:28:01 12.1 C 9.22 g/m*3 12.1 C 0 km/h
109 03-09-2008 21:40:02 12.1 C 9.22 g/m*3 12.1 C 0 km/h
110 03-09-2008 21:52:02 12.1 C 9.12 g/m*3 12.1 C 0 km/h
111 03-09-2008 22:04:02 12 C 9.06 g/m*3 12 C 0 km/h
112 03-09-2008 22:16:02 11.8 C 8.95 g/m*3 11.8 C 0 km/h
113 03-09-2008 22:28:02 11.7 C 8.89 g/m*3 11.7 C 0 km/h
114 03-09-2008 22:41:02 11.6 C 8.73 g/m*3 11.6 C 0 km/h
115 03-09-2008 22:53:02 11.5 C 8.68 g/m*3 11.5 C 0 km/h
116 03-09-2008 23:05:02 11.4 C 8.72 g/m*3 11.4 C 0 km/h
117 03-09-2008 23:17:02 11.3 C 8.77 g/m*3 11.3 C 0 km/h
118 03-09-2008 23:29:02 11.3 C 8.77 g/m*3 11.3 C 0 km/h
119 03-09-2008 23:41:02 11.4 C 8.83 g/m*3 11.4 C 0 km/h
120 03-09-2008 23:53:02 11.4 C 8.72 g/m*3 11.4 C 0 km/h
121 04-09-2008 00:05:02 11.2 C 8.51 g/m*3 11.2 C 0 km/h
122 04-09-2008 00:17:02 11.1 C 8.46 g/m*3 11.1 C 0 km/h
123 04-09-2008 00:29:02 11 C 8.51 g/m*3 11 C 0 km/h
124 04-09-2008 00:41:02 10.8 C 8.4 g/m*3 10.8 C 0 km/h
125 04-09-2008 00:53:02 10.5 C 8.34 g/m*3 10.5 C 0 km/h
Sensor: Nr:Datum:Temp:Abs-Feuchte:Windchill:Wind:
Aussen-T/F 126 04-09-2008 01:05:02 10.1 C 8.13 g/m*3 10.1 C 0 km/h
127 04-09-2008 01:17:02 10 C 8.17 g/m*3 10 C 0 km/h
128 04-09-2008 01:29:03 10.1 C 8.32 g/m*3 10.1 C 0 km/h
129 04-09-2008 01:41:03 10.1 C 8.32 g/m*3 10.1 C 0 km/h
130 04-09-2008 01:53:03 10.4 C 8.58 g/m*3 10.4 C 0 km/h
131 04-09-2008 02:05:03 10.4 C 8.48 g/m*3 10.4 C 0 km/h
132 04-09-2008 02:17:03 10.4 C 8.48 g/m*3 10.4 C 0 km/h
133 04-09-2008 02:29:03 10.3 C 8.33 g/m*3 10.3 C 0 km/h
134 04-09-2008 02:41:03 10.1 C 8.23 g/m*3 10.1 C 0 km/h
135 04-09-2008 02:53:03 10 C 8.17 g/m*3 10 C 0 km/h
136 04-09-2008 03:05:03 9.7 C 8.2 g/m*3 9.7 C 0 km/h
137 04-09-2008 03:17:03 9.6 C 8.15 g/m*3 9.6 C 0 km/h
138 04-09-2008 03:29:03 9.5 C 8.1 g/m*3 9.5 C 0 km/h
139 04-09-2008 03:41:03 9.5 C 8.19 g/m*3 9.5 C 0 km/h
140 04-09-2008 03:53:03 9.4 C 8.14 g/m*3 9.4 C 0 km/h
141 04-09-2008 04:05:03 9.4 C 8.14 g/m*3 9.4 C 0 km/h
142 04-09-2008 04:17:03 9.4 C 8.14 g/m*3 9.4 C 0 km/h
143 04-09-2008 04:29:03 9.4 C 8.14 g/m*3 9.4 C 0 km/h
144 04-09-2008 04:41:03 9.3 C 8.09 g/m*3 9.3 C 0 km/h
145 04-09-2008 04:53:03 9.2 C 8.04 g/m*3 9.2 C 0 km/h
146 04-09-2008 05:05:03 9.2 C 8.13 g/m*3 9.2 C 0 km/h
147 04-09-2008 05:17:03 9.2 C 8.13 g/m*3 9.2 C 0 km/h
148 04-09-2008 05:29:04 9.1 C 8.07 g/m*3 9.1 C 0 km/h
149 04-09-2008 05:41:04 9 C 8.02 g/m*3 9 C 0 km/h
150 04-09-2008 05:53:04 8.9 C 8.06 g/m*3 8.9 C 0 km/h
Sensor: Nr:Datum:Temp:Abs-Feuchte:Windchill:Wind:
Aussen-T/F 151 04-09-2008 06:05:04 8.7 C 7.96 g/m*3 8.7 C 0 km/h
152 04-09-2008 06:17:04 8.6 C 7.91 g/m*3 8.6 C 0 km/h
153 04-09-2008 06:29:04 8.5 C 7.85 g/m*3 8.5 C 0 km/h
154 04-09-2008 06:41:04 8.6 C 7.91 g/m*3 8.6 C 0 km/h
155 04-09-2008 06:53:04 8.8 C 8.09 g/m*3 8.8 C 0 km/h
156 04-09-2008 07:05:02 9.1 C 8.16 g/m*3 9.1 C 0 km/h
157 04-09-2008 07:17:01 9.3 C 8.27 g/m*3 9.3 C 0 km/h
158 04-09-2008 07:29:01 9.4 C 8.32 g/m*3 9.4 C 0 km/h
159 04-09-2008 07:41:02 9.5 C 8.37 g/m*3 9.5 C 0 km/h
160 04-09-2008 07:53:02 9.5 C 8.28 g/m*3 9.5 C 0 km/h
161 04-09-2008 08:05:02 9.5 C 8.28 g/m*3 9.5 C 0 km/h
162 04-09-2008 08:17:02 9.8 C 8.44 g/m*3 9.8 C 0 km/h
163 04-09-2008 08:29:02 9.9 C 8.5 g/m*3 9.9 C 0 km/h
164 04-09-2008 08:41:02 10.1 C 8.42 g/m*3 10.1 C 0 km/h
165 04-09-2008 08:53:01 10.4 C 8.58 g/m*3 10.4 C 0 km/h
166 04-09-2008 09:05:02 10.6 C 8.69 g/m*3 10.6 C 0 km/h
167 04-09-2008 09:17:01 10.8 C 8.8 g/m*3 10.8 C 0 km/h
168 04-09-2008 09:29:01 11.2 C 8.92 g/m*3 11.2 C 0 km/h
169 04-09-2008 09:41:02 12 C 9.06 g/m*3 12 C 0 km/h
170 04-09-2008 09:53:02 12.6 C 8.96 g/m*3 12.6 C 0 km/h
171 04-09-2008 10:05:02 13.5 C 8.54 g/m*3 13.5 C 0 km/h
172 04-09-2008 10:17:02 14 C 8.2 g/m*3 14 C 0 km/h
173 04-09-2008 10:29:02 14.5 C 8.21 g/m*3 14.5 C 0 km/h
174 04-09-2008 10:41:02 14.8 C 8.11 g/m*3 14.8 C 0 km/h
175 04-09-2008 10:53:02 14.7 C 7.93 g/m*3 14.7 C 0 km/h
Sensor: Nr:Datum:Temp:Abs-Feuchte:Windchill:Wind:
Aussen-T/F 176 04-09-2008 11:05:03 15.2 C 7.79 g/m*3 15.2 C 0 km/h
177 04-09-2008 11:17:02 14.5 C 7.59 g/m*3 14.5 C 0 km/h
178 04-09-2008 11:29:02 14.5 C 7.59 g/m*3 14.5 C 0 km/h
179 04-09-2008 11:41:03 14.7 C 7.68 g/m*3 14.7 C 0 km/h
180 04-09-2008 11:53:02 15.6 C 7.58 g/m*3 15.6 C 0 km/h
181 04-09-2008 12:05:02 16.2 C 7.45 g/m*3 16.2 C 0 km/h
182 04-09-2008 12:17:02 16.4 C 7.54 g/m*3 16.4 C 0 km/h
183 04-09-2008 12:29:02 16.6 C 7.63 g/m*3 16.6 C 0 km/h
184 04-09-2008 12:41:02 17.1 C 7.42 g/m*3 17.1 C 0 km/h
185 04-09-2008 12:53:02 16.8 C 7.58 g/m*3 16.8 C 0 km/h
186 04-09-2008 13:05:01 17.2 C 7.32 g/m*3 17.2 C 0 km/h
187 04-09-2008 13:17:02 17.6 C 7.5 g/m*3 17.6 C 0 km/h
188 04-09-2008 13:29:03 17.7 C 7.24 g/m*3 17.7 C 0 km/h
189 04-09-2008 13:41:01 18 C 7.07 g/m*3 18 C 0 km/h
190 04-09-2008 13:53:03 17.2 C 6.88 g/m*3 17.2 C 0 km/h
191 04-09-2008 14:05:02 17.1 C 6.84 g/m*3 17.1 C 0 km/h
192 04-09-2008 14:17:02 17.2 C 6.74 g/m*3 17.2 C 0 km/h
193 04-09-2008 14:29:02 17.2 C 6.59 g/m*3 17.2 C 0 km/h
194 04-09-2008 14:41:02 17.2 C 6.59 g/m*3 17.2 C 0 km/h
195 04-09-2008 14:53:03 17.1 C 6.55 g/m*3 17.1 C 0 km/h
196 04-09-2008 15:05:02 17.5 C 6.86 g/m*3 17.5 C 0 km/h
197 04-09-2008 15:17:02 17.6 C 6.75 g/m*3 17.6 C 0 km/h
198 04-09-2008 15:29:02 17.4 C 6.52 g/m*3 17.4 C 0 km/h
199 04-09-2008 15:41:02 18 C 6.45 g/m*3 18 C 0 km/h
200 04-09-2008 15:53:02 19 C 6.52 g/m*3 19 C 0 km/h
Sensor: Nr:Datum:Temp:Abs-Feuchte:Windchill:Wind:
Aussen-T/F 201 04-09-2008 16:05:02 19.9 C 6.53 g/m*3 19.9 C 0 km/h
202 04-09-2008 16:17:02 18.8 C 6.28 g/m*3 18.8 C 0 km/h
203 04-09-2008 16:29:02 18.6 C 6.05 g/m*3 18.6 C 0 km/h
204 04-09-2008 16:41:03 19.2 C 6.27 g/m*3 19.2 C 0 km/h
205 04-09-2008 16:53:02 19 C 5.87 g/m*3 19 C 0 km/h
206 04-09-2008 17:05:02 19.8 C 5.81 g/m*3 19.8 C 0 km/h
207 04-09-2008 17:17:02 20 C 5.88 g/m*3 20 C 0 km/h
208 04-09-2008 17:29:02 19.8 C 5.81 g/m*3 19.8 C 0 km/h
209 04-09-2008 17:41:02 19.6 C 5.91 g/m*3 19.6 C 0 km/h
210 04-09-2008 17:53:02 19.3 C 5.81 g/m*3 19.3 C 0 km/h
211 04-09-2008 18:05:01 19.3 C 6.14 g/m*3 19.3 C 0 km/h
212 04-09-2008 18:17:01 19.1 C 5.9 g/m*3 19.1 C 0 km/h
213 04-09-2008 18:29:01 18.8 C 6.12 g/m*3 18.8 C 0 km/h
214 04-09-2008 18:41:01 18.3 C 5.94 g/m*3 18.3 C 0 km/h
215 04-09-2008 18:53:02 17.8 C 6.07 g/m*3 17.8 C 0 km/h
216 04-09-2008 19:05:02 17.7 C 6.34 g/m*3 17.7 C 0 km/h
217 04-09-2008 19:17:02 17.3 C 6.33 g/m*3 17.3 C 0 km/h
218 04-09-2008 19:29:02 16.8 C 6.58 g/m*3 16.8 C 0 km/h
219 04-09-2008 19:41:02 16.5 C 6.88 g/m*3 16.5 C 0 km/h
220 04-09-2008 19:53:03 16.1 C 6.99 g/m*3 16.1 C 0 km/h
221 04-09-2008 20:05:02 15.6 C 7.31 g/m*3 15.6 C 0 km/h
222 04-09-2008 20:17:02 15.2 C 7.4 g/m*3 15.2 C 0 km/h
223 04-09-2008 20:29:02 14.9 C 7.52 g/m*3 14.9 C 0 km/h
224 04-09-2008 20:41:02 14.7 C 7.3 g/m*3 14.7 C 0 km/h
225 04-09-2008 20:53:02 14.3 C 7.13 g/m*3 14.3 C 0 km/h
Sensor: Nr:Datum:Temp:Abs-Feuchte:Windchill:Wind:
Aussen-T/F 226 04-09-2008 21:05:02 14.3 C 7.13 g/m*3 14.3 C 0 km/h
227 04-09-2008 21:17:02 14.4 C 7.17 g/m*3 14.4 C 0 km/h
228 04-09-2008 21:29:02 14.7 C 6.8 g/m*3 14.7 C 0 km/h
229 04-09-2008 21:41:02 14.7 C 6.92 g/m*3 14.7 C 0 km/h
230 04-09-2008 21:54:03 14.4 C 7.05 g/m*3 14.4 C 0 km/h
231 04-09-2008 22:06:03 14.4 C 7.29 g/m*3 14.4 C 0 km/h
232 04-09-2008 22:18:03 14.3 C 7.37 g/m*3 14.3 C 0 km/h
233 04-09-2008 22:30:03 14.2 C 7.57 g/m*3 14.2 C 0 km/h
234 04-09-2008 22:42:03 14 C 7.72 g/m*3 14 C 0 km/h
235 04-09-2008 22:54:03 14 C 7.84 g/m*3 14 C 0 km/h
236 04-09-2008 23:06:03 13.9 C 8.03 g/m*3 13.9 C 0 km/h
237 04-09-2008 23:18:03 13.9 C 8.15 g/m*3 13.9 C 0 km/h
238 04-09-2008 23:30:03 13.8 C 8.34 g/m*3 13.8 C 0 km/h
239 04-09-2008 23:42:03 13.8 C 8.34 g/m*3 13.8 C 0 km/h
240 04-09-2008 23:54:04 13.8 C 8.34 g/m*3 13.8 C 0 km/h
241 05-09-2008 00:06:04 13.8 C 8.34 g/m*3 13.8 C 0 km/h
242 05-09-2008 00:18:04 13.7 C 8.29 g/m*3 13.7 C 0 km/h
243 05-09-2008 00:30:04 13.6 C 8.36 g/m*3 13.6 C 0 km/h
244 05-09-2008 00:42:04 13.6 C 8.47 g/m*3 13.6 C 0 km/h
245 05-09-2008 00:54:04 13.3 C 8.55 g/m*3 13.3 C 0 km/h
246 05-09-2008 01:06:04 13.2 C 8.84 g/m*3 13.2 C 0 km/h
247 05-09-2008 01:18:04 13.2 C 8.96 g/m*3 13.2 C 0 km/h
248 05-09-2008 01:30:04 13.3 C 9.01 g/m*3 13.3 C 0 km/h
249 05-09-2008 01:42:04 13.3 C 9.01 g/m*3 13.3 C 0 km/h
250 05-09-2008 01:54:04 13.2 C 8.84 g/m*3 13.2 C 0 km/h
Sensor: Nr:Datum:Temp:Abs-Feuchte:Windchill:Wind:
Aussen-T/F 251 05-09-2008 02:06:04 13.2 C 8.84 g/m*3 13.2 C 0 km/h
252 05-09-2008 02:18:04 13.3 C 8.9 g/m*3 13.3 C 0 km/h
253 05-09-2008 02:30:04 13.2 C 8.84 g/m*3 13.2 C 0 km/h
254 05-09-2008 02:42:04 13.2 C 8.96 g/m*3 13.2 C 0 km/h
255 05-09-2008 02:54:04 13 C 8.96 g/m*3 13 C 0 km/h
256 05-09-2008 03:06:04 13 C 9.19 g/m*3 13 C 0 km/h
257 05-09-2008 03:18:04 13 C 9.19 g/m*3 13 C 0 km/h
258 05-09-2008 03:30:04 12.8 C 9.3 g/m*3 12.8 C 0 km/h
259 05-09-2008 03:42:04 12.7 C 9.35 g/m*3 12.7 C 0 km/h
260 05-09-2008 03:54:04 12.7 C 9.46 g/m*3 12.7 C 0 km/h
261 05-09-2008 04:06:05 12.8 C 9.52 g/m*3 12.8 C 0 km/h
262 05-09-2008 04:18:05 12.7 C 9.46 g/m*3 12.7 C 0 km/h
263 05-09-2008 04:30:05 12.5 C 9.35 g/m*3 12.5 C 0 km/h
264 05-09-2008 04:42:05 12.3 C 9.23 g/m*3 12.3 C 0 km/h
265 05-09-2008 04:54:05 12.1 C 9.22 g/m*3 12.1 C 0 km/h
266 05-09-2008 05:06:05 12.1 C 9.22 g/m*3 12.1 C 0 km/h
267 05-09-2008 05:18:05 12.1 C 9.22 g/m*3 12.1 C 0 km/h
268 05-09-2008 05:30:05 12.3 C 9.45 g/m*3 12.3 C 0 km/h
269 05-09-2008 05:42:05 12.3 C 9.45 g/m*3 12.3 C 0 km/h
270 05-09-2008 05:54:05 12.4 C 9.29 g/m*3 12.4 C 0 km/h
271 05-09-2008 06:06:05 12.3 C 9.23 g/m*3 12.3 C 0 km/h
272 05-09-2008 06:18:05 12.4 C 9.29 g/m*3 12.4 C 0 km/h
273 05-09-2008 06:30:05 12.5 C 9.35 g/m*3 12.5 C 0 km/h
274 05-09-2008 06:42:05 12.8 C 9.63 g/m*3 12.8 C 0 km/h
275 05-09-2008 06:54:05 13 C 9.53 g/m*3 13 C 0 km/h
Sensor: Nr:Datum:Temp:Abs-Feuchte:Windchill:Wind:
Aussen-T/F 276 05-09-2008 07:06:04 13.1 C 9.47 g/m*3 13.1 C 0 km/h
277 05-09-2008 07:18:04 13 C 9.41 g/m*3 13 C 0 km/h
278 05-09-2008 07:30:04 13 C 9.41 g/m*3 13 C 0 km/h
279 05-09-2008 07:42:04 13.4 C 9.65 g/m*3 13.4 C 0 km/h
280 05-09-2008 07:54:03 13.4 C 9.53 g/m*3 13.4 C 0 km/h
281 05-09-2008 08:06:02 13.5 C 9.59 g/m*3 13.5 C 0 km/h
282 05-09-2008 08:18:02 13.6 C 9.53 g/m*3 13.6 C 0 km/h
283 05-09-2008 08:30:03 13.5 C 9.59 g/m*3 13.5 C 0 km/h
284 05-09-2008 08:42:02 13.4 C 9.53 g/m*3 13.4 C 0 km/h
285 05-09-2008 08:54:02 13.4 C 9.65 g/m*3 13.4 C 0 km/h
286 05-09-2008 09:06:02 13.7 C 9.95 g/m*3 13.7 C 0 km/h
287 05-09-2008 09:18:02 14.3 C 10.2 g/m*3 14.3 C 0 km/h
288 05-09-2008 09:30:02 15.2 C 9.99 g/m*3 15.2 C 0 km/h
289 05-09-2008 09:42:03 15.8 C 10.23 g/m*3 15.8 C 0 km/h
290 05-09-2008 09:54:02 16.4 C 10.05 g/m*3 16.4 C 0 km/h
291 05-09-2008 10:06:03 16.7 C 9.95 g/m*3 16.7 C 0 km/h
292 05-09-2008 10:18:02 17.2 C 9.81 g/m*3 17.2 C 0 km/h
293 05-09-2008 10:30:02 17.6 C 9.75 g/m*3 17.6 C 0 km/h
294 05-09-2008 10:42:02 17.8 C 9.71 g/m*3 17.8 C 0 km/h
295 05-09-2008 10:54:02 18.1 C 9.58 g/m*3 18.1 C 0 km/h
296 05-09-2008 11:06:02 18.3 C 9.38 g/m*3 18.3 C 0 km/h
297 05-09-2008 11:18:01 18.3 C 9.54 g/m*3 18.3 C 0 km/h
298 05-09-2008 11:30:01 18.5 C 9.65 g/m*3 18.5 C 0 km/h
299 05-09-2008 11:42:02 19.4 C 9.84 g/m*3 19.4 C 0 km/h
300 05-09-2008 11:54:02 19.8 C 9.57 g/m*3 19.8 C 0 km/h
Sensor: Nr:Datum:Temp:Abs-Feuchte:Windchill:Wind:
Aussen-T/F 301 05-09-2008 12:06:03 20.1 C 9.56 g/m*3 20.1 C 0 km/h
302 05-09-2008 12:18:02 19.9 C 9.62 g/m*3 19.9 C 0 km/h
303 05-09-2008 12:30:02 21.1 C 9.58 g/m*3 21.1 C 0 km/h
304 05-09-2008 12:42:02 21.4 C 9.56 g/m*3 21.4 C 0 km/h
305 05-09-2008 12:54:02 21.2 C 9.45 g/m*3 21.2 C 0 km/h
306 05-09-2008 13:06:01 21.2 C 9.45 g/m*3 21.2 C 0 km/h
307 05-09-2008 13:18:02 22.1 C 9.56 g/m*3 22.1 C 0 km/h
308 05-09-2008 13:30:03 22.5 C 9.79 g/m*3 22.5 C 0 km/h
309 05-09-2008 13:42:01 22.5 C 9.79 g/m*3 22.5 C 0 km/h
310 05-09-2008 13:54:02 21.9 C 9.84 g/m*3 21.9 C 0 km/h
311 05-09-2008 14:06:01 22.3 C 9.68 g/m*3 22.3 C 0 km/h
312 05-09-2008 14:18:02 22.2 C 9.82 g/m*3 22.2 C 0 km/h
313 05-09-2008 14:30:02 22.1 C 9.96 g/m*3 22.1 C 0 km/h
314 05-09-2008 14:42:01 21.9 C 10.03 g/m*3 21.9 C 0 km/h
315 05-09-2008 14:54:02 21.6 C 10.24 g/m*3 21.6 C 0 km/h
316 05-09-2008 15:06:02 20.9 C 10.2 g/m*3 20.9 C 0 km/h
317 05-09-2008 15:18:02 20.8 C 10.5 g/m*3 20.8 C 0 km/h
318 05-09-2008 15:30:02 20.8 C 10.5 g/m*3 20.8 C 0 km/h
319 05-09-2008 15:42:02 20.9 C 10.56 g/m*3 20.9 C 0 km/h
320 05-09-2008 15:54:01 21.2 C 10.56 g/m*3 21.2 C 0 km/h
321 05-09-2008 16:06:02 21.7 C 10.68 g/m*3 21.7 C 0 km/h
322 05-09-2008 16:18:01 22.1 C 10.35 g/m*3 22.1 C 0 km/h
323 05-09-2008 16:30:01 22 C 10.48 g/m*3 22 C 0 km/h
324 05-09-2008 16:42:02 22.1 C 10.54 g/m*3 22.1 C 0 km/h
325 05-09-2008 16:54:02 22.6 C 10.65 g/m*3 22.6 C 0 km/h
Sensor: Nr:Datum:Temp:Abs-Feuchte:Windchill:Wind:
Aussen-T/F 326 05-09-2008 17:06:01 22.5 C 10.99 g/m*3 22.5 C 0 km/h
327 05-09-2008 17:18:02 21.8 C 10.74 g/m*3 21.8 C 0 km/h
328 05-09-2008 17:30:02 21.9 C 10.81 g/m*3 21.9 C 0 km/h
329 05-09-2008 17:42:02 21.7 C 10.49 g/m*3 21.7 C 0 km/h
330 05-09-2008 17:54:03 21.6 C 10.43 g/m*3 21.6 C 0 km/h
331 05-09-2008 18:06:02 21.6 C 10.62 g/m*3 21.6 C 0 km/h
332 05-09-2008 18:18:03 21.6 C 10.81 g/m*3 21.6 C 0 km/h
333 05-09-2008 18:30:03 21.5 C 10.94 g/m*3 21.5 C 0 km/h
334 05-09-2008 18:42:02 21.4 C 10.87 g/m*3 21.4 C 0 km/h
335 05-09-2008 18:54:02 21.5 C 11.13 g/m*3 21.5 C 0 km/h
336 05-09-2008 19:06:02 21.5 C 11.13 g/m*3 21.5 C 0 km/h
337 05-09-2008 19:18:02 21 C 11.36 g/m*3 21 C 0 km/h
338 05-09-2008 19:30:02 20 C 11.92 g/m*3 20 C 0 km/h
339 05-09-2008 19:42:02 19.5 C 12.25 g/m*3 19.5 C 0 km/h
340 05-09-2008 19:54:01 18.1 C 11.43 g/m*3 18.1 C 0 km/h
341 05-09-2008 20:06:02 17.2 C 12.15 g/m*3 17.2 C 0 km/h
342 05-09-2008 20:18:01 17 C 12.3 g/m*3 17 C 0 km/h
343 05-09-2008 20:30:01 16.9 C 12.66 g/m*3 16.9 C 0 km/h
344 05-09-2008 20:42:02 16.9 C 12.8 g/m*3 16.9 C 0 km/h
345 05-09-2008 20:54:02 16.9 C 12.94 g/m*3 16.9 C 0 km/h
346 05-09-2008 21:06:02 16.9 C 12.94 g/m*3 16.9 C 0 km/h
347 05-09-2008 21:18:02 16.9 C 13.09 g/m*3 16.9 C 0 km/h
348 05-09-2008 21:30:02 17 C 13.17 g/m*3 17 C 0 km/h
349 05-09-2008 21:42:02 17 C 13.17 g/m*3 17 C 0 km/h
350 05-09-2008 21:54:02 17.1 C 13.39 g/m*3 17.1 C 0 km/h
Sensor: Nr:Datum:Temp:Abs-Feuchte:Windchill:Wind:
Aussen-T/F 351 05-09-2008 22:06:02 17.1 C 13.39 g/m*3 17.1 C 0 km/h
352 05-09-2008 22:19:02 17.1 C 13.39 g/m*3 17.1 C 0 km/h
353 05-09-2008 22:31:02 17.2 C 13.62 g/m*3 17.2 C 0 km/h
354 05-09-2008 22:43:02 17.2 C 13.62 g/m*3 17.2 C 0 km/h
355 05-09-2008 22:55:02 17.1 C 13.54 g/m*3 17.1 C 0 km/h
356 05-09-2008 23:07:02 17 C 13.46 g/m*3 17 C 0 km/h
357 05-09-2008 23:19:02 16.9 C 13.52 g/m*3 16.9 C 0 km/h
358 05-09-2008 23:31:02 16.8 C 13.44 g/m*3 16.8 C 0 km/h
359 05-09-2008 23:43:03 16.8 C 13.44 g/m*3 16.8 C 0 km/h
360 05-09-2008 23:55:03 16.7 C 13.36 g/m*3 16.7 C 0 km/h
361 06-09-2008 00:07:03 16.5 C 13.2 g/m*3 16.5 C 0 km/h
362 06-09-2008 00:19:03 16.4 C 13.12 g/m*3 16.4 C 0 km/h
363 06-09-2008 00:31:03 16.4 C 13.12 g/m*3 16.4 C 0 km/h
364 06-09-2008 00:43:03 16.4 C 13.12 g/m*3 16.4 C 0 km/h
365 06-09-2008 00:55:03 16.4 C 13.26 g/m*3 16.4 C 0 km/h
366 06-09-2008 01:07:03 16.1 C 12.88 g/m*3 16.1 C 0 km/h
367 06-09-2008 01:19:03 16 C 12.81 g/m*3 16 C 0 km/h
368 06-09-2008 01:31:03 15.9 C 12.87 g/m*3 15.9 C 0 km/h
369 06-09-2008 01:43:03 15.7 C 12.71 g/m*3 15.7 C 0 km/h
370 06-09-2008 01:55:03 15.6 C 12.63 g/m*3 15.6 C 0 km/h
371 06-09-2008 02:07:03 15.6 C 12.63 g/m*3 15.6 C 0 km/h
372 06-09-2008 02:19:03 15.7 C 12.71 g/m*3 15.7 C 0 km/h
373 06-09-2008 02:31:03 15.7 C 12.71 g/m*3 15.7 C 0 km/h
374 06-09-2008 02:43:03 15.7 C 12.71 g/m*3 15.7 C 0 km/h
375 06-09-2008 02:55:03 15.7 C 12.71 g/m*3 15.7 C 0 km/h
Sensor: Nr:Datum:Temp:Abs-Feuchte:Windchill:Wind:
Aussen-T/F 376 06-09-2008 03:07:03 15.6 C 12.5 g/m*3 15.6 C 0 km/h
377 06-09-2008 03:19:03 15.6 C 12.5 g/m*3 15.6 C 0 km/h
378 06-09-2008 03:31:04 15.6 C 12.5 g/m*3 15.6 C 0 km/h
379 06-09-2008 03:43:04 15.6 C 12.5 g/m*3 15.6 C 0 km/h
380 06-09-2008 03:55:04 15.5 C 12.56 g/m*3 15.5 C 0 km/h
381 06-09-2008 04:07:04 15.5 C 12.56 g/m*3 15.5 C 0 km/h
382 06-09-2008 04:19:04 15.5 C 12.56 g/m*3 15.5 C 0 km/h
383 06-09-2008 04:31:04 15.4 C 12.48 g/m*3 15.4 C 0 km/h
384 06-09-2008 04:43:04 15.4 C 12.48 g/m*3 15.4 C 0 km/h
385 06-09-2008 04:55:04 15.2 C 12.33 g/m*3 15.2 C 0 km/h
386 06-09-2008 05:07:04 15.2 C 12.33 g/m*3 15.2 C 0 km/h
387 06-09-2008 05:19:04 15.2 C 12.33 g/m*3 15.2 C 0 km/h
388 06-09-2008 05:31:04 15.3 C 12.41 g/m*3 15.3 C 0 km/h
389 06-09-2008 05:43:04 15.3 C 12.41 g/m*3 15.3 C 0 km/h
390 06-09-2008 05:55:04 15.4 C 12.48 g/m*3 15.4 C 0 km/h
391 06-09-2008 06:07:04 15.6 C 12.63 g/m*3 15.6 C 0 km/h
392 06-09-2008 06:19:04 15.7 C 12.71 g/m*3 15.7 C 0 km/h
393 06-09-2008 06:31:04 15.8 C 12.79 g/m*3 15.8 C 0 km/h
394 06-09-2008 06:43:04 15.8 C 12.79 g/m*3 15.8 C 0 km/h
395 06-09-2008 06:55:04 15.7 C 12.71 g/m*3 15.7 C 0 km/h
396 06-09-2008 07:07:04 15.8 C 12.79 g/m*3 15.8 C 0 km/h
397 06-09-2008 07:19:05 15.7 C 12.71 g/m*3 15.7 C 0 km/h
398 06-09-2008 07:31:05 16 C 12.81 g/m*3 16 C 0 km/h
399 06-09-2008 07:43:05 16.2 C 12.82 g/m*3 16.2 C 0 km/h
400 06-09-2008 07:55:05 16.3 C 12.62 g/m*3 16.3 C 0 km/h
Sensor: Nr:Datum:Temp:Abs-Feuchte:Windchill:Wind:
Aussen-T/F 401 06-09-2008 08:07:02 16.3 C 12.35 g/m*3 16.3 C 0 km/h
402 06-09-2008 08:19:02 16.3 C 12.35 g/m*3 16.3 C 0 km/h
403 06-09-2008 08:31:02 16.6 C 12.57 g/m*3 16.6 C 0 km/h
404 06-09-2008 08:43:02 17 C 12.44 g/m*3 17 C 0 km/h
405 06-09-2008 08:55:02 17.1 C 12.23 g/m*3 17.1 C 0 km/h
406 06-09-2008 09:07:03 17.4 C 12.45 g/m*3 17.4 C 0 km/h
407 06-09-2008 09:19:02 18 C 12.13 g/m*3 18 C 0 km/h
408 06-09-2008 09:31:02 18.5 C 12.02 g/m*3 18.5 C 0 km/h
409 06-09-2008 09:43:02 18.5 C 11.71 g/m*3 18.5 C 0 km/h
410 06-09-2008 09:55:02 19.1 C 11.47 g/m*3 19.1 C 0 km/h
411 06-09-2008 10:07:02 19.5 C 11.24 g/m*3 19.5 C 0 km/h
412 06-09-2008 10:19:02 19.6 C 10.97 g/m*3 19.6 C 0 km/h
413 06-09-2008 10:31:02 20.2 C 10.84 g/m*3 20.2 C 0 km/h
414 06-09-2008 10:43:02 20 C 10.54 g/m*3 20 C 0 km/h
415 06-09-2008 10:55:02 20.3 C 10.73 g/m*3 20.3 C 0 km/h
416 06-09-2008 11:07:01 20.4 C 10.61 g/m*3 20.4 C 0 km/h
417 06-09-2008 11:19:01 20.9 C 10.56 g/m*3 20.9 C 0 km/h
418 06-09-2008 11:31:02 20.9 C 10.38 g/m*3 20.9 C 0 km/h
419 06-09-2008 11:43:02 21.3 C 10.25 g/m*3 21.3 C 0 km/h
420 06-09-2008 11:55:02 21.7 C 10.3 g/m*3 21.7 C 0 km/h
421 06-09-2008 12:07:02 21.2 C 10.01 g/m*3 21.2 C 0 km/h
422 06-09-2008 12:19:02 21.3 C 10.25 g/m*3 21.3 C 0 km/h
423 06-09-2008 12:31:02 21 C 9.89 g/m*3 21 C 0 km/h
424 06-09-2008 12:43:02 20.8 C 10.14 g/m*3 20.8 C 0 km/h
425 06-09-2008 12:55:02 20.8 C 10.32 g/m*3 20.8 C 0 km/h
Sensor: Nr:Datum:Temp:Abs-Feuchte:Windchill:Wind:
Aussen-T/F 426 06-09-2008 13:07:02 20.8 C 10.32 g/m*3 20.8 C 0 km/h
427 06-09-2008 13:19:02 20.8 C 9.6 g/m*3 20.8 C 0 km/h
428 06-09-2008 13:31:02 20.9 C 9.47 g/m*3 20.9 C 0 km/h
429 06-09-2008 13:43:02 20.8 C 9.6 g/m*3 20.8 C 0 km/h
430 06-09-2008 13:55:01 20.6 C 9.66 g/m*3 20.6 C 0 km/h
431 06-09-2008 14:07:02 20.3 C 9.5 g/m*3 20.3 C 0 km/h
432 06-09-2008 14:19:02 20.4 C 9.38 g/m*3 20.4 C 0 km/h
433 06-09-2008 14:31:02 20.2 C 9.79 g/m*3 20.2 C 0 km/h
434 06-09-2008 14:43:02 20 C 9.85 g/m*3 20 C 0 km/h
435 06-09-2008 14:55:02 19.8 C 9.57 g/m*3 19.8 C 0 km/h
436 06-09-2008 15:07:02 19.8 C 8.71 g/m*3 19.8 C 0 km/h
437 06-09-2008 15:19:02 19.7 C 8.32 g/m*3 19.7 C 0 km/h
438 06-09-2008 15:31:02 19.8 C 8.03 g/m*3 19.8 C 0 km/h
439 06-09-2008 15:43:03 19.8 C 8.03 g/m*3 19.8 C 0 km/h
440 06-09-2008 15:55:01 19.5 C 8.06 g/m*3 19.5 C 0 km/h
441 06-09-2008 16:07:02 19.4 C 8.18 g/m*3 19.4 C 0 km/h
442 06-09-2008 16:19:01 19.3 C 8.79 g/m*3 19.3 C 0 km/h
443 06-09-2008 16:31:02 19.3 C 8.79 g/m*3 19.3 C 0 km/h
444 06-09-2008 16:43:02 19.2 C 9.23 g/m*3 19.2 C 0 km/h
445 06-09-2008 16:55:02 19.2 C 9.56 g/m*3 19.2 C 0 km/h
446 06-09-2008 17:07:02 19 C 9.61 g/m*3 19 C 0 km/h
447 06-09-2008 17:19:02 18.1 C 10.66 g/m*3 18.1 C 0 km/h
448 06-09-2008 17:31:02 17.9 C 11.3 g/m*3 17.9 C 0 km/h
449 06-09-2008 17:43:02 18 C 10.91 g/m*3 18 C 0 km/h
450 06-09-2008 17:55:02 18.1 C 11.12 g/m*3 18.1 C 0 km/h
Sensor: Nr:Datum:Temp:Abs-Feuchte:Windchill:Wind:
Aussen-T/F 451 06-09-2008 18:07:01 18.3 C 10.94 g/m*3 18.3 C 0 km/h
452 06-09-2008 18:19:02 18.5 C 10.76 g/m*3 18.5 C 0 km/h
453 06-09-2008 18:31:01 18.5 C 10.76 g/m*3 18.5 C 0 km/h
454 06-09-2008 18:43:01 18.4 C 10.85 g/m*3 18.4 C 0 km/h
455 06-09-2008 18:55:03 18 C 10.75 g/m*3 18 C 0 km/h
456 06-09-2008 19:07:02 17.9 C 10.99 g/m*3 17.9 C 0 km/h
457 06-09-2008 19:19:02 17.7 C 11.01 g/m*3 17.7 C 0 km/h
458 06-09-2008 19:31:02 17.5 C 11.03 g/m*3 17.5 C 0 km/h
459 06-09-2008 19:43:02 17.4 C 10.82 g/m*3 17.4 C 0 km/h
460 06-09-2008 19:55:02 17.5 C 10.88 g/m*3 17.5 C 0 km/h
461 06-09-2008 20:07:02 17.2 C 10.98 g/m*3 17.2 C 0 km/h
462 06-09-2008 20:19:02 17.1 C 10.92 g/m*3 17.1 C 0 km/h
463 06-09-2008 20:31:02 16.9 C 10.93 g/m*3 16.9 C 0 km/h
464 06-09-2008 20:43:02 16.8 C 10.87 g/m*3 16.8 C 0 km/h
465 06-09-2008 20:55:02 16.8 C 10.58 g/m*3 16.8 C 0 km/h
466 06-09-2008 21:07:02 16.7 C 10.23 g/m*3 16.7 C 0 km/h
467 06-09-2008 21:19:02 16.6 C 10.31 g/m*3 16.6 C 0 km/h
468 06-09-2008 21:31:02 16.4 C 10.33 g/m*3 16.4 C 0 km/h
469 06-09-2008 21:43:02 16.2 C 10.34 g/m*3 16.2 C 0 km/h
470 06-09-2008 21:55:01 16 C 10.49 g/m*3 16 C 0 km/h
471 06-09-2008 22:07:01 15.9 C 10.56 g/m*3 15.9 C 0 km/h
472 06-09-2008 22:20:02 15.9 C 10.56 g/m*3 15.9 C 0 km/h
473 06-09-2008 22:32:02 15.7 C 10.57 g/m*3 15.7 C 0 km/h
474 06-09-2008 22:44:02 15.6 C 10.51 g/m*3 15.6 C 0 km/h
475 06-09-2008 22:56:02 15.5 C 10.44 g/m*3 15.5 C 0 km/h
Sensor: Nr:Datum:Temp:Abs-Feuchte:Windchill:Wind:
Aussen-T/F 476 06-09-2008 23:08:02 15.4 C 10.38 g/m*3 15.4 C 0 km/h
477 06-09-2008 23:20:02 15.4 C 10.51 g/m*3 15.4 C 0 km/h
478 06-09-2008 23:32:02 15.4 C 10.38 g/m*3 15.4 C 0 km/h
479 06-09-2008 23:44:02 15.6 C 10.51 g/m*3 15.6 C 0 km/h
480 06-09-2008 23:56:02 15.6 C 10.51 g/m*3 15.6 C 0 km/h
481 07-09-2008 00:08:02 15.3 C 10.19 g/m*3 15.3 C 0 km/h
482 07-09-2008 00:20:02 15.2 C 10.25 g/m*3 15.2 C 0 km/h
483 07-09-2008 00:32:02 15.2 C 10.25 g/m*3 15.2 C 0 km/h
484 07-09-2008 00:44:02 15.3 C 10.32 g/m*3 15.3 C 0 km/h
485 07-09-2008 00:56:02 15.3 C 10.32 g/m*3 15.3 C 0 km/h
486 07-09-2008 01:08:02 15.3 C 10.32 g/m*3 15.3 C 0 km/h
487 07-09-2008 01:20:02 15.2 C 10.25 g/m*3 15.2 C 0 km/h
488 07-09-2008 01:32:03 15.3 C 10.19 g/m*3 15.3 C 0 km/h
489 07-09-2008 01:44:03 15.3 C 10.06 g/m*3 15.3 C 0 km/h
490 07-09-2008 01:56:03 15.2 C 9.99 g/m*3 15.2 C 0 km/h
491 07-09-2008 02:08:03 15.3 C 10.06 g/m*3 15.3 C 0 km/h
492 07-09-2008 02:20:03 15.3 C 9.92 g/m*3 15.3 C 0 km/h
493 07-09-2008 02:32:03 15.1 C 9.8 g/m*3 15.1 C 0 km/h
494 07-09-2008 02:44:03 15 C 9.87 g/m*3 15 C 0 km/h
495 07-09-2008 02:56:03 14.7 C 9.82 g/m*3 14.7 C 0 km/h
496 07-09-2008 03:08:03 14.4 C 9.64 g/m*3 14.4 C 0 km/h
497 07-09-2008 03:20:03 14.3 C 9.71 g/m*3 14.3 C 0 km/h
498 07-09-2008 03:32:03 14.4 C 9.77 g/m*3 14.4 C 0 km/h
499 07-09-2008 03:44:03 14.3 C 9.58 g/m*3 14.3 C 0 km/h
500 07-09-2008 03:56:03 14.1 C 9.47 g/m*3 14.1 C 0 km/h
Sensor: Nr:Datum:Temp:Abs-Feuchte:Windchill:Wind:
Aussen-T/F 501 07-09-2008 04:08:03 14.1 C 9.59 g/m*3 14.1 C 0 km/h
502 07-09-2008 04:20:03 14.1 C 9.47 g/m*3 14.1 C 0 km/h
503 07-09-2008 04:32:03 13.8 C 9.53 g/m*3 13.8 C 0 km/h
504 07-09-2008 04:44:03 14.1 C 9.59 g/m*3 14.1 C 0 km/h
505 07-09-2008 04:56:03 14.2 C 9.65 g/m*3 14.2 C 0 km/h
506 07-09-2008 05:08:03 13.9 C 9.47 g/m*3 13.9 C 0 km/h
507 07-09-2008 05:20:04 13.7 C 9.47 g/m*3 13.7 C 0 km/h
508 07-09-2008 05:32:04 13.5 C 9.47 g/m*3 13.5 C 0 km/h
509 07-09-2008 05:44:04 13.2 C 9.42 g/m*3 13.2 C 0 km/h
510 07-09-2008 05:56:04 13.1 C 9.47 g/m*3 13.1 C 0 km/h
511 07-09-2008 06:08:04 13.1 C 9.47 g/m*3 13.1 C 0 km/h
512 07-09-2008 06:20:04 13.1 C 9.47 g/m*3 13.1 C 0 km/h
513 07-09-2008 06:32:04 13.2 C 9.42 g/m*3 13.2 C 0 km/h
514 07-09-2008 06:44:04 13.5 C 9.59 g/m*3 13.5 C 0 km/h
515 07-09-2008 06:56:04 13.7 C 9.47 g/m*3 13.7 C 0 km/h
516 07-09-2008 07:08:04 13.8 C 9.29 g/m*3 13.8 C 0 km/h
517 07-09-2008 07:20:04 13.8 C 9.17 g/m*3 13.8 C 0 km/h
518 07-09-2008 07:32:04 13.8 C 9.17 g/m*3 13.8 C 0 km/h
519 07-09-2008 07:44:04 14.1 C 9.1 g/m*3 14.1 C 0 km/h
520 07-09-2008 07:56:04 14.3 C 8.97 g/m*3 14.3 C 0 km/h
521 07-09-2008 08:08:04 14.3 C 9.09 g/m*3 14.3 C 0 km/h
522 07-09-2008 08:20:04 14.5 C 9.2 g/m*3 14.5 C 0 km/h
523 07-09-2008 08:32:04 14.6 C 9.26 g/m*3 14.6 C 0 km/h
524 07-09-2008 08:44:04 14.7 C 9.07 g/m*3 14.7 C 0 km/h
525 07-09-2008 08:56:04 15.3 C 9.27 g/m*3 15.3 C 0 km/h
Sensor: Nr:Datum:Temp:Abs-Feuchte:Windchill:Wind:
Aussen-T/F 526 07-09-2008 09:08:01 15.8 C 9.42 g/m*3 15.8 C 0 km/h
527 07-09-2008 09:20:02 16.1 C 8.5 g/m*3 16.1 C 0 km/h
528 07-09-2008 09:32:02 16.1 C 8.5 g/m*3 16.1 C 0 km/h
529 07-09-2008 09:44:02 15.9 C 8.4 g/m*3 15.9 C 0 km/h
530 07-09-2008 09:56:03 16.3 C 8.46 g/m*3 16.3 C 0 km/h
531 07-09-2008 10:08:02 17.3 C 8.4 g/m*3 17.3 C 0 km/h
532 07-09-2008 10:20:03 18.2 C 8.39 g/m*3 18.2 C 0 km/h
533 07-09-2008 10:32:02 18.2 C 8.24 g/m*3 18.2 C 0 km/h
534 07-09-2008 10:44:02 17.9 C 8.4 g/m*3 17.9 C 0 km/h
535 07-09-2008 10:56:03 17.6 C 8.4 g/m*3 17.6 C 0 km/h
536 07-09-2008 11:08:02 17.1 C 8.73 g/m*3 17.1 C 0 km/h
537 07-09-2008 11:20:03 16.9 C 8.63 g/m*3 16.9 C 0 km/h
538 07-09-2008 11:32:02 17.6 C 8.4 g/m*3 17.6 C 0 km/h
539 07-09-2008 11:44:02 17.9 C 8.24 g/m*3 17.9 C 0 km/h
540 07-09-2008 11:56:01 18.2 C 8.08 g/m*3 18.2 C 0 km/h
541 07-09-2008 12:08:02 18.3 C 7.82 g/m*3 18.3 C 0 km/h
542 07-09-2008 12:20:01 18.6 C 8.12 g/m*3 18.6 C 0 km/h
543 07-09-2008 12:32:01 18.7 C 8.33 g/m*3 18.7 C 0 km/h
544 07-09-2008 12:44:01 19.1 C 8.03 g/m*3 19.1 C 0 km/h
545 07-09-2008 12:56:01 19.4 C 8.34 g/m*3 19.4 C 0 km/h
546 07-09-2008 13:08:02 19 C 8.15 g/m*3 19 C 0 km/h
547 07-09-2008 13:20:01 19.1 C 8.36 g/m*3 19.1 C 0 km/h
548 07-09-2008 13:32:02 19.3 C 8.29 g/m*3 19.3 C 0 km/h
549 07-09-2008 13:44:02 20 C 8.3 g/m*3 20 C 0 km/h
550 07-09-2008 13:56:02 20.7 C 8.46 g/m*3 20.7 C 0 km/h
Sensor: Nr:Datum:Temp:Abs-Feuchte:Windchill:Wind:
Aussen-T/F 551 07-09-2008 14:08:02 20 C 8.12 g/m*3 20 C 0 km/h
552 07-09-2008 14:20:02 20.4 C 8.31 g/m*3 20.4 C 0 km/h
553 07-09-2008 14:32:02 20.6 C 8.05 g/m*3 20.6 C 0 km/h
554 07-09-2008 14:44:02 20.6 C 8.23 g/m*3 20.6 C 0 km/h
555 07-09-2008 14:56:02 20 C 8.12 g/m*3 20 C 0 km/h
556 07-09-2008 15:08:01 19.2 C 8.24 g/m*3 19.2 C 0 km/h
557 07-09-2008 15:20:02 18.9 C 8.75 g/m*3 18.9 C 0 km/h
558 07-09-2008 15:32:02 19.3 C 8.96 g/m*3 19.3 C 0 km/h
559 07-09-2008 15:44:02 20.3 C 8.44 g/m*3 20.3 C 0 km/h
560 07-09-2008 15:56:03 20 C 8.47 g/m*3 20 C 0 km/h
561 07-09-2008 16:08:02 18.4 C 9.12 g/m*3 18.4 C 0 km/h
562 07-09-2008 16:20:02 16.7 C 11.08 g/m*3 16.7 C 0 km/h
563 07-09-2008 16:32:02 17.8 C 11.99 g/m*3 17.8 C 0 km/h
564 07-09-2008 16:44:02 18.7 C 11.53 g/m*3 18.7 C 0 km/h
565 07-09-2008 16:56:03 19.5 C 10.74 g/m*3 19.5 C 0 km/h
566 07-09-2008 17:08:02 19.3 C 9.79 g/m*3 19.3 C 0 km/h
567 07-09-2008 17:20:02 19 C 9.61 g/m*3 19 C 0 km/h
568 07-09-2008 17:32:02 19.6 C 9.28 g/m*3 19.6 C 0 km/h
569 07-09-2008 17:44:02 20.8 C 9.05 g/m*3 20.8 C 0 km/h
570 07-09-2008 17:56:02 21 C 8.43 g/m*3 21 C 0 km/h
571 07-09-2008 18:08:02 21.3 C 8.57 g/m*3 21.3 C 0 km/h
572 07-09-2008 18:20:02 21.4 C 8.62 g/m*3 21.4 C 0 km/h
573 07-09-2008 18:32:01 21.7 C 8.97 g/m*3 21.7 C 0 km/h
574 07-09-2008 18:44:01 20.6 C 8.23 g/m*3 20.6 C 0 km/h
575 07-09-2008 18:56:02 20.7 C 8.28 g/m*3 20.7 C 0 km/h
Sensor: Nr:Datum:Temp:Abs-Feuchte:Windchill:Wind:
Aussen-T/F 576 07-09-2008 19:08:02 20.1 C 8 g/m*3 20.1 C 0 km/h
577 07-09-2008 19:20:02 19.4 C 8.18 g/m*3 19.4 C 0 km/h
578 07-09-2008 19:32:02 19 C 9.13 g/m*3 19 C 0 km/h
579 07-09-2008 19:44:02 18.7 C 9.13 g/m*3 18.7 C 0 km/h
580 07-09-2008 19:56:02 18.4 C 9.44 g/m*3 18.4 C 0 km/h
581 07-09-2008 20:08:01 18.2 C 9.17 g/m*3 18.2 C 0 km/h
582 07-09-2008 20:20:01 18 C 9.22 g/m*3 18 C 0 km/h
583 07-09-2008 20:32:02 17.8 C 9.26 g/m*3 17.8 C 0 km/h
584 07-09-2008 20:44:02 17.6 C 9 g/m*3 17.6 C 0 km/h
585 07-09-2008 20:56:02 17.4 C 9.04 g/m*3 17.4 C 0 km/h
586 07-09-2008 21:08:02 17.2 C 8.93 g/m*3 17.2 C 0 km/h
587 07-09-2008 21:20:02 16.9 C 9.06 g/m*3 16.9 C 0 km/h
588 07-09-2008 21:32:02 16.7 C 9.38 g/m*3 16.7 C 0 km/h
589 07-09-2008 21:44:02 16.7 C 9.38 g/m*3 16.7 C 0 km/h
590 07-09-2008 21:56:02 16.4 C 9.35 g/m*3 16.4 C 0 km/h
591 07-09-2008 22:09:02 16.3 C 9.43 g/m*3 16.3 C 0 km/h
592 07-09-2008 22:21:02 16.3 C 9.43 g/m*3 16.3 C 0 km/h
593 07-09-2008 22:33:02 16.1 C 9.46 g/m*3 16.1 C 0 km/h
594 07-09-2008 22:45:02 16 C 9.54 g/m*3 16 C 0 km/h
595 07-09-2008 22:57:02 15.9 C 9.62 g/m*3 15.9 C 0 km/h
596 07-09-2008 23:09:02 15.8 C 9.56 g/m*3 15.8 C 0 km/h
597 07-09-2008 23:21:03 15.8 C 9.69 g/m*3 15.8 C 0 km/h
598 07-09-2008 23:33:03 15.9 C 9.62 g/m*3 15.9 C 0 km/h
599 07-09-2008 23:45:03 15.8 C 9.56 g/m*3 15.8 C 0 km/h
600 07-09-2008 23:57:03 15.8 C 9.56 g/m*3 15.8 C 0 km/h
Sensor: Nr:Datum:Temp:Abs-Feuchte:Windchill:Wind:
Aussen-T/F 601 08-09-2008 00:09:03 15.8 C 9.56 g/m*3 15.8 C 0 km/h
602 08-09-2008 00:21:03 15.7 C 9.5 g/m*3 15.7 C 0 km/h
603 08-09-2008 00:33:03 15.5 C 9.39 g/m*3 15.5 C 0 km/h
604 08-09-2008 00:45:03 15.6 C 9.44 g/m*3 15.6 C 0 km/h
605 08-09-2008 00:57:03 15.6 C 9.44 g/m*3 15.6 C 0 km/h
606 08-09-2008 01:09:03 15.5 C 9.39 g/m*3 15.5 C 0 km/h
607 08-09-2008 01:21:03 15.6 C 9.44 g/m*3 15.6 C 0 km/h
608 08-09-2008 01:33:03 15.5 C 9.39 g/m*3 15.5 C 0 km/h
609 08-09-2008 01:45:03 15.2 C 9.35 g/m*3 15.2 C 0 km/h
610 08-09-2008 01:57:03 15.1 C 9.42 g/m*3 15.1 C 0 km/h
611 08-09-2008 02:09:03 14.9 C 9.56 g/m*3 14.9 C 0 km/h
612 08-09-2008 02:21:03 14.9 C 9.56 g/m*3 14.9 C 0 km/h
613 08-09-2008 02:33:03 15.1 C 9.55 g/m*3 15.1 C 0 km/h
614 08-09-2008 02:45:03 15 C 9.36 g/m*3 15 C 0 km/h
615 08-09-2008 02:57:03 14.8 C 9.37 g/m*3 14.8 C 0 km/h
616 08-09-2008 03:09:04 14.4 C 9.27 g/m*3 14.4 C 0 km/h
617 08-09-2008 03:21:04 14.3 C 9.34 g/m*3 14.3 C 0 km/h
618 08-09-2008 03:33:04 14.2 C 9.4 g/m*3 14.2 C 0 km/h
619 08-09-2008 03:45:04 14.3 C 9.34 g/m*3 14.3 C 0 km/h
620 08-09-2008 03:57:04 14.2 C 9.4 g/m*3 14.2 C 0 km/h
621 08-09-2008 04:09:04 14.1 C 9.47 g/m*3 14.1 C 0 km/h
622 08-09-2008 04:21:04 14.2 C 9.52 g/m*3 14.2 C 0 km/h
623 08-09-2008 04:33:04 14.4 C 9.39 g/m*3 14.4 C 0 km/h
624 08-09-2008 04:45:04 14.5 C 9.33 g/m*3 14.5 C 0 km/h
625 08-09-2008 04:57:04 14.5 C 9.33 g/m*3 14.5 C 0 km/h
Sensor: Nr:Datum:Temp:Abs-Feuchte:Windchill:Wind:
Aussen-T/F 626 08-09-2008 05:09:04 14.4 C 9.27 g/m*3 14.4 C 0 km/h
627 08-09-2008 05:21:04 14.1 C 8.98 g/m*3 14.1 C 0 km/h
628 08-09-2008 05:33:04 14.1 C 8.86 g/m*3 14.1 C 0 km/h
629 08-09-2008 05:45:04 14 C 8.81 g/m*3 14 C 0 km/h
630 08-09-2008 05:57:04 13.9 C 8.99 g/m*3 13.9 C 0 km/h
631 08-09-2008 06:09:04 13.5 C 8.89 g/m*3 13.5 C 0 km/h
632 08-09-2008 06:21:04 13.2 C 8.96 g/m*3 13.2 C 0 km/h
633 08-09-2008 06:33:04 13.1 C 9.01 g/m*3 13.1 C 0 km/h
634 08-09-2008 06:45:04 13 C 9.07 g/m*3 13 C 0 km/h
635 08-09-2008 06:57:05 12.8 C 9.07 g/m*3 12.8 C 0 km/h
636 08-09-2008 07:09:02 12.8 C 9.18 g/m*3 12.8 C 0 km/h
637 08-09-2008 07:21:02 12.8 C 9.3 g/m*3 12.8 C 0 km/h
638 08-09-2008 07:33:02 13.1 C 9.36 g/m*3 13.1 C 0 km/h
639 08-09-2008 07:45:02 13.7 C 9.71 g/m*3 13.7 C 0 km/h
640 08-09-2008 07:57:02 14.2 C 9.65 g/m*3 14.2 C 0 km/h
641 08-09-2008 08:09:02 14.4 C 9.52 g/m*3 14.4 C 0 km/h
642 08-09-2008 08:21:02 14.5 C 9.58 g/m*3 14.5 C 0 km/h
643 08-09-2008 08:33:02 14.7 C 9.57 g/m*3 14.7 C 0 km/h
644 08-09-2008 08:45:02 14.8 C 9.63 g/m*3 14.8 C 0 km/h
645 08-09-2008 08:57:02 14.9 C 9.56 g/m*3 14.9 C 0 km/h
646 08-09-2008 09:09:02 15.2 C 9.61 g/m*3 15.2 C 0 km/h
647 08-09-2008 09:21:03 15.3 C 9.53 g/m*3 15.3 C 0 km/h
648 08-09-2008 09:33:02 15.5 C 9.39 g/m*3 15.5 C 0 km/h
649 08-09-2008 09:45:02 15.8 C 9.29 g/m*3 15.8 C 0 km/h
650 08-09-2008 09:57:02 16.1 C 9.18 g/m*3 16.1 C 0 km/h
Sensor: Nr:Datum:Temp:Abs-Feuchte:Windchill:Wind:
Aussen-T/F 651 08-09-2008 10:09:02 16.3 C 9.16 g/m*3 16.3 C 0 km/h
652 08-09-2008 10:21:02 16.6 C 9.04 g/m*3 16.6 C 0 km/h
653 08-09-2008 10:33:02 16.9 C 9.06 g/m*3 16.9 C 0 km/h
654 08-09-2008 10:45:02 17.1 C 8.73 g/m*3 17.1 C 0 km/h
655 08-09-2008 10:57:02 17.3 C 8.4 g/m*3 17.3 C 0 km/h
656 08-09-2008 11:09:02 17.6 C 8.4 g/m*3 17.6 C 0 km/h
657 08-09-2008 11:21:02 17.6 C 8.55 g/m*3 17.6 C 0 km/h
658 08-09-2008 11:33:02 17.3 C 8.4 g/m*3 17.3 C 0 km/h
659 08-09-2008 11:45:01 18.2 C 8.24 g/m*3 18.2 C 0 km/h
660 08-09-2008 11:57:01 18.7 C 8.01 g/m*3 18.7 C 0 km/h
661 08-09-2008 12:09:02 18.9 C 7.94 g/m*3 18.9 C 0 km/h
662 08-09-2008 12:21:01 19.4 C 7.84 g/m*3 19.4 C 0 km/h
663 08-09-2008 12:33:02 19.7 C 7.64 g/m*3 19.7 C 0 km/h
664 08-09-2008 12:45:02 19.8 C 7.52 g/m*3 19.8 C 0 km/h
665 08-09-2008 12:57:02 19.6 C 7.43 g/m*3 19.6 C 0 km/h
666 08-09-2008 13:09:01 20.7 C 7.56 g/m*3 20.7 C 0 km/h
667 08-09-2008 13:21:02 20.8 C 7.42 g/m*3 20.8 C 0 km/h
668 08-09-2008 13:33:01 20.5 C 7.3 g/m*3 20.5 C 0 km/h
669 08-09-2008 13:45:02 20.7 C 7.38 g/m*3 20.7 C 0 km/h
670 08-09-2008 13:57:02 21.6 C 7.4 g/m*3 21.6 C 0 km/h
671 08-09-2008 14:09:01 22 C 6.79 g/m*3 22 C 0 km/h
672 08-09-2008 14:21:02 21.9 C 7.14 g/m*3 21.9 C 0 km/h
673 08-09-2008 14:33:01 22.1 C 6.83 g/m*3 22.1 C 0 km/h
674 08-09-2008 14:45:01 22.3 C 6.71 g/m*3 22.3 C 0 km/h
675 08-09-2008 14:57:01 23 C 6.58 g/m*3 23 C 0 km/h
Sensor: Nr:Datum:Temp:Abs-Feuchte:Windchill:Wind:
Aussen-T/F 676 08-09-2008 15:09:02 23.2 C 6.44 g/m*3 23.2 C 0 km/h
677 08-09-2008 15:21:01 23.7 C 6.63 g/m*3 23.7 C 0 km/h
678 08-09-2008 15:33:01 23.7 C 6.42 g/m*3 23.7 C 0 km/h
679 08-09-2008 15:49:01 23.1 C 6.41 g/m*3 23.1 C 0 km/h
680 08-09-2008 16:01:07 24 C 6.53 g/m*3 24 C 0 km/h
681 08-09-2008 16:13:02 24.1 C 5.91 g/m*3 24.1 C 0 km/h
682 08-09-2008 16:25:01 23.8 C 6.24 g/m*3 23.8 C 0 km/h
683 08-09-2008 16:37:02 23.7 C 6.42 g/m*3 23.7 C 0 km/h
684 08-09-2008 16:49:02 24 C 5.87 g/m*3 24 C 0 km/h
685 08-09-2008 17:01:02 23.3 C 6.27 g/m*3 23.3 C 0 km/h
686 08-09-2008 17:13:02 24.1 C 6.13 g/m*3 24.1 C 0 km/h
687 08-09-2008 17:20:03 24.1 C 4.38 g/m*3 24.1 C 0 km/h
688 08-09-2008 17:25:03 24.3 C 5.97 g/m*3 24.3 C 0 km/h
689 08-09-2008 17:30:03 24.2 C 5.94 g/m*3 24.2 C 0 km/h
690 08-09-2008 17:35:03 24.2 C 5.72 g/m*3 24.2 C 0 km/h
691 08-09-2008 17:40:03 23.8 C 5.81 g/m*3 23.8 C 0 km/h
692 08-09-2008 17:45:02 23.4 C 6.1 g/m*3 23.4 C 0 km/h
693 08-09-2008 17:50:02 23.2 C 6.24 g/m*3 23.2 C 0 km/h
694 08-09-2008 17:55:02 22.9 C 6.34 g/m*3 22.9 C 0 km/h
695 08-09-2008 18:00:02 23.5 C 6.56 g/m*3 23.5 C 0 km/h
696 08-09-2008 18:05:01 24.2 C 6.38 g/m*3 24.2 C 0 km/h
697 08-09-2008 18:10:01 23.7 C 6.42 g/m*3 23.7 C 0 km/h
698 08-09-2008 18:15:02 23.2 C 6.24 g/m*3 23.2 C 0 km/h
699 08-09-2008 18:20:02 22.9 C 6.54 g/m*3 22.9 C 0 km/h
700 08-09-2008 18:25:02 23.3 C 6.48 g/m*3 23.3 C 0 km/h
Sensor: Nr:Datum:Temp:Abs-Feuchte:Windchill:Wind:
Aussen-T/F 701 08-09-2008 18:30:02 22.9 C 6.34 g/m*3 22.9 C 0 km/h
702 08-09-2008 18:35:01 23 C 6.37 g/m*3 23 C 0 km/h
703 08-09-2008 18:40:01 23.2 C 6.44 g/m*3 23.2 C 0 km/h
704 08-09-2008 18:45:01 23 C 6.37 g/m*3 23 C 0 km/h
705 08-09-2008 18:50:01 23 C 6.58 g/m*3 23 C 0 km/h
706 08-09-2008 18:55:01 22.6 C 6.63 g/m*3 22.6 C 0 km/h
707 08-09-2008 19:00:01 22.5 C 6.99 g/m*3 22.5 C 0 km/h
708 08-09-2008 19:05:02 22.6 C 7.43 g/m*3 22.6 C 0 km/h
709 08-09-2008 19:10:02 22.7 C 7.07 g/m*3 22.7 C 0 km/h
710 08-09-2008 19:15:02 22.4 C 7.15 g/m*3 22.4 C 0 km/h
711 08-09-2008 19:20:02 22.3 C 7.11 g/m*3 22.3 C 0 km/h
712 08-09-2008 19:25:02 22.1 C 7.22 g/m*3 22.1 C 0 km/h
713 08-09-2008 19:30:02 21.7 C 7.25 g/m*3 21.7 C 0 km/h
714 08-09-2008 19:35:02 21.4 C 7.31 g/m*3 21.4 C 0 km/h
715 08-09-2008 19:40:02 20.7 C 7.38 g/m*3 20.7 C 0 km/h
716 08-09-2008 19:45:02 20.1 C 7.3 g/m*3 20.1 C 0 km/h
717 08-09-2008 19:50:02 19.9 C 7.39 g/m*3 19.9 C 0 km/h
718 08-09-2008 19:55:02 19.6 C 7.43 g/m*3 19.6 C 0 km/h
719 08-09-2008 20:00:02 19.1 C 7.38 g/m*3 19.1 C 0 km/h
720 08-09-2008 20:05:01 18.9 C 7.29 g/m*3 18.9 C 0 km/h
721 08-09-2008 20:10:01 18.8 C 7.57 g/m*3 18.8 C 0 km/h
722 08-09-2008 20:15:02 18.6 C 7.32 g/m*3 18.6 C 0 km/h
723 08-09-2008 20:20:02 18.5 C 7.59 g/m*3 18.5 C 0 km/h
724 08-09-2008 20:25:02 18.4 C 7.71 g/m*3 18.4 C 0 km/h
725 08-09-2008 20:30:02 18.2 C 7.46 g/m*3 18.2 C 0 km/h
Sensor: Nr:Datum:Temp:Abs-Feuchte:Windchill:Wind:
Aussen-T/F 726 08-09-2008 20:35:01 17.9 C 7.48 g/m*3 17.9 C 0 km/h
727 08-09-2008 20:40:01 17.8 C 7.59 g/m*3 17.8 C 0 km/h
728 08-09-2008 20:45:01 17.7 C 7.85 g/m*3 17.7 C 0 km/h
729 08-09-2008 20:50:01 17.5 C 7.9 g/m*3 17.5 C 0 km/h
730 08-09-2008 20:55:01 17.4 C 7.85 g/m*3 17.4 C 0 km/h
731 08-09-2008 21:00:01 17.4 C 7.85 g/m*3 17.4 C 0 km/h
732 08-09-2008 21:05:02 17.4 C 8 g/m*3 17.4 C 0 km/h
733 08-09-2008 21:10:02 17.3 C 7.81 g/m*3 17.3 C 0 km/h
734 08-09-2008 21:16:03 17.2 C 7.76 g/m*3 17.2 C 0 km/h
735 08-09-2008 21:21:03 17.4 C 8 g/m*3 17.4 C 0 km/h
736 08-09-2008 21:26:03 16.9 C 8.05 g/m*3 16.9 C 0 km/h
737 08-09-2008 21:31:03 16.9 C 8.05 g/m*3 16.9 C 0 km/h
738 08-09-2008 21:36:03 16.6 C 8.19 g/m*3 16.6 C 0 km/h
739 08-09-2008 21:41:03 16.5 C 8 g/m*3 16.5 C 0 km/h
740 08-09-2008 21:46:03 16.5 C 8.14 g/m*3 16.5 C 0 km/h
741 08-09-2008 21:51:03 16.4 C 8.37 g/m*3 16.4 C 0 km/h
742 08-09-2008 21:56:03 16.2 C 8.27 g/m*3 16.2 C 0 km/h
743 08-09-2008 22:01:03 16.1 C 8.22 g/m*3 16.1 C 0 km/h
744 08-09-2008 22:06:03 15.9 C 8.26 g/m*3 15.9 C 0 km/h
745 08-09-2008 22:11:03 15.8 C 8.35 g/m*3 15.8 C 0 km/h
746 08-09-2008 22:16:04 15.6 C 8.25 g/m*3 15.6 C 0 km/h
747 08-09-2008 22:21:04 15.5 C 8.2 g/m*3 15.5 C 0 km/h
748 08-09-2008 22:26:04 15.5 C 8.2 g/m*3 15.5 C 0 km/h
749 08-09-2008 22:31:04 15.4 C 8.15 g/m*3 15.4 C 0 km/h
750 08-09-2008 22:36:04 15.3 C 8.1 g/m*3 15.3 C 0 km/h
Sensor: Nr:Datum:Temp:Abs-Feuchte:Windchill:Wind:
Aussen-T/F 751 08-09-2008 22:41:04 15.4 C 8.28 g/m*3 15.4 C 0 km/h
752 08-09-2008 22:46:04 15.3 C 8.23 g/m*3 15.3 C 0 km/h
753 08-09-2008 22:51:04 15.2 C 8.18 g/m*3 15.2 C 0 km/h
754 08-09-2008 22:56:04 15.1 C 8.26 g/m*3 15.1 C 0 km/h
755 08-09-2008 23:01:04 15 C 8.21 g/m*3 15 C 0 km/h
756 08-09-2008 23:06:04 14.9 C 8.41 g/m*3 14.9 C 0 km/h
757 08-09-2008 23:11:04 14.8 C 8.36 g/m*3 14.8 C 0 km/h
758 08-09-2008 23:16:04 14.7 C 8.44 g/m*3 14.7 C 0 km/h
759 08-09-2008 23:21:04 14.7 C 8.44 g/m*3 14.7 C 0 km/h
760 08-09-2008 23:26:04 14.7 C 8.44 g/m*3 14.7 C 0 km/h
761 08-09-2008 23:31:04 14.7 C 8.44 g/m*3 14.7 C 0 km/h
762 08-09-2008 23:36:04 14.7 C 8.44 g/m*3 14.7 C 0 km/h
763 08-09-2008 23:41:04 14.5 C 8.33 g/m*3 14.5 C 0 km/h
764 08-09-2008 23:46:04 14.3 C 8.35 g/m*3 14.3 C 0 km/h
765 08-09-2008 23:51:04 14.2 C 8.3 g/m*3 14.2 C 0 km/h
766 08-09-2008 23:56:05 14.2 C 8.43 g/m*3 14.2 C 0 km/h
767 09-09-2008 00:01:05 14 C 8.32 g/m*3 14 C 0 km/h
768 09-09-2008 00:06:05 13.9 C 8.51 g/m*3 13.9 C 0 km/h
769 09-09-2008 00:11:05 13.8 C 8.58 g/m*3 13.8 C 0 km/h
770 09-09-2008 00:16:05 13.7 C 8.53 g/m*3 13.7 C 0 km/h
771 09-09-2008 00:21:05 13.6 C 8.59 g/m*3 13.6 C 0 km/h
772 09-09-2008 00:26:05 13.6 C 8.59 g/m*3 13.6 C 0 km/h
773 09-09-2008 00:31:05 13.5 C 8.54 g/m*3 13.5 C 0 km/h
774 09-09-2008 00:36:05 13.5 C 8.54 g/m*3 13.5 C 0 km/h
775 09-09-2008 00:41:05 13.4 C 8.6 g/m*3 13.4 C 0 km/h
Sensor: Nr:Datum:Temp:Abs-Feuchte:Windchill:Wind:
Aussen-T/F 776 09-09-2008 00:46:05 13.3 C 8.55 g/m*3 13.3 C 0 km/h
777 09-09-2008 00:51:05 13.2 C 8.5 g/m*3 13.2 C 0 km/h
778 09-09-2008 00:56:05 13.1 C 8.44 g/m*3 13.1 C 0 km/h
779 09-09-2008 01:01:05 13.1 C 8.44 g/m*3 13.1 C 0 km/h
780 09-09-2008 01:06:05 13 C 8.51 g/m*3 13 C 0 km/h
781 09-09-2008 01:11:05 12.9 C 8.57 g/m*3 12.9 C 0 km/h
782 09-09-2008 01:16:05 12.8 C 8.51 g/m*3 12.8 C 0 km/h
783 09-09-2008 01:21:05 12.7 C 8.46 g/m*3 12.7 C 0 km/h
784 09-09-2008 01:26:05 12.7 C 8.57 g/m*3 12.7 C 0 km/h
785 09-09-2008 01:31:06 12.7 C 8.57 g/m*3 12.7 C 0 km/h
786 09-09-2008 01:36:06 12.6 C 8.52 g/m*3 12.6 C 0 km/h
787 09-09-2008 01:41:06 12.6 C 8.52 g/m*3 12.6 C 0 km/h
788 09-09-2008 01:46:06 12.5 C 8.47 g/m*3 12.5 C 0 km/h
789 09-09-2008 01:51:06 12.5 C 8.47 g/m*3 12.5 C 0 km/h
790 09-09-2008 01:56:06 12.4 C 8.41 g/m*3 12.4 C 0 km/h
791 09-09-2008 02:01:06 12.4 C 8.52 g/m*3 12.4 C 0 km/h
792 09-09-2008 02:06:06 12.3 C 8.58 g/m*3 12.3 C 0 km/h
793 09-09-2008 02:11:06 12.3 C 8.58 g/m*3 12.3 C 0 km/h
794 09-09-2008 02:16:06 12.2 C 8.52 g/m*3 12.2 C 0 km/h
795 09-09-2008 02:21:06 12.3 C 8.58 g/m*3 12.3 C 0 km/h
796 09-09-2008 02:26:06 12.1 C 8.47 g/m*3 12.1 C 0 km/h
797 09-09-2008 02:31:06 12.4 C 8.63 g/m*3 12.4 C 0 km/h
798 09-09-2008 02:36:06 12 C 8.42 g/m*3 12 C 0 km/h
799 09-09-2008 02:41:06 12 C 8.42 g/m*3 12 C 0 km/h
800 09-09-2008 02:46:06 11.8 C 8.42 g/m*3 11.8 C 0 km/h
Sensor: Nr:Datum:Temp:Abs-Feuchte:Windchill:Wind:
Aussen-T/F 801 09-09-2008 02:51:06 11.8 C 8.42 g/m*3 11.8 C 0 km/h
802 09-09-2008 02:56:06 11.7 C 8.37 g/m*3 11.7 C 0 km/h
803 09-09-2008 03:01:06 11.7 C 8.37 g/m*3 11.7 C 0 km/h
804 09-09-2008 03:06:06 11.7 C 8.37 g/m*3 11.7 C 0 km/h
805 09-09-2008 03:11:07 11.7 C 8.37 g/m*3 11.7 C 0 km/h
806 09-09-2008 03:16:07 11.7 C 8.37 g/m*3 11.7 C 0 km/h
807 09-09-2008 03:21:07 11.6 C 8.42 g/m*3 11.6 C 0 km/h
808 09-09-2008 03:26:07 11.5 C 8.37 g/m*3 11.5 C 0 km/h
809 09-09-2008 03:31:07 11.4 C 8.42 g/m*3 11.4 C 0 km/h
810 09-09-2008 03:36:07 11.4 C 8.42 g/m*3 11.4 C 0 km/h
811 09-09-2008 03:41:07 11.3 C 8.36 g/m*3 11.3 C 0 km/h
812 09-09-2008 03:46:07 11.2 C 8.31 g/m*3 11.2 C 0 km/h
813 09-09-2008 03:51:07 11.2 C 8.31 g/m*3 11.2 C 0 km/h
814 09-09-2008 03:56:07 11.2 C 8.31 g/m*3 11.2 C 0 km/h
815 09-09-2008 04:01:07 11.2 C 8.31 g/m*3 11.2 C 0 km/h
816 09-09-2008 04:06:07 11.1 C 8.26 g/m*3 11.1 C 0 km/h
817 09-09-2008 04:11:07 11.1 C 8.26 g/m*3 11.1 C 0 km/h
818 09-09-2008 04:16:07 11.1 C 8.26 g/m*3 11.1 C 0 km/h
819 09-09-2008 04:21:07 11.1 C 8.26 g/m*3 11.1 C 0 km/h
820 09-09-2008 04:26:07 11.1 C 8.26 g/m*3 11.1 C 0 km/h
821 09-09-2008 04:31:07 11 C 8.31 g/m*3 11 C 0 km/h
822 09-09-2008 04:36:07 11 C 8.31 g/m*3 11 C 0 km/h
823 09-09-2008 04:41:07 10.9 C 8.26 g/m*3 10.9 C 0 km/h
824 09-09-2008 04:46:08 10.8 C 8.2 g/m*3 10.8 C 0 km/h
825 09-09-2008 04:51:08 10.8 C 8.2 g/m*3 10.8 C 0 km/h
Sensor: Nr:Datum:Temp:Abs-Feuchte:Windchill:Wind:
Aussen-T/F 826 09-09-2008 04:56:08 10.7 C 8.15 g/m*3 10.7 C 0 km/h
827 09-09-2008 05:01:08 10.7 C 8.15 g/m*3 10.7 C 0 km/h
828 09-09-2008 05:06:08 10.6 C 8.1 g/m*3 10.6 C 0 km/h
829 09-09-2008 05:11:08 10.6 C 8.1 g/m*3 10.6 C 0 km/h
830 09-09-2008 05:16:08 10.6 C 8.1 g/m*3 10.6 C 0 km/h
831 09-09-2008 05:21:08 10.5 C 8.05 g/m*3 10.5 C 0 km/h
832 09-09-2008 05:26:08 10.4 C 8 g/m*3 10.4 C 0 km/h
833 09-09-2008 05:31:08 10.4 C 8 g/m*3 10.4 C 0 km/h
834 09-09-2008 05:36:08 10.3 C 7.95 g/m*3 10.3 C 0 km/h
835 09-09-2008 05:41:08 10.3 C 7.95 g/m*3 10.3 C 0 km/h
836 09-09-2008 05:46:08 10.2 C 7.9 g/m*3 10.2 C 0 km/h
837 09-09-2008 05:51:08 10.2 C 7.9 g/m*3 10.2 C 0 km/h
838 09-09-2008 05:56:08 10.2 C 7.99 g/m*3 10.2 C 0 km/h
839 09-09-2008 06:01:08 10 C 7.89 g/m*3 10 C 0 km/h
840 09-09-2008 06:06:08 10 C 7.89 g/m*3 10 C 0 km/h
841 09-09-2008 06:11:08 10 C 7.89 g/m*3 10 C 0 km/h
842 09-09-2008 06:16:08 10 C 7.89 g/m*3 10 C 0 km/h
843 09-09-2008 06:21:09 10 C 7.89 g/m*3 10 C 0 km/h
844 09-09-2008 06:26:09 10 C 7.89 g/m*3 10 C 0 km/h
845 09-09-2008 06:31:09 10.1 C 8.04 g/m*3 10.1 C 0 km/h
846 09-09-2008 06:36:09 10.1 C 8.04 g/m*3 10.1 C 0 km/h
847 09-09-2008 06:41:09 10.1 C 8.13 g/m*3 10.1 C 0 km/h
848 09-09-2008 06:46:09 10.1 C 8.13 g/m*3 10.1 C 0 km/h
849 09-09-2008 06:51:09 10.1 C 8.13 g/m*3 10.1 C 0 km/h
850 09-09-2008 06:56:09 10.2 C 8.18 g/m*3 10.2 C 0 km/h
Sensor: Nr:Datum:Temp:Abs-Feuchte:Windchill:Wind:
Aussen-T/F 851 09-09-2008 07:01:02 10.3 C 8.24 g/m*3 10.3 C 0 km/h
852 09-09-2008 07:06:02 10.2 C 8.18 g/m*3 10.2 C 0 km/h
853 09-09-2008 07:11:02 10.1 C 8.13 g/m*3 10.1 C 0 km/h
854 09-09-2008 07:16:02 10.1 C 8.13 g/m*3 10.1 C 0 km/h
855 09-09-2008 07:21:02 10.2 C 8.18 g/m*3 10.2 C 0 km/h
856 09-09-2008 07:26:02 10.1 C 8.13 g/m*3 10.1 C 0 km/h
857 09-09-2008 07:31:02 10.1 C 8.13 g/m*3 10.1 C 0 km/h
858 09-09-2008 07:36:02 10 C 8.08 g/m*3 10 C 0 km/h
859 09-09-2008 07:41:02 10 C 8.08 g/m*3 10 C 0 km/h
860 09-09-2008 07:46:02 10.1 C 8.23 g/m*3 10.1 C 0 km/h
861 09-09-2008 07:51:02 10.2 C 8.28 g/m*3 10.2 C 0 km/h
862 09-09-2008 07:56:02 10.2 C 8.28 g/m*3 10.2 C 0 km/h
863 09-09-2008 08:01:01 10.3 C 8.33 g/m*3 10.3 C 0 km/h
864 09-09-2008 08:06:01 10.3 C 8.33 g/m*3 10.3 C 0 km/h
865 09-09-2008 08:11:01 10.3 C 8.33 g/m*3 10.3 C 0 km/h
866 09-09-2008 08:16:02 10.3 C 8.33 g/m*3 10.3 C 0 km/h
867 09-09-2008 08:21:02 10.4 C 8.38 g/m*3 10.4 C 0 km/h
868 09-09-2008 08:26:02 10.5 C 8.44 g/m*3 10.5 C 0 km/h
869 09-09-2008 08:31:02 10.6 C 8.49 g/m*3 10.6 C 0 km/h
870 09-09-2008 08:36:02 10.6 C 8.39 g/m*3 10.6 C 0 km/h
871 09-09-2008 08:41:02 10.7 C 8.45 g/m*3 10.7 C 0 km/h
872 09-09-2008 08:46:01 10.7 C 8.55 g/m*3 10.7 C 0 km/h
873 09-09-2008 08:51:01 10.8 C 8.5 g/m*3 10.8 C 0 km/h
874 09-09-2008 08:56:01 10.9 C 8.55 g/m*3 10.9 C 0 km/h
875 09-09-2008 09:01:02 11.2 C 8.62 g/m*3 11.2 C 0 km/h
Sensor: Nr:Datum:Temp:Abs-Feuchte:Windchill:Wind:
Aussen-T/F 876 09-09-2008 09:06:02 11.3 C 8.67 g/m*3 11.3 C 0 km/h
877 09-09-2008 09:11:02 11.4 C 8.62 g/m*3 11.4 C 0 km/h
878 09-09-2008 09:16:02 11.6 C 8.73 g/m*3 11.6 C 0 km/h
879 09-09-2008 09:21:02 11.7 C 8.68 g/m*3 11.7 C 0 km/h
880 09-09-2008 09:26:02 11.7 C 8.58 g/m*3 11.7 C 0 km/h
881 09-09-2008 09:31:02 11.9 C 8.68 g/m*3 11.9 C 0 km/h
882 09-09-2008 09:36:02 12 C 8.63 g/m*3 12 C 0 km/h
883 09-09-2008 09:41:02 12.3 C 8.8 g/m*3 12.3 C 0 km/h
884 09-09-2008 09:46:02 12.5 C 8.8 g/m*3 12.5 C 0 km/h
885 09-09-2008 09:51:02 12.7 C 8.91 g/m*3 12.7 C 0 km/h
886 09-09-2008 09:56:02 12.7 C 8.79 g/m*3 12.7 C 0 km/h
887 09-09-2008 10:01:02 12.5 C 8.69 g/m*3 12.5 C 0 km/h
888 09-09-2008 10:06:02 12.4 C 8.74 g/m*3 12.4 C 0 km/h
889 09-09-2008 10:11:02 12.4 C 8.74 g/m*3 12.4 C 0 km/h
890 09-09-2008 10:16:02 12.5 C 8.91 g/m*3 12.5 C 0 km/h
891 09-09-2008 10:21:02 12.7 C 9.13 g/m*3 12.7 C 0 km/h
892 09-09-2008 10:26:02 12.7 C 9.13 g/m*3 12.7 C 0 km/h
893 09-09-2008 10:31:02 12.9 C 9.24 g/m*3 12.9 C 0 km/h
894 09-09-2008 10:36:02 13 C 9.19 g/m*3 13 C 0 km/h
895 09-09-2008 10:41:02 13.1 C 9.13 g/m*3 13.1 C 0 km/h
896 09-09-2008 10:46:02 13.4 C 9.3 g/m*3 13.4 C 0 km/h
897 09-09-2008 10:51:02 13.8 C 9.53 g/m*3 13.8 C 0 km/h
898 09-09-2008 10:56:02 14.2 C 9.65 g/m*3 14.2 C 0 km/h
899 09-09-2008 11:01:02 14.5 C 9.83 g/m*3 14.5 C 0 km/h
900 09-09-2008 11:06:02 14.9 C 9.94 g/m*3 14.9 C 0 km/h
Sensor: Nr:Datum:Temp:Abs-Feuchte:Windchill:Wind:
Aussen-T/F 901 09-09-2008 11:11:02 15.2 C 9.99 g/m*3 15.2 C 0 km/h
902 09-09-2008 11:16:02 15.5 C 10.05 g/m*3 15.5 C 0 km/h
903 09-09-2008 11:21:02 15.9 C 10.16 g/m*3 15.9 C 0 km/h
904 09-09-2008 11:26:02 16.4 C 10.19 g/m*3 16.4 C 0 km/h
905 09-09-2008 11:31:02 16.6 C 10.17 g/m*3 16.6 C 0 km/h
906 09-09-2008 11:36:02 17.1 C 10.04 g/m*3 17.1 C 0 km/h
907 09-09-2008 11:41:02 17.5 C 10.29 g/m*3 17.5 C 0 km/h
908 09-09-2008 11:46:02 17.6 C 10.35 g/m*3 17.6 C 0 km/h
909 09-09-2008 11:51:02 17.8 C 10.47 g/m*3 17.8 C 0 km/h
910 09-09-2008 11:56:02 18.2 C 10.41 g/m*3 18.2 C 0 km/h
911 09-09-2008 12:01:02 18.5 C 10.6 g/m*3 18.5 C 0 km/h
912 09-09-2008 12:06:02 18.6 C 10.66 g/m*3 18.6 C 0 km/h
913 09-09-2008 12:11:02 19.1 C 10.49 g/m*3 19.1 C 0 km/h
914 09-09-2008 12:16:02 19.5 C 10.57 g/m*3 19.5 C 0 km/h
915 09-09-2008 12:21:02 19.7 C 10.7 g/m*3 19.7 C 0 km/h
916 09-09-2008 12:26:02 19.8 C 10.59 g/m*3 19.8 C 0 km/h
917 09-09-2008 12:31:02 20.4 C 9.91 g/m*3 20.4 C 0 km/h
918 09-09-2008 12:36:02 20.7 C 10.62 g/m*3 20.7 C 0 km/h
919 09-09-2008 12:41:02 21 C 10.44 g/m*3 21 C 0 km/h
920 09-09-2008 12:46:02 21.2 C 10.38 g/m*3 21.2 C 0 km/h
921 09-09-2008 12:51:02 21.3 C 10.44 g/m*3 21.3 C 0 km/h
922 09-09-2008 12:56:02 21.7 C 9.16 g/m*3 21.7 C 0 km/h
923 09-09-2008 13:01:02 22.3 C 9.08 g/m*3 22.3 C 0 km/h
924 09-09-2008 13:06:02 22.5 C 9.39 g/m*3 22.5 C 0 km/h
925 09-09-2008 13:11:02 22.5 C 8.99 g/m*3 22.5 C 0 km/h
Sensor: Nr:Datum:Temp:Abs-Feuchte:Windchill:Wind:
Aussen-T/F 926 09-09-2008 13:16:02 23 C 8.43 g/m*3 23 C 0 km/h
927 09-09-2008 13:21:02 23.3 C 8.36 g/m*3 23.3 C 0 km/h
928 09-09-2008 13:26:02 23.6 C 8.93 g/m*3 23.6 C 0 km/h
929 09-09-2008 13:31:02 23.7 C 8.56 g/m*3 23.7 C 0 km/h
930 09-09-2008 13:36:02 24.1 C 7.66 g/m*3 24.1 C 0 km/h
931 09-09-2008 13:41:02 24.2 C 7.92 g/m*3 24.2 C 0 km/h
932 09-09-2008 13:46:02 24.4 C 7.57 g/m*3 24.4 C 0 km/h
933 09-09-2008 13:51:02 24.6 C 7.88 g/m*3 24.6 C 0 km/h
934 09-09-2008 13:56:02 25.1 C 7.41 g/m*3 25.1 C 0 km/h
935 09-09-2008 14:01:02 25.2 C 7.45 g/m*3 25.2 C 0 km/h
936 09-09-2008 14:06:02 25.6 C 7.38 g/m*3 25.6 C 0 km/h
937 09-09-2008 14:11:02 25.6 C 6.9 g/m*3 25.6 C 0 km/h
938 09-09-2008 14:16:02 25.8 C 7.22 g/m*3 25.8 C 0 km/h
939 09-09-2008 14:21:02 26.1 C 7.1 g/m*3 26.1 C 0 km/h
940 09-09-2008 14:26:02 26.5 C 7.76 g/m*3 26.5 C 0 km/h
941 09-09-2008 14:31:02 26.6 C 7.3 g/m*3 26.6 C 0 km/h
942 09-09-2008 14:36:02 26.8 C 6.87 g/m*3 26.8 C 0 km/h
943 09-09-2008 14:41:02 27 C 6.43 g/m*3 27 C 0 km/h
944 09-09-2008 14:46:02 27 C 6.69 g/m*3 27 C 0 km/h
945 09-09-2008 14:51:02 27.1 C 6.73 g/m*3 27.1 C 0 km/h
946 09-09-2008 14:56:02 27.3 C 6.8 g/m*3 27.3 C 0 km/h
947 09-09-2008 15:01:01 27.4 C 6.58 g/m*3 27.4 C 0 km/h
948 09-09-2008 15:06:01 27.5 C 6.61 g/m*3 27.5 C 0 km/h
949 09-09-2008 15:11:01 27.8 C 6.72 g/m*3 27.8 C 0 km/h
950 09-09-2008 15:16:02 28 C 5.98 g/m*3 28 C 0 km/h
Sensor: Nr:Datum:Temp:Abs-Feuchte:Windchill:Wind:
Aussen-T/F 951 09-09-2008 15:21:02 28.2 C 6.05 g/m*3 28.2 C 0 km/h
952 09-09-2008 15:26:02 28.1 C 6.02 g/m*3 28.1 C 0 km/h
953 09-09-2008 15:31:01 27.8 C 5.65 g/m*3 27.8 C 0 km/h
954 09-09-2008 15:36:01 27.6 C 5.59 g/m*3 27.6 C 0 km/h
955 09-09-2008 15:41:01 27.9 C 5.95 g/m*3 27.9 C 0 km/h
956 09-09-2008 15:46:02 28.4 C 5.84 g/m*3 28.4 C 0 km/h
957 09-09-2008 15:51:02 28.9 C 6.28 g/m*3 28.9 C 0 km/h
958 09-09-2008 15:56:02 29.2 C 6.97 g/m*3 29.2 C 0 km/h
959 09-09-2008 16:01:02 29.2 C 6.1 g/m*3 29.2 C 0 km/h
960 09-09-2008 16:06:02 29.3 C 6.13 g/m*3 29.3 C 0 km/h
961 09-09-2008 16:11:02 29.4 C 6.16 g/m*3 29.4 C 0 km/h
962 09-09-2008 16:16:02 29.6 C 6.53 g/m*3 29.6 C 0 km/h
963 09-09-2008 16:21:02 29.5 C 6.79 g/m*3 29.5 C 0 km/h
964 09-09-2008 16:26:02 29.7 C 6.56 g/m*3 29.7 C 0 km/h
965 09-09-2008 16:31:02 29.9 C 6.64 g/m*3 29.9 C 0 km/h
966 09-09-2008 16:36:02 30 C 6.37 g/m*3 30 C 0 km/h
967 09-09-2008 16:41:02 30.1 C 6.4 g/m*3 30.1 C 0 km/h
968 09-09-2008 16:46:02 30.3 C 6.16 g/m*3 30.3 C 0 km/h
969 09-09-2008 16:51:02 30.1 C 6.1 g/m*3 30.1 C 0 km/h
970 09-09-2008 16:56:02 30 C 6.06 g/m*3 30 C 0 km/h
971 09-09-2008 17:01:01 29.5 C 5.9 g/m*3 29.5 C 0 km/h
972 09-09-2008 17:06:01 29.5 C 5.9 g/m*3 29.5 C 0 km/h
973 09-09-2008 17:11:01 30.1 C 6.4 g/m*3 30.1 C 0 km/h
974 09-09-2008 17:16:02 30 C 6.06 g/m*3 30 C 0 km/h
975 09-09-2008 17:21:02 30.1 C 6.1 g/m*3 30.1 C 0 km/h
Sensor: Nr:Datum:Temp:Abs-Feuchte:Windchill:Wind:
Aussen-T/F 976 09-09-2008 17:26:02 30 C 6.06 g/m*3 30 C 0 km/h
977 09-09-2008 17:31:01 30 C 6.06 g/m*3 30 C 0 km/h
978 09-09-2008 17:36:01 30 C 6.06 g/m*3 30 C 0 km/h
979 09-09-2008 17:41:02 30.1 C 6.1 g/m*3 30.1 C 0 km/h
980 09-09-2008 17:46:02 30.3 C 6.16 g/m*3 30.3 C 0 km/h
981 09-09-2008 17:51:02 30.3 C 6.16 g/m*3 30.3 C 0 km/h
982 09-09-2008 17:56:02 30.1 C 6.1 g/m*3 30.1 C 0 km/h
983 09-09-2008 18:01:02 30.2 C 6.74 g/m*3 30.2 C 0 km/h
984 09-09-2008 18:06:02 30.2 C 6.13 g/m*3 30.2 C 0 km/h
985 09-09-2008 18:11:02 30 C 6.06 g/m*3 30 C 0 km/h
986 09-09-2008 18:16:02 29.9 C 6.03 g/m*3 29.9 C 0 km/h
987 09-09-2008 18:21:02 29.7 C 6.27 g/m*3 29.7 C 0 km/h
988 09-09-2008 18:26:02 29.4 C 5.87 g/m*3 29.4 C 0 km/h
989 09-09-2008 18:31:01 29 C 6.03 g/m*3 29 C 0 km/h
990 09-09-2008 18:36:01 28.8 C 6.25 g/m*3 28.8 C 0 km/h
991 09-09-2008 18:41:01 28.5 C 6.71 g/m*3 28.5 C 0 km/h
992 09-09-2008 18:46:02 28 C 6.8 g/m*3 28 C 0 km/h
993 09-09-2008 18:51:02 27.4 C 6.58 g/m*3 27.4 C 0 km/h
994 09-09-2008 18:56:02 27.2 C 6.77 g/m*3 27.2 C 0 km/h
995 09-09-2008 19:01:02 27 C 6.69 g/m*3 27 C 0 km/h
996 09-09-2008 19:06:02 25.9 C 7.26 g/m*3 25.9 C 0 km/h
997 09-09-2008 19:11:02 25.5 C 6.87 g/m*3 25.5 C 0 km/h
998 09-09-2008 19:16:01 24.9 C 6.87 g/m*3 24.9 C 0 km/h
999 09-09-2008 19:21:01 24.6 C 6.75 g/m*3 24.6 C 0 km/h
1000 09-09-2008 19:26:01 24.3 C 6.86 g/m*3 24.3 C 0 km/h
Sensor: Nr:Datum:Temp:Abs-Feuchte:Windchill:Wind:
Aussen-T/F 1001 09-09-2008 19:31:02 23.9 C 7.14 g/m*3 23.9 C 0 km/h
1002 09-09-2008 19:36:02 23.3 C 6.9 g/m*3 23.3 C 0 km/h
1003 09-09-2008 19:41:03 22.9 C 7.15 g/m*3 22.9 C 0 km/h
1004 09-09-2008 19:46:02 22.6 C 7.03 g/m*3 22.6 C 0 km/h
1005 09-09-2008 19:51:02 22.5 C 7.19 g/m*3 22.5 C 0 km/h
1006 09-09-2008 19:56:02 22.1 C 7.42 g/m*3 22.1 C 0 km/h
1007 09-09-2008 20:01:03 22.1 C 7.42 g/m*3 22.1 C 0 km/h
1008 09-09-2008 20:06:03 21.7 C 7.44 g/m*3 21.7 C 0 km/h
1009 09-09-2008 20:11:03 21.5 C 7.17 g/m*3 21.5 C 0 km/h
1010 09-09-2008 20:16:02 21.4 C 7.31 g/m*3 21.4 C 0 km/h
1011 09-09-2008 20:21:02 21.1 C 7 g/m*3 21.1 C 0 km/h
1012 09-09-2008 20:26:03 20.8 C 7.42 g/m*3 20.8 C 0 km/h
1013 09-09-2008 20:31:02 20.7 C 7.38 g/m*3 20.7 C 0 km/h
1014 09-09-2008 20:36:02 20.4 C 7.25 g/m*3 20.4 C 0 km/h
1015 09-09-2008 20:41:02 20.4 C 7.25 g/m*3 20.4 C 0 km/h
1016 09-09-2008 20:46:02 20.3 C 7.39 g/m*3 20.3 C 0 km/h
1017 09-09-2008 20:51:02 20.2 C 7.52 g/m*3 20.2 C 0 km/h
1018 09-09-2008 20:56:02 20.2 C 7.52 g/m*3 20.2 C 0 km/h
1019 09-09-2008 21:01:02 20.1 C 7.65 g/m*3 20.1 C 0 km/h
1020 09-09-2008 21:06:02 20.1 C 7.65 g/m*3 20.1 C 0 km/h
1021 09-09-2008 21:11:02 20 C 7.6 g/m*3 20 C 0 km/h
1022 09-09-2008 21:16:01 19.9 C 7.73 g/m*3 19.9 C 0 km/h
1023 09-09-2008 21:21:01 19.9 C 7.56 g/m*3 19.9 C 0 km/h
1024 09-09-2008 21:26:01 19.9 C 7.73 g/m*3 19.9 C 0 km/h
1025 09-09-2008 21:31:02 19.7 C 7.81 g/m*3 19.7 C 0 km/h
Sensor: Nr:Datum:Temp:Abs-Feuchte:Windchill:Wind:
Aussen-T/F 1026 09-09-2008 21:36:03 20.1 C 8 g/m*3 20.1 C 0 km/h
1027 09-09-2008 21:41:03 19.8 C 8.2 g/m*3 19.8 C 0 km/h
1028 09-09-2008 21:46:02 19.7 C 8.15 g/m*3 19.7 C 0 km/h
1029 09-09-2008 21:51:02 19.8 C 8.2 g/m*3 19.8 C 0 km/h
1030 09-09-2008 21:56:02 19.8 C 8.2 g/m*3 19.8 C 0 km/h
1031 09-09-2008 22:01:03 20 C 8.12 g/m*3 20 C 0 km/h
1032 09-09-2008 22:06:03 20.1 C 8 g/m*3 20.1 C 0 km/h
1033 09-09-2008 22:11:03 20.1 C 8 g/m*3 20.1 C 0 km/h
1034 09-09-2008 22:16:02 20.1 C 8.17 g/m*3 20.1 C 0 km/h
1035 09-09-2008 22:21:02 20.1 C 8.34 g/m*3 20.1 C 0 km/h
1036 09-09-2008 22:26:03 19.9 C 8.59 g/m*3 19.9 C 0 km/h
1037 09-09-2008 22:32:03 19.8 C 8.54 g/m*3 19.8 C 0 km/h
1038 09-09-2008 22:37:03 19.7 C 8.15 g/m*3 19.7 C 0 km/h
1039 09-09-2008 22:42:03 19.9 C 8.59 g/m*3 19.9 C 0 km/h
1040 09-09-2008 22:47:03 19.9 C 8.59 g/m*3 19.9 C 0 km/h
1041 09-09-2008 22:52:04 19.9 C 8.76 g/m*3 19.9 C 0 km/h
1042 09-09-2008 22:57:04 19.8 C 8.71 g/m*3 19.8 C 0 km/h
1043 09-09-2008 23:02:04 19.8 C 8.88 g/m*3 19.8 C 0 km/h
1044 09-09-2008 23:07:04 19.8 C 8.88 g/m*3 19.8 C 0 km/h
1045 09-09-2008 23:12:04 19.8 C 8.88 g/m*3 19.8 C 0 km/h
1046 09-09-2008 23:17:04 19.8 C 8.88 g/m*3 19.8 C 0 km/h
1047 09-09-2008 23:22:04 19.8 C 9.22 g/m*3 19.8 C 0 km/h
1048 09-09-2008 23:27:04 19.8 C 9.05 g/m*3 19.8 C 0 km/h
1049 09-09-2008 23:32:04 19.8 C 8.88 g/m*3 19.8 C 0 km/h
1050 09-09-2008 23:37:04 19.8 C 9.05 g/m*3 19.8 C 0 km/h
Sensor: Nr:Datum:Temp:Abs-Feuchte:Windchill:Wind:
Aussen-T/F 1051 09-09-2008 23:42:04 19.7 C 9 g/m*3 19.7 C 0 km/h
1052 09-09-2008 23:47:04 19.7 C 9.17 g/m*3 19.7 C 0 km/h
1053 09-09-2008 23:52:04 19.7 C 9.17 g/m*3 19.7 C 0 km/h
1054 09-09-2008 23:57:04 19.7 C 9.17 g/m*3 19.7 C 0 km/h
1055 10-09-2008 00:02:04 19.5 C 9.06 g/m*3 19.5 C 0 km/h
1056 10-09-2008 00:07:04 19.5 C 8.89 g/m*3 19.5 C 0 km/h
1057 10-09-2008 00:12:04 19.6 C 9.12 g/m*3 19.6 C 0 km/h
1058 10-09-2008 00:17:04 19.4 C 9.34 g/m*3 19.4 C 0 km/h
1059 10-09-2008 00:22:04 19.2 C 9.4 g/m*3 19.2 C 0 km/h
1060 10-09-2008 00:27:04 18.9 C 10.04 g/m*3 18.9 C 0 km/h
1061 10-09-2008 00:32:04 18.9 C 10.04 g/m*3 18.9 C 0 km/h
1062 10-09-2008 00:37:05 18.8 C 9.82 g/m*3 18.8 C 0 km/h
1063 10-09-2008 00:42:05 18.8 C 9.66 g/m*3 18.8 C 0 km/h
1064 10-09-2008 00:47:05 18.9 C 9.56 g/m*3 18.9 C 0 km/h
1065 10-09-2008 00:52:05 18.9 C 9.72 g/m*3 18.9 C 0 km/h
1066 10-09-2008 00:57:05 18.8 C 9.66 g/m*3 18.8 C 0 km/h
1067 10-09-2008 01:02:05 18.7 C 9.45 g/m*3 18.7 C 0 km/h
1068 10-09-2008 01:07:05 18.5 C 9.65 g/m*3 18.5 C 0 km/h
1069 10-09-2008 01:12:05 18.4 C 9.75 g/m*3 18.4 C 0 km/h
1070 10-09-2008 01:17:05 18.2 C 9.64 g/m*3 18.2 C 0 km/h
1071 10-09-2008 01:22:05 18 C 9.68 g/m*3 18 C 0 km/h
1072 10-09-2008 01:27:05 17.9 C 9.92 g/m*3 17.9 C 0 km/h
1073 10-09-2008 01:32:05 17.8 C 9.87 g/m*3 17.8 C 0 km/h
1074 10-09-2008 01:37:05 17.9 C 9.92 g/m*3 17.9 C 0 km/h
1075 10-09-2008 01:42:05 18 C 9.83 g/m*3 18 C 0 km/h
Sensor: Nr:Datum:Temp:Abs-Feuchte:Windchill:Wind:
Aussen-T/F 1076 10-09-2008 01:47:05 18 C 9.83 g/m*3 18 C 0 km/h
1077 10-09-2008 01:52:05 18 C 9.83 g/m*3 18 C 0 km/h
1078 10-09-2008 01:57:05 18.1 C 9.73 g/m*3 18.1 C 0 km/h
1079 10-09-2008 02:02:05 18.1 C 9.73 g/m*3 18.1 C 0 km/h
1080 10-09-2008 02:07:05 18.1 C 9.58 g/m*3 18.1 C 0 km/h
1081 10-09-2008 02:12:05 17.9 C 9.62 g/m*3 17.9 C 0 km/h
1082 10-09-2008 02:17:06 17.8 C 9.71 g/m*3 17.8 C 0 km/h
1083 10-09-2008 02:22:06 17.7 C 9.66 g/m*3 17.7 C 0 km/h
1084 10-09-2008 02:27:06 17.5 C 9.54 g/m*3 17.5 C 0 km/h
1085 10-09-2008 02:32:06 17.4 C 9.48 g/m*3 17.4 C 0 km/h
1086 10-09-2008 02:37:06 17.3 C 9.58 g/m*3 17.3 C 0 km/h
1087 10-09-2008 02:42:06 17.2 C 9.67 g/m*3 17.2 C 0 km/h
1088 10-09-2008 02:47:06 17.2 C 9.67 g/m*3 17.2 C 0 km/h
1089 10-09-2008 02:52:06 17 C 9.55 g/m*3 17 C 0 km/h
1090 10-09-2008 02:57:06 16.9 C 9.78 g/m*3 16.9 C 0 km/h
1091 10-09-2008 03:02:06 16.9 C 9.78 g/m*3 16.9 C 0 km/h
1092 10-09-2008 03:07:06 16.9 C 9.78 g/m*3 16.9 C 0 km/h
1093 10-09-2008 03:12:06 16.7 C 9.81 g/m*3 16.7 C 0 km/h
1094 10-09-2008 03:17:06 16.6 C 9.75 g/m*3 16.6 C 0 km/h
1095 10-09-2008 03:22:06 16.6 C 9.75 g/m*3 16.6 C 0 km/h
1096 10-09-2008 03:27:06 16.6 C 9.75 g/m*3 16.6 C 0 km/h
1097 10-09-2008 03:32:06 16.4 C 9.77 g/m*3 16.4 C 0 km/h
1098 10-09-2008 03:37:06 16.4 C 9.77 g/m*3 16.4 C 0 km/h
1099 10-09-2008 03:42:06 16.3 C 9.71 g/m*3 16.3 C 0 km/h
1100 10-09-2008 03:47:06 16.2 C 9.65 g/m*3 16.2 C 0 km/h
Sensor: Nr:Datum:Temp:Abs-Feuchte:Windchill:Wind:
Aussen-T/F 1101 10-09-2008 03:52:06 16.2 C 9.79 g/m*3 16.2 C 0 km/h
1102 10-09-2008 03:57:06 16.2 C 9.79 g/m*3 16.2 C 0 km/h
1103 10-09-2008 04:02:07 16 C 9.81 g/m*3 16 C 0 km/h
1104 10-09-2008 04:07:07 15.9 C 10.02 g/m*3 15.9 C 0 km/h
1105 10-09-2008 04:12:07 15.9 C 10.02 g/m*3 15.9 C 0 km/h
1106 10-09-2008 04:17:07 15.9 C 10.02 g/m*3 15.9 C 0 km/h
1107 10-09-2008 04:22:07 15.8 C 9.96 g/m*3 15.8 C 0 km/h
1108 10-09-2008 04:27:07 15.8 C 9.96 g/m*3 15.8 C 0 km/h
1109 10-09-2008 04:32:07 15.8 C 9.96 g/m*3 15.8 C 0 km/h
1110 10-09-2008 04:37:07 15.8 C 9.96 g/m*3 15.8 C 0 km/h
1111 10-09-2008 04:42:07 15.8 C 10.1 g/m*3 15.8 C 0 km/h
1112 10-09-2008 04:47:07 15.8 C 10.1 g/m*3 15.8 C 0 km/h
1113 10-09-2008 04:52:07 15.7 C 10.17 g/m*3 15.7 C 0 km/h
1114 10-09-2008 04:57:07 15.7 C 10.17 g/m*3 15.7 C 0 km/h
1115 10-09-2008 05:02:07 15.6 C 10.11 g/m*3 15.6 C 0 km/h
1116 10-09-2008 05:07:07 15.6 C 10.11 g/m*3 15.6 C 0 km/h
1117 10-09-2008 05:12:07 15.6 C 10.24 g/m*3 15.6 C 0 km/h
1118 10-09-2008 05:17:07 15.5 C 10.31 g/m*3 15.5 C 0 km/h
1119 10-09-2008 05:22:07 15.5 C 10.31 g/m*3 15.5 C 0 km/h
1120 10-09-2008 05:27:07 15.5 C 10.31 g/m*3 15.5 C 0 km/h
1121 10-09-2008 05:32:07 15.5 C 10.57 g/m*3 15.5 C 0 km/h
1122 10-09-2008 05:37:07 15.6 C 10.77 g/m*3 15.6 C 0 km/h
1123 10-09-2008 05:42:07 15.8 C 11.04 g/m*3 15.8 C 0 km/h
1124 10-09-2008 05:47:08 15.8 C 11.04 g/m*3 15.8 C 0 km/h
1125 10-09-2008 05:52:08 16 C 11.04 g/m*3 16 C 0 km/h
Sensor: Nr:Datum:Temp:Abs-Feuchte:Windchill:Wind:
Aussen-T/F 1126 10-09-2008 05:57:08 16 C 10.9 g/m*3 16 C 0 km/h
1127 10-09-2008 06:02:08 15.9 C 10.83 g/m*3 15.9 C 0 km/h
1128 10-09-2008 06:07:08 16 C 10.76 g/m*3 16 C 0 km/h
1129 10-09-2008 06:12:08 16.1 C 10.83 g/m*3 16.1 C 0 km/h
1130 10-09-2008 06:17:08 16.1 C 10.69 g/m*3 16.1 C 0 km/h
1131 10-09-2008 06:22:08 16.1 C 10.69 g/m*3 16.1 C 0 km/h
1132 10-09-2008 06:27:08 15.9 C 10.56 g/m*3 15.9 C 0 km/h
1133 10-09-2008 06:32:08 15.7 C 10.57 g/m*3 15.7 C 0 km/h
1134 10-09-2008 06:37:08 15.7 C 10.57 g/m*3 15.7 C 0 km/h
1135 10-09-2008 06:42:08 15.6 C 10.51 g/m*3 15.6 C 0 km/h
1136 10-09-2008 06:47:02 15.6 C 10.64 g/m*3 15.6 C 0 km/h
1137 10-09-2008 06:52:02 15.6 C 10.64 g/m*3 15.6 C 0 km/h
1138 10-09-2008 06:57:02 15.8 C 10.9 g/m*3 15.8 C 0 km/h
1139 10-09-2008 07:02:02 15.8 C 10.9 g/m*3 15.8 C 0 km/h
1140 10-09-2008 07:07:02 15.7 C 10.84 g/m*3 15.7 C 0 km/h
1141 10-09-2008 07:12:02 15.7 C 10.84 g/m*3 15.7 C 0 km/h
1142 10-09-2008 07:17:02 15.8 C 10.9 g/m*3 15.8 C 0 km/h
1143 10-09-2008 07:22:02 15.8 C 10.9 g/m*3 15.8 C 0 km/h
1144 10-09-2008 07:27:02 15.8 C 10.9 g/m*3 15.8 C 0 km/h
1145 10-09-2008 07:32:02 16.2 C 11.03 g/m*3 16.2 C 0 km/h
1146 10-09-2008 07:37:02 16.2 C 10.89 g/m*3 16.2 C 0 km/h
1147 10-09-2008 07:42:02 16.2 C 10.89 g/m*3 16.2 C 0 km/h
1148 10-09-2008 07:47:01 16.5 C 11.09 g/m*3 16.5 C 0 km/h
1149 10-09-2008 07:52:01 16.5 C 11.09 g/m*3 16.5 C 0 km/h
1150 10-09-2008 07:57:01 16.8 C 11.01 g/m*3 16.8 C 0 km/h
Sensor: Nr:Datum:Temp:Abs-Feuchte:Windchill:Wind:
Aussen-T/F 1151 10-09-2008 08:02:02 17 C 10.85 g/m*3 17 C 0 km/h
1152 10-09-2008 08:07:02 17.1 C 10.77 g/m*3 17.1 C 0 km/h
1153 10-09-2008 08:12:02 17.2 C 10.84 g/m*3 17.2 C 0 km/h
1154 10-09-2008 08:17:01 17.1 C 10.77 g/m*3 17.1 C 0 km/h
1155 10-09-2008 08:22:01 17.9 C 11.3 g/m*3 17.9 C 0 km/h
1156 10-09-2008 08:27:01 17.2 C 10.84 g/m*3 17.2 C 0 km/h
1157 10-09-2008 08:32:02 17.4 C 10.82 g/m*3 17.4 C 0 km/h
1158 10-09-2008 08:37:02 17.5 C 10.88 g/m*3 17.5 C 0 km/h
1159 10-09-2008 08:42:02 17.5 C 10.88 g/m*3 17.5 C 0 km/h
1160 10-09-2008 08:47:02 17.5 C 10.88 g/m*3 17.5 C 0 km/h
1161 10-09-2008 08:52:02 17.5 C 10.88 g/m*3 17.5 C 0 km/h
1162 10-09-2008 08:57:02 17.6 C 10.95 g/m*3 17.6 C 0 km/h
1163 10-09-2008 09:02:01 17.8 C 11.08 g/m*3 17.8 C 0 km/h
1164 10-09-2008 09:07:01 17.9 C 10.99 g/m*3 17.9 C 0 km/h
1165 10-09-2008 09:12:01 18 C 11.06 g/m*3 18 C 0 km/h
1166 10-09-2008 09:17:02 18.1 C 11.12 g/m*3 18.1 C 0 km/h
1167 10-09-2008 09:22:02 18.3 C 11.1 g/m*3 18.3 C 0 km/h
1168 10-09-2008 09:27:02 18.4 C 11.17 g/m*3 18.4 C 0 km/h
1169 10-09-2008 09:32:01 18.5 C 11.08 g/m*3 18.5 C 0 km/h
1170 10-09-2008 09:37:01 18.8 C 11.27 g/m*3 18.8 C 0 km/h
1171 10-09-2008 09:42:02 19 C 10.92 g/m*3 19 C 0 km/h
1172 10-09-2008 09:47:02 19 C 10.92 g/m*3 19 C 0 km/h
1173 10-09-2008 09:52:02 19.4 C 11.18 g/m*3 19.4 C 0 km/h
1174 10-09-2008 09:57:02 20 C 11.23 g/m*3 20 C 0 km/h
1175 10-09-2008 10:02:02 20.1 C 11.13 g/m*3 20.1 C 0 km/h
Sensor: Nr:Datum:Temp:Abs-Feuchte:Windchill:Wind:
Aussen-T/F 1176 10-09-2008 10:07:02 20.5 C 11.03 g/m*3 20.5 C 0 km/h
1177 10-09-2008 10:12:02 20.8 C 11.23 g/m*3 20.8 C 0 km/h
1178 10-09-2008 10:17:01 21 C 10.99 g/m*3 21 C 0 km/h
1179 10-09-2008 10:22:01 21.3 C 11.18 g/m*3 21.3 C 0 km/h
1180 10-09-2008 10:27:01 21.4 C 11.25 g/m*3 21.4 C 0 km/h
1181 10-09-2008 10:32:02 21.5 C 11.31 g/m*3 21.5 C 0 km/h
1182 10-09-2008 10:37:02 21.6 C 11.19 g/m*3 21.6 C 0 km/h
1183 10-09-2008 10:42:02 21.5 C 11.13 g/m*3 21.5 C 0 km/h
1184 10-09-2008 10:47:02 21.5 C 11.13 g/m*3 21.5 C 0 km/h
1185 10-09-2008 10:52:02 21.5 C 11.13 g/m*3 21.5 C 0 km/h
1186 10-09-2008 10:57:03 21.4 C 11.06 g/m*3 21.4 C 0 km/h
1187 10-09-2008 11:02:02 21.4 C 11.25 g/m*3 21.4 C 0 km/h
1188 10-09-2008 11:07:02 21.6 C 11.19 g/m*3 21.6 C 0 km/h
1189 10-09-2008 11:12:02 21.9 C 11.19 g/m*3 21.9 C 0 km/h
1190 10-09-2008 11:17:02 22.1 C 10.93 g/m*3 22.1 C 0 km/h
1191 10-09-2008 11:22:02 22.2 C 10.99 g/m*3 22.2 C 0 km/h
1192 10-09-2008 11:27:02 22.5 C 10.99 g/m*3 22.5 C 0 km/h
1193 10-09-2008 11:32:02 22.6 C 11.05 g/m*3 22.6 C 0 km/h
1194 10-09-2008 11:37:02 22.7 C 11.31 g/m*3 22.7 C 0 km/h
1195 10-09-2008 11:42:02 22.7 C 11.11 g/m*3 22.7 C 0 km/h
1196 10-09-2008 11:47:02 22.6 C 11.25 g/m*3 22.6 C 0 km/h
1197 10-09-2008 11:52:02 22.6 C 11.25 g/m*3 22.6 C 0 km/h
1198 10-09-2008 11:57:02 22.7 C 11.31 g/m*3 22.7 C 0 km/h
1199 10-09-2008 12:02:02 23 C 11.1 g/m*3 23 C 0 km/h
1200 10-09-2008 12:07:03 23.2 C 11.02 g/m*3 23.2 C 0 km/h
Sensor: Nr:Datum:Temp:Abs-Feuchte:Windchill:Wind:
Aussen-T/F 1201 10-09-2008 12:12:03 23.2 C 11.02 g/m*3 23.2 C 0 km/h
1202 10-09-2008 12:17:02 23.5 C 11.21 g/m*3 23.5 C 0 km/h
1203 10-09-2008 12:22:02 23.4 C 11.14 g/m*3 23.4 C 0 km/h
1204 10-09-2008 12:27:02 23.2 C 11.23 g/m*3 23.2 C 0 km/h
1205 10-09-2008 12:32:02 23.2 C 11.23 g/m*3 23.2 C 0 km/h
1206 10-09-2008 12:37:02 23.5 C 11.42 g/m*3 23.5 C 0 km/h
1207 10-09-2008 12:42:02 24 C 11.1 g/m*3 24 C 0 km/h
1208 10-09-2008 12:47:02 24 C 10.88 g/m*3 24 C 0 km/h
1209 10-09-2008 12:52:02 24.2 C 11 g/m*3 24.2 C 0 km/h
1210 10-09-2008 12:57:03 24.4 C 10.9 g/m*3 24.4 C 0 km/h
1211 10-09-2008 13:02:01 24.5 C 10.97 g/m*3 24.5 C 0 km/h
1212 10-09-2008 13:07:01 24.9 C 10.76 g/m*3 24.9 C 0 km/h
1213 10-09-2008 13:12:01 25 C 10.59 g/m*3 25 C 0 km/h
1214 10-09-2008 13:17:02 24.9 C 10.53 g/m*3 24.9 C 0 km/h
1215 10-09-2008 13:22:02 24.8 C 10.7 g/m*3 24.8 C 0 km/h
1216 10-09-2008 13:27:02 24.7 C 10.41 g/m*3 24.7 C 0 km/h
1217 10-09-2008 13:32:02 24.9 C 10.99 g/m*3 24.9 C 0 km/h
1218 10-09-2008 13:37:02 24.9 C 10.76 g/m*3 24.9 C 0 km/h
1219 10-09-2008 13:42:02 24.6 C 10.58 g/m*3 24.6 C 0 km/h
1220 10-09-2008 13:47:01 24.4 C 10.46 g/m*3 24.4 C 0 km/h
1221 10-09-2008 13:52:01 24.4 C 10.46 g/m*3 24.4 C 0 km/h
1222 10-09-2008 13:57:01 24.6 C 10.8 g/m*3 24.6 C 0 km/h
1223 10-09-2008 14:02:02 25.4 C 10.83 g/m*3 25.4 C 0 km/h
1224 10-09-2008 14:07:02 25.7 C 10.29 g/m*3 25.7 C 0 km/h
1225 10-09-2008 14:12:02 26 C 10.23 g/m*3 26 C 0 km/h
Sensor: Nr:Datum:Temp:Abs-Feuchte:Windchill:Wind:
Aussen-T/F 1226 10-09-2008 14:17:02 26.1 C 9.79 g/m*3 26.1 C 0 km/h
1227 10-09-2008 14:22:02 25.9 C 9.93 g/m*3 25.9 C 0 km/h
1228 10-09-2008 14:27:02 25.9 C 9.93 g/m*3 25.9 C 0 km/h
1229 10-09-2008 14:32:02 25.8 C 9.87 g/m*3 25.8 C 0 km/h
1230 10-09-2008 14:37:02 25.5 C 9.71 g/m*3 25.5 C 0 km/h
1231 10-09-2008 14:42:02 25.6 C 9.76 g/m*3 25.6 C 0 km/h
1232 10-09-2008 14:47:02 25.6 C 10 g/m*3 25.6 C 0 km/h
1233 10-09-2008 14:52:03 25.7 C 9.82 g/m*3 25.7 C 0 km/h
1234 10-09-2008 14:57:03 25.9 C 9.68 g/m*3 25.9 C 0 km/h
1235 10-09-2008 15:02:01 26.5 C 9.51 g/m*3 26.5 C 0 km/h
1236 10-09-2008 15:07:01 26.6 C 9.57 g/m*3 26.6 C 0 km/h
1237 10-09-2008 15:12:01 26.8 C 9.67 g/m*3 26.8 C 0 km/h
1238 10-09-2008 15:17:02 26.9 C 9.47 g/m*3 26.9 C 0 km/h
1239 10-09-2008 15:22:02 27.3 C 9.42 g/m*3 27.3 C 0 km/h
1240 10-09-2008 15:27:02 27.3 C 9.16 g/m*3 27.3 C 0 km/h
1241 10-09-2008 15:32:01 27.2 C 9.11 g/m*3 27.2 C 0 km/h
1242 10-09-2008 15:37:01 27.3 C 9.42 g/m*3 27.3 C 0 km/h
1243 10-09-2008 15:42:01 27.1 C 9.32 g/m*3 27.1 C 0 km/h
1244 10-09-2008 15:47:01 26.9 C 9.21 g/m*3 26.9 C 0 km/h
1245 10-09-2008 15:52:01 27 C 9.26 g/m*3 27 C 0 km/h
1246 10-09-2008 15:57:01 26.7 C 9.37 g/m*3 26.7 C 0 km/h
1247 10-09-2008 16:02:02 26.9 C 9.73 g/m*3 26.9 C 0 km/h
1248 10-09-2008 16:07:02 26.8 C 9.42 g/m*3 26.8 C 0 km/h
1249 10-09-2008 16:12:02 27 C 9.01 g/m*3 27 C 0 km/h
1250 10-09-2008 16:17:01 27 C 9.01 g/m*3 27 C 0 km/h
Sensor: Nr:Datum:Temp:Abs-Feuchte:Windchill:Wind:
Aussen-T/F 1251 10-09-2008 16:22:01 27.4 C 9.21 g/m*3 27.4 C 0 km/h
1252 10-09-2008 16:27:01 27.7 C 9.36 g/m*3 27.7 C 0 km/h
1253 10-09-2008 16:32:02 27.7 C 9.09 g/m*3 27.7 C 0 km/h
1254 10-09-2008 16:37:02 27.5 C 8.73 g/m*3 27.5 C 0 km/h
1255 10-09-2008 16:42:02 27.8 C 9.15 g/m*3 27.8 C 0 km/h
1256 10-09-2008 16:47:02 27.9 C 8.92 g/m*3 27.9 C 0 km/h
1257 10-09-2008 16:52:03 27.8 C 8.88 g/m*3 27.8 C 0 km/h
1258 10-09-2008 16:57:03 27.8 C 8.88 g/m*3 27.8 C 0 km/h
1259 10-09-2008 17:02:02 27.6 C 8.78 g/m*3 27.6 C 0 km/h
1260 10-09-2008 17:07:02 27.6 C 9.04 g/m*3 27.6 C 0 km/h
1261 10-09-2008 17:12:02 27.3 C 8.9 g/m*3 27.3 C 0 km/h
1262 10-09-2008 17:17:02 27.7 C 9.09 g/m*3 27.7 C 0 km/h
1263 10-09-2008 17:22:02 27.8 C 8.88 g/m*3 27.8 C 0 km/h
1264 10-09-2008 17:27:02 27.8 C 8.88 g/m*3 27.8 C 0 km/h
1265 10-09-2008 17:32:02 28 C 8.7 g/m*3 28 C 0 km/h
1266 10-09-2008 17:37:02 28.3 C 8.57 g/m*3 28.3 C 0 km/h
1267 10-09-2008 17:42:02 28 C 8.43 g/m*3 28 C 0 km/h
1268 10-09-2008 17:47:02 28.2 C 8.52 g/m*3 28.2 C 0 km/h
1269 10-09-2008 17:52:02 27.7 C 8.83 g/m*3 27.7 C 0 km/h
1270 10-09-2008 17:57:02 27.6 C 8.78 g/m*3 27.6 C 0 km/h
1271 10-09-2008 18:02:02 27.5 C 9 g/m*3 27.5 C 0 km/h
1272 10-09-2008 18:07:02 27.5 C 9 g/m*3 27.5 C 0 km/h
1273 10-09-2008 18:12:02 27.7 C 8.83 g/m*3 27.7 C 0 km/h
1274 10-09-2008 18:17:02 27.9 C 8.92 g/m*3 27.9 C 0 km/h
1275 10-09-2008 18:22:02 27.3 C 8.63 g/m*3 27.3 C 0 km/h
Sensor: Nr:Datum:Temp:Abs-Feuchte:Windchill:Wind:
Aussen-T/F 1276 10-09-2008 18:27:02 27.4 C 8.95 g/m*3 27.4 C 0 km/h
1277 10-09-2008 18:32:02 27.2 C 9.11 g/m*3 27.2 C 0 km/h
1278 10-09-2008 18:37:02 27.5 C 9.26 g/m*3 27.5 C 0 km/h
1279 10-09-2008 18:42:02 27.7 C 9.36 g/m*3 27.7 C 0 km/h
1280 10-09-2008 18:47:02 27.5 C 9 g/m*3 27.5 C 0 km/h
1281 10-09-2008 18:52:02 27.4 C 8.95 g/m*3 27.4 C 0 km/h
1282 10-09-2008 18:57:02 27.2 C 8.85 g/m*3 27.2 C 0 km/h
1283 10-09-2008 19:02:01 26.6 C 8.81 g/m*3 26.6 C 0 km/h
1284 10-09-2008 19:07:01 26.5 C 9.01 g/m*3 26.5 C 0 km/h
1285 10-09-2008 19:12:01 26.4 C 9.46 g/m*3 26.4 C 0 km/h
1286 10-09-2008 19:17:02 26.3 C 9.41 g/m*3 26.3 C 0 km/h
1287 10-09-2008 19:22:02 26 C 9.25 g/m*3 26 C 0 km/h
1288 10-09-2008 19:27:02 25.8 C 9.63 g/m*3 25.8 C 0 km/h
1289 10-09-2008 19:32:01 25.3 C 9.6 g/m*3 25.3 C 0 km/h
1290 10-09-2008 19:37:01 24.7 C 9.51 g/m*3 24.7 C 0 km/h
1291 10-09-2008 19:42:01 24.4 C 9.79 g/m*3 24.4 C 0 km/h
1292 10-09-2008 19:47:01 23.9 C 9.95 g/m*3 23.9 C 0 km/h
1293 10-09-2008 19:52:01 23.7 C 9.84 g/m*3 23.7 C 0 km/h
1294 10-09-2008 19:57:01 23.6 C 10 g/m*3 23.6 C 0 km/h
1295 10-09-2008 20:02:02 23.3 C 10.04 g/m*3 23.3 C 0 km/h
1296 10-09-2008 20:07:02 23.1 C 10.13 g/m*3 23.1 C 0 km/h
1297 10-09-2008 20:12:02 22.9 C 10.42 g/m*3 22.9 C 0 km/h
1298 10-09-2008 20:17:01 22.7 C 10.51 g/m*3 22.7 C 0 km/h
1299 10-09-2008 20:22:01 22.5 C 10.39 g/m*3 22.5 C 0 km/h
1300 10-09-2008 20:27:01 22.5 C 10.59 g/m*3 22.5 C 0 km/h
Sensor: Nr:Datum:Temp:Abs-Feuchte:Windchill:Wind:
Aussen-T/F 1301 10-09-2008 20:32:02 22.3 C 10.66 g/m*3 22.3 C 0 km/h
1302 10-09-2008 20:37:02 22.2 C 10.6 g/m*3 22.2 C 0 km/h
1303 10-09-2008 20:42:02 22.1 C 10.74 g/m*3 22.1 C 0 km/h
1304 10-09-2008 20:47:02 21.9 C 11 g/m*3 21.9 C 0 km/h
1305 10-09-2008 20:52:02 21.7 C 10.87 g/m*3 21.7 C 0 km/h
1306 10-09-2008 20:57:02 21.7 C 11.06 g/m*3 21.7 C 0 km/h
1307 10-09-2008 21:02:02 21.6 C 11 g/m*3 21.6 C 0 km/h
1308 10-09-2008 21:07:02 21.4 C 11.06 g/m*3 21.4 C 0 km/h
1309 10-09-2008 21:12:02 21.4 C 11.06 g/m*3 21.4 C 0 km/h
1310 10-09-2008 21:18:02 21.2 C 10.93 g/m*3 21.2 C 0 km/h
1311 10-09-2008 21:23:02 21.1 C 11.06 g/m*3 21.1 C 0 km/h
1312 10-09-2008 21:28:02 21 C 11.17 g/m*3 21 C 0 km/h
1313 10-09-2008 21:33:02 20.9 C 11.29 g/m*3 20.9 C 0 km/h
1314 10-09-2008 21:38:03 20.9 C 11.29 g/m*3 20.9 C 0 km/h
1315 10-09-2008 21:43:03 20.8 C 11.23 g/m*3 20.8 C 0 km/h
1316 10-09-2008 21:48:03 20.7 C 11.34 g/m*3 20.7 C 0 km/h
1317 10-09-2008 21:53:03 20.6 C 11.28 g/m*3 20.6 C 0 km/h
1318 10-09-2008 21:58:03 20.6 C 11.28 g/m*3 20.6 C 0 km/h
1319 10-09-2008 22:03:03 20.6 C 11.28 g/m*3 20.6 C 0 km/h
1320 10-09-2008 22:08:03 20.5 C 11.21 g/m*3 20.5 C 0 km/h
1321 10-09-2008 22:13:03 20.4 C 11.14 g/m*3 20.4 C 0 km/h
1322 10-09-2008 22:18:03 20.4 C 11.14 g/m*3 20.4 C 0 km/h
1323 10-09-2008 22:23:03 20.4 C 11.14 g/m*3 20.4 C 0 km/h
1324 10-09-2008 22:28:03 20.4 C 11.32 g/m*3 20.4 C 0 km/h
1325 10-09-2008 22:33:03 20.3 C 11.26 g/m*3 20.3 C 0 km/h
Sensor: Nr:Datum:Temp:Abs-Feuchte:Windchill:Wind:
Aussen-T/F 1326 10-09-2008 22:38:03 20.2 C 11.19 g/m*3 20.2 C 0 km/h
1327 10-09-2008 22:43:03 20.1 C 11.13 g/m*3 20.1 C 0 km/h
1328 10-09-2008 22:48:03 20.1 C 11.3 g/m*3 20.1 C 0 km/h
1329 10-09-2008 22:53:03 20 C 11.23 g/m*3 20 C 0 km/h
1330 10-09-2008 22:58:03 19.9 C 11.51 g/m*3 19.9 C 0 km/h
1331 10-09-2008 23:03:03 19.8 C 11.61 g/m*3 19.8 C 0 km/h
1332 10-09-2008 23:08:03 19.9 C 11.85 g/m*3 19.9 C 0 km/h
1333 10-09-2008 23:13:03 19.9 C 11.85 g/m*3 19.9 C 0 km/h
1334 10-09-2008 23:18:04 20 C 11.75 g/m*3 20 C 0 km/h
1335 10-09-2008 23:23:04 19.7 C 11.72 g/m*3 19.7 C 0 km/h
1336 10-09-2008 23:28:04 19.7 C 11.72 g/m*3 19.7 C 0 km/h
1337 10-09-2008 23:33:04 19.6 C 11.82 g/m*3 19.6 C 0 km/h
1338 10-09-2008 23:38:04 19.6 C 11.99 g/m*3 19.6 C 0 km/h
1339 10-09-2008 23:43:04 19.5 C 11.92 g/m*3 19.5 C 0 km/h
1340 10-09-2008 23:48:04 19.5 C 11.92 g/m*3 19.5 C 0 km/h
1341 10-09-2008 23:53:04 19.4 C 12.01 g/m*3 19.4 C 0 km/h
1342 10-09-2008 23:58:04 19.3 C 11.94 g/m*3 19.3 C 0 km/h
1343 11-09-2008 00:03:04 19.2 C 12.04 g/m*3 19.2 C 0 km/h
1344 11-09-2008 00:08:04 19.1 C 11.97 g/m*3 19.1 C 0 km/h
1345 11-09-2008 00:13:04 19.1 C 12.13 g/m*3 19.1 C 0 km/h
1346 11-09-2008 00:18:04 18.9 C 12.15 g/m*3 18.9 C 0 km/h
1347 11-09-2008 00:23:04 18.7 C 12.17 g/m*3 18.7 C 0 km/h
1348 11-09-2008 00:28:04 18.7 C 12.17 g/m*3 18.7 C 0 km/h
1349 11-09-2008 00:33:04 18.7 C 12.17 g/m*3 18.7 C 0 km/h
1350 11-09-2008 00:38:04 18.5 C 12.02 g/m*3 18.5 C 0 km/h
Sensor: Nr:Datum:Temp:Abs-Feuchte:Windchill:Wind:
Aussen-T/F 1351 11-09-2008 00:43:04 18.4 C 11.95 g/m*3 18.4 C 0 km/h
1352 11-09-2008 00:48:04 18.3 C 11.88 g/m*3 18.3 C 0 km/h
1353 11-09-2008 00:53:05 18.2 C 11.81 g/m*3 18.2 C 0 km/h
1354 11-09-2008 00:58:05 18 C 11.67 g/m*3 18 C 0 km/h
1355 11-09-2008 01:03:05 18 C 11.67 g/m*3 18 C 0 km/h
1356 11-09-2008 01:08:05 17.8 C 11.69 g/m*3 17.8 C 0 km/h
1357 11-09-2008 01:13:05 17.6 C 11.7 g/m*3 17.6 C 0 km/h
1358 11-09-2008 01:18:05 17.5 C 11.63 g/m*3 17.5 C 0 km/h
1359 11-09-2008 01:23:05 17.5 C 11.63 g/m*3 17.5 C 0 km/h
1360 11-09-2008 01:28:05 17.5 C 11.63 g/m*3 17.5 C 0 km/h
1361 11-09-2008 01:33:05 17.4 C 11.56 g/m*3 17.4 C 0 km/h
1362 11-09-2008 01:38:05 17.3 C 11.49 g/m*3 17.3 C 0 km/h
1363 11-09-2008 01:43:05 17.2 C 11.42 g/m*3 17.2 C 0 km/h
1364 11-09-2008 01:48:05 17.2 C 11.57 g/m*3 17.2 C 0 km/h
1365 11-09-2008 01:53:05 17.2 C 11.57 g/m*3 17.2 C 0 km/h
1366 11-09-2008 01:58:05 17.3 C 11.64 g/m*3 17.3 C 0 km/h
1367 11-09-2008 02:03:05 17.1 C 11.5 g/m*3 17.1 C 0 km/h
1368 11-09-2008 02:08:05 17 C 11.43 g/m*3 17 C 0 km/h
1369 11-09-2008 02:13:05 16.9 C 11.65 g/m*3 16.9 C 0 km/h
1370 11-09-2008 02:18:05 16.7 C 11.51 g/m*3 16.7 C 0 km/h
1371 11-09-2008 02:23:05 16.6 C 11.44 g/m*3 16.6 C 0 km/h
1372 11-09-2008 02:28:06 16.6 C 11.44 g/m*3 16.6 C 0 km/h
1373 11-09-2008 02:33:06 16.5 C 11.51 g/m*3 16.5 C 0 km/h
1374 11-09-2008 02:38:06 16.4 C 11.45 g/m*3 16.4 C 0 km/h
1375 11-09-2008 02:43:06 16.4 C 11.31 g/m*3 16.4 C 0 km/h
Sensor: Nr:Datum:Temp:Abs-Feuchte:Windchill:Wind:
Aussen-T/F 1376 11-09-2008 02:48:06 16.3 C 11.24 g/m*3 16.3 C 0 km/h
1377 11-09-2008 02:53:06 16.3 C 11.24 g/m*3 16.3 C 0 km/h
1378 11-09-2008 02:58:06 16.2 C 11.17 g/m*3 16.2 C 0 km/h
1379 11-09-2008 03:03:06 16.2 C 11.17 g/m*3 16.2 C 0 km/h
1380 11-09-2008 03:08:06 16.1 C 11.1 g/m*3 16.1 C 0 km/h
1381 11-09-2008 03:13:06 16.1 C 11.1 g/m*3 16.1 C 0 km/h
1382 11-09-2008 03:18:06 16 C 11.04 g/m*3 16 C 0 km/h
1383 11-09-2008 03:23:06 16 C 11.04 g/m*3 16 C 0 km/h
1384 11-09-2008 03:28:06 16 C 11.17 g/m*3 16 C 0 km/h
1385 11-09-2008 03:33:06 15.9 C 11.1 g/m*3 15.9 C 0 km/h
1386 11-09-2008 03:38:06 15.9 C 11.1 g/m*3 15.9 C 0 km/h
1387 11-09-2008 03:43:06 15.8 C 11.04 g/m*3 15.8 C 0 km/h
1388 11-09-2008 03:48:06 15.8 C 11.04 g/m*3 15.8 C 0 km/h
1389 11-09-2008 03:53:06 15.8 C 11.04 g/m*3 15.8 C 0 km/h
1390 11-09-2008 03:58:06 15.7 C 10.97 g/m*3 15.7 C 0 km/h
1391 11-09-2008 04:03:06 15.6 C 10.91 g/m*3 15.6 C 0 km/h
1392 11-09-2008 04:08:07 15.7 C 10.97 g/m*3 15.7 C 0 km/h
1393 11-09-2008 04:13:07 15.5 C 10.84 g/m*3 15.5 C 0 km/h
1394 11-09-2008 04:18:07 15.4 C 10.9 g/m*3 15.4 C 0 km/h
1395 11-09-2008 04:23:07 15.4 C 10.9 g/m*3 15.4 C 0 km/h
1396 11-09-2008 04:28:07 15.4 C 10.9 g/m*3 15.4 C 0 km/h
1397 11-09-2008 04:33:07 15.3 C 10.84 g/m*3 15.3 C 0 km/h
1398 11-09-2008 04:38:07 15.3 C 10.84 g/m*3 15.3 C 0 km/h
1399 11-09-2008 04:43:07 15.3 C 10.84 g/m*3 15.3 C 0 km/h
1400 11-09-2008 04:48:07 15.3 C 10.97 g/m*3 15.3 C 0 km/h
Sensor: Nr:Datum:Temp:Abs-Feuchte:Windchill:Wind:
Aussen-T/F 1401 11-09-2008 04:53:07 15.3 C 10.97 g/m*3 15.3 C 0 km/h
1402 11-09-2008 04:58:07 15.3 C 10.97 g/m*3 15.3 C 0 km/h
1403 11-09-2008 05:03:07 15.4 C 11.04 g/m*3 15.4 C 0 km/h
1404 11-09-2008 05:08:07 15.5 C 11.1 g/m*3 15.5 C 0 km/h
1405 11-09-2008 05:13:07 15.5 C 11.1 g/m*3 15.5 C 0 km/h
1406 11-09-2008 05:18:07 15.6 C 11.17 g/m*3 15.6 C 0 km/h
1407 11-09-2008 05:23:07 15.6 C 11.17 g/m*3 15.6 C 0 km/h
1408 11-09-2008 05:28:07 15.6 C 11.17 g/m*3 15.6 C 0 km/h
1409 11-09-2008 05:33:07 15.6 C 11.17 g/m*3 15.6 C 0 km/h
1410 11-09-2008 05:38:07 15.5 C 11.1 g/m*3 15.5 C 0 km/h
1411 11-09-2008 05:43:08 15.5 C 11.1 g/m*3 15.5 C 0 km/h
1412 11-09-2008 05:48:08 15.5 C 11.1 g/m*3 15.5 C 0 km/h
1413 11-09-2008 05:53:08 15.5 C 10.97 g/m*3 15.5 C 0 km/h
1414 11-09-2008 05:58:08 15.4 C 11.04 g/m*3 15.4 C 0 km/h
1415 11-09-2008 06:03:08 15.4 C 11.04 g/m*3 15.4 C 0 km/h
1416 11-09-2008 06:08:08 15.3 C 10.97 g/m*3 15.3 C 0 km/h
1417 11-09-2008 06:13:08 15.2 C 10.9 g/m*3 15.2 C 0 km/h
1418 11-09-2008 06:18:08 15.1 C 10.84 g/m*3 15.1 C 0 km/h
1419 11-09-2008 06:23:08 15.1 C 10.84 g/m*3 15.1 C 0 km/h
1420 11-09-2008 06:28:08 15.2 C 11.03 g/m*3 15.2 C 0 km/h
1421 11-09-2008 06:33:08 15.1 C 10.97 g/m*3 15.1 C 0 km/h
1422 11-09-2008 06:38:08 15.1 C 10.97 g/m*3 15.1 C 0 km/h
1423 11-09-2008 06:43:08 15.2 C 11.03 g/m*3 15.2 C 0 km/h
1424 11-09-2008 06:48:08 15.3 C 11.1 g/m*3 15.3 C 0 km/h
1425 11-09-2008 06:53:08 15.3 C 11.1 g/m*3 15.3 C 0 km/h
Sensor: Nr:Datum:Temp:Abs-Feuchte:Windchill:Wind:
Aussen-T/F 1426 11-09-2008 06:58:08 15.4 C 11.17 g/m*3 15.4 C 0 km/h
1427 11-09-2008 07:03:02 15.4 C 11.17 g/m*3 15.4 C 0 km/h
1428 11-09-2008 07:08:02 15.4 C 11.17 g/m*3 15.4 C 0 km/h
1429 11-09-2008 07:13:02 15.4 C 11.17 g/m*3 15.4 C 0 km/h
1430 11-09-2008 07:18:02 15.4 C 11.17 g/m*3 15.4 C 0 km/h
1431 11-09-2008 07:23:02 15.4 C 11.17 g/m*3 15.4 C 0 km/h
1432 11-09-2008 07:28:02 15.4 C 11.17 g/m*3 15.4 C 0 km/h
1433 11-09-2008 07:33:02 15.4 C 11.17 g/m*3 15.4 C 0 km/h
1434 11-09-2008 07:38:02 15.4 C 11.3 g/m*3 15.4 C 0 km/h
1435 11-09-2008 07:43:02 15.5 C 11.37 g/m*3 15.5 C 0 km/h
1436 11-09-2008 07:48:02 15.6 C 11.44 g/m*3 15.6 C 0 km/h
1437 11-09-2008 07:53:02 15.7 C 11.51 g/m*3 15.7 C 0 km/h
1438 11-09-2008 07:58:02 15.8 C 11.58 g/m*3 15.8 C 0 km/h
1439 11-09-2008 08:03:02 15.8 C 11.58 g/m*3 15.8 C 0 km/h
1440 11-09-2008 08:08:02 15.8 C 11.44 g/m*3 15.8 C 0 km/h
1441 11-09-2008 08:13:02 15.9 C 11.51 g/m*3 15.9 C 0 km/h
1442 11-09-2008 08:18:02 16 C 11.44 g/m*3 16 C 0 km/h
1443 11-09-2008 08:23:02 16 C 11.44 g/m*3 16 C 0 km/h
1444 11-09-2008 08:28:02 16.1 C 11.65 g/m*3 16.1 C 0 km/h
1445 11-09-2008 08:33:03 16.2 C 11.72 g/m*3 16.2 C 0 km/h
1446 11-09-2008 08:38:03 16.4 C 11.86 g/m*3 16.4 C 0 km/h
1447 11-09-2008 08:43:03 16.5 C 11.8 g/m*3 16.5 C 0 km/h
1448 11-09-2008 08:48:02 16.6 C 11.87 g/m*3 16.6 C 0 km/h
1449 11-09-2008 08:53:02 16.6 C 11.87 g/m*3 16.6 C 0 km/h
1450 11-09-2008 08:58:02 16.7 C 11.94 g/m*3 16.7 C 0 km/h
Sensor: Nr:Datum:Temp:Abs-Feuchte:Windchill:Wind:
Aussen-T/F 1451 11-09-2008 09:03:02 16.8 C 11.87 g/m*3 16.8 C 0 km/h
1452 11-09-2008 09:08:02 16.8 C 11.87 g/m*3 16.8 C 0 km/h
1453 11-09-2008 09:13:02 17 C 12.01 g/m*3 17 C 0 km/h
1454 11-09-2008 09:18:02 17.2 C 12.15 g/m*3 17.2 C 0 km/h
1455 11-09-2008 09:23:02 17.3 C 12.08 g/m*3 17.3 C 0 km/h
1456 11-09-2008 09:28:02 17.5 C 12.23 g/m*3 17.5 C 0 km/h
1457 11-09-2008 09:33:03 17.6 C 12.15 g/m*3 17.6 C 0 km/h
1458 11-09-2008 09:38:03 17.6 C 12 g/m*3 17.6 C 0 km/h
1459 11-09-2008 09:43:03 17.7 C 12.07 g/m*3 17.7 C 0 km/h
1460 11-09-2008 09:48:02 17.8 C 11.99 g/m*3 17.8 C 0 km/h
1461 11-09-2008 09:53:02 17.9 C 12.06 g/m*3 17.9 C 0 km/h
1462 11-09-2008 09:58:02 18.2 C 12.12 g/m*3 18.2 C 0 km/h
1463 11-09-2008 10:03:03 18.4 C 12.11 g/m*3 18.4 C 0 km/h
1464 11-09-2008 10:08:03 18.7 C 12.33 g/m*3 18.7 C 0 km/h
1465 11-09-2008 10:13:03 18.8 C 12.24 g/m*3 18.8 C 0 km/h
1466 11-09-2008 10:18:02 19 C 12.06 g/m*3 19 C 0 km/h
1467 11-09-2008 10:23:02 19.2 C 12.04 g/m*3 19.2 C 0 km/h
1468 11-09-2008 10:28:02 19.3 C 12.11 g/m*3 19.3 C 0 km/h
1469 11-09-2008 10:33:02 19.5 C 12.08 g/m*3 19.5 C 0 km/h
1470 11-09-2008 10:38:02 19.7 C 12.06 g/m*3 19.7 C 0 km/h
1471 11-09-2008 10:43:02 19.9 C 12.03 g/m*3 19.9 C 0 km/h
1472 11-09-2008 10:48:03 20.1 C 11.82 g/m*3 20.1 C 0 km/h
1473 11-09-2008 10:53:03 20.5 C 12.1 g/m*3 20.5 C 0 km/h
1474 11-09-2008 10:58:03 20.4 C 11.85 g/m*3 20.4 C 0 km/h
1475 11-09-2008 11:03:02 20.5 C 11.74 g/m*3 20.5 C 0 km/h
Sensor: Nr:Datum:Temp:Abs-Feuchte:Windchill:Wind:
Aussen-T/F 1476 11-09-2008 11:08:02 20.8 C 11.95 g/m*3 20.8 C 0 km/h
1477 11-09-2008 11:13:02 20.9 C 11.84 g/m*3 20.9 C 0 km/h
1478 11-09-2008 11:18:02 21 C 11.72 g/m*3 21 C 0 km/h
1479 11-09-2008 11:23:02 21.1 C 11.79 g/m*3 21.1 C 0 km/h
1480 11-09-2008 11:28:02 21.2 C 11.68 g/m*3 21.2 C 0 km/h
1481 11-09-2008 11:33:02 21.1 C 11.61 g/m*3 21.1 C 0 km/h
1482 11-09-2008 11:38:02 20.9 C 11.66 g/m*3 20.9 C 0 km/h
1483 11-09-2008 11:43:03 20.8 C 11.95 g/m*3 20.8 C 0 km/h
1484 11-09-2008 11:48:01 20.9 C 12.02 g/m*3 20.9 C 0 km/h
1485 11-09-2008 11:53:01 21 C 11.91 g/m*3 21 C 0 km/h
1486 11-09-2008 11:58:01 21.1 C 11.79 g/m*3 21.1 C 0 km/h
1487 11-09-2008 12:03:02 21.1 C 11.98 g/m*3 21.1 C 0 km/h
1488 11-09-2008 12:08:02 21.2 C 12.05 g/m*3 21.2 C 0 km/h
1489 11-09-2008 12:13:02 21.2 C 12.05 g/m*3 21.2 C 0 km/h
1490 11-09-2008 12:18:02 21.5 C 12.26 g/m*3 21.5 C 0 km/h
1491 11-09-2008 12:23:02 21.6 C 12.14 g/m*3 21.6 C 0 km/h
1492 11-09-2008 12:28:03 21.9 C 12.35 g/m*3 21.9 C 0 km/h
1493 11-09-2008 12:33:01 22.2 C 12.17 g/m*3 22.2 C 0 km/h
1494 11-09-2008 12:38:01 22.5 C 12.38 g/m*3 22.5 C 0 km/h
1495 11-09-2008 12:43:01 22.8 C 12.19 g/m*3 22.8 C 0 km/h
1496 11-09-2008 12:48:02 23 C 12.13 g/m*3 23 C 0 km/h
1497 11-09-2008 12:53:02 23.1 C 12.2 g/m*3 23.1 C 0 km/h
1498 11-09-2008 12:58:02 23.3 C 12.13 g/m*3 23.3 C 0 km/h
1499 11-09-2008 13:03:01 23.7 C 12.19 g/m*3 23.7 C 0 km/h
1500 11-09-2008 13:08:01 24.1 C 12.03 g/m*3 24.1 C 0 km/h
Sensor: Nr:Datum:Temp:Abs-Feuchte:Windchill:Wind:
Aussen-T/F 1501 11-09-2008 13:13:01 24.3 C 12.17 g/m*3 24.3 C 0 km/h
1502 11-09-2008 13:18:01 24.7 C 12.22 g/m*3 24.7 C 0 km/h
1503 11-09-2008 13:23:01 24.9 C 12.13 g/m*3 24.9 C 0 km/h
1504 11-09-2008 13:28:01 24.9 C 11.9 g/m*3 24.9 C 0 km/h
1505 11-09-2008 13:33:02 25.4 C 11.77 g/m*3 25.4 C 0 km/h
1506 11-09-2008 13:38:02 25.7 C 11.73 g/m*3 25.7 C 0 km/h
1507 11-09-2008 13:43:02 25.9 C 11.86 g/m*3 25.9 C 0 km/h
1508 11-09-2008 13:48:02 26.1 C 12 g/m*3 26.1 C 0 km/h
1509 11-09-2008 13:53:02 26.4 C 11.7 g/m*3 26.4 C 0 km/h
1510 11-09-2008 13:58:02 26.5 C 11.77 g/m*3 26.5 C 0 km/h
1511 11-09-2008 14:03:01 26.9 C 11.77 g/m*3 26.9 C 0 km/h
1512 11-09-2008 14:08:01 27.2 C 11.45 g/m*3 27.2 C 0 km/h
1513 11-09-2008 14:13:01 27.5 C 11.38 g/m*3 27.5 C 0 km/h
1514 11-09-2008 14:18:02 27.7 C 11.5 g/m*3 27.7 C 0 km/h
1515 11-09-2008 14:23:02 27.8 C 11.3 g/m*3 27.8 C 0 km/h
1516 11-09-2008 14:28:02 27.9 C 11.09 g/m*3 27.9 C 0 km/h
1517 11-09-2008 14:33:02 27.8 C 11.03 g/m*3 27.8 C 0 km/h
1518 11-09-2008 14:38:02 28.2 C 11.27 g/m*3 28.2 C 0 km/h
1519 11-09-2008 14:43:02 28.3 C 11.06 g/m*3 28.3 C 0 km/h
1520 11-09-2008 14:48:01 28.3 C 11.33 g/m*3 28.3 C 0 km/h
1521 11-09-2008 14:53:01 28.7 C 11.3 g/m*3 28.7 C 0 km/h
1522 11-09-2008 14:58:01 29 C 10.63 g/m*3 29 C 0 km/h
1523 11-09-2008 15:03:02 29.4 C 10.27 g/m*3 29.4 C 0 km/h
1524 11-09-2008 15:08:03 29.6 C 10.68 g/m*3 29.6 C 0 km/h
1525 11-09-2008 15:13:03 29.4 C 9.98 g/m*3 29.4 C 0 km/h
Sensor: Nr:Datum:Temp:Abs-Feuchte:Windchill:Wind:
Aussen-T/F 1526 11-09-2008 15:18:02 29 C 10.63 g/m*3 29 C 0 km/h
1527 11-09-2008 15:23:02 28.8 C 10.51 g/m*3 28.8 C 0 km/h
1528 11-09-2008 15:28:02 28.7 C 10.17 g/m*3 28.7 C 0 km/h
1529 11-09-2008 15:33:02 28.8 C 10.51 g/m*3 28.8 C 0 km/h
1530 11-09-2008 15:38:02 28.9 C 10.86 g/m*3 28.9 C 0 km/h
1531 11-09-2008 15:43:02 29 C 9.77 g/m*3 29 C 0 km/h
1532 11-09-2008 15:48:02 29.2 C 9.29 g/m*3 29.2 C 0 km/h
1533 11-09-2008 15:53:02 29 C 8.9 g/m*3 29 C 0 km/h
1534 11-09-2008 15:58:02 28.6 C 8.99 g/m*3 28.6 C 0 km/h
1535 11-09-2008 16:03:01 28.3 C 9.68 g/m*3 28.3 C 0 km/h
1536 11-09-2008 16:08:01 28 C 10.06 g/m*3 28 C 0 km/h
1537 11-09-2008 16:13:01 27.7 C 10.7 g/m*3 27.7 C 0 km/h
1538 11-09-2008 16:18:02 27.1 C 10.61 g/m*3 27.1 C 0 km/h
1539 11-09-2008 16:23:02 26.6 C 11.08 g/m*3 26.6 C 0 km/h
1540 11-09-2008 16:28:02 26.5 C 10.51 g/m*3 26.5 C 0 km/h
1541 11-09-2008 16:33:02 26.3 C 11.39 g/m*3 26.3 C 0 km/h
1542 11-09-2008 16:38:02 26 C 11.2 g/m*3 26 C 0 km/h
1543 11-09-2008 16:43:02 25.9 C 11.62 g/m*3 25.9 C 0 km/h
1544 11-09-2008 16:48:02 25.8 C 11.56 g/m*3 25.8 C 0 km/h
1545 11-09-2008 16:53:02 25.6 C 10.95 g/m*3 25.6 C 0 km/h
1546 11-09-2008 16:58:02 25.4 C 11.06 g/m*3 25.4 C 0 km/h
1547 11-09-2008 17:03:02 25.1 C 11.11 g/m*3 25.1 C 0 km/h
1548 11-09-2008 17:08:02 25.3 C 10.77 g/m*3 25.3 C 0 km/h
1549 11-09-2008 17:13:02 25.2 C 10.94 g/m*3 25.2 C 0 km/h
1550 11-09-2008 17:18:02 25.1 C 10.88 g/m*3 25.1 C 0 km/h
Sensor: Nr:Datum:Temp:Abs-Feuchte:Windchill:Wind:
Aussen-T/F 1551 11-09-2008 17:23:02 25.1 C 10.88 g/m*3 25.1 C 0 km/h
1552 11-09-2008 17:28:02 24.8 C 11.38 g/m*3 24.8 C 0 km/h
1553 11-09-2008 17:33:02 24.7 C 11.54 g/m*3 24.7 C 0 km/h
1554 11-09-2008 17:38:02 24.6 C 11.7 g/m*3 24.6 C 0 km/h
1555 11-09-2008 17:43:02 23.2 C 13.1 g/m*3 23.2 C 0 km/h
1556 11-09-2008 17:48:02 22.7 C 13.74 g/m*3 22.7 C 0 km/h
1557 11-09-2008 17:53:02 21.6 C 14.22 g/m*3 21.6 C 0 km/h
1558 11-09-2008 17:58:02 21.1 C 14.56 g/m*3 21.1 C 0 km/h
1559 11-09-2008 18:03:01 20.9 C 14.75 g/m*3 20.9 C 0 km/h
1560 11-09-2008 18:08:01 20.8 C 14.85 g/m*3 20.8 C 0 km/h
1561 11-09-2008 18:13:01 20.9 C 15.12 g/m*3 20.9 C 0 km/h
1562 11-09-2008 18:18:02 21 C 15.02 g/m*3 21 C 0 km/h
1563 11-09-2008 18:23:02 21.1 C 15.11 g/m*3 21.1 C 0 km/h
1564 11-09-2008 18:28:02 21.4 C 15.37 g/m*3 21.4 C 0 km/h
1565 11-09-2008 18:33:02 21.6 C 15.36 g/m*3 21.6 C 0 km/h
1566 11-09-2008 18:38:02 21.8 C 15.54 g/m*3 21.8 C 0 km/h
1567 11-09-2008 18:43:02 22.1 C 15.42 g/m*3 22.1 C 0 km/h
1568 11-09-2008 18:48:02 22.2 C 15.31 g/m*3 22.2 C 0 km/h
1569 11-09-2008 18:53:02 22.2 C 15.31 g/m*3 22.2 C 0 km/h
1570 11-09-2008 18:58:02 22.2 C 15.12 g/m*3 22.2 C 0 km/h
1571 11-09-2008 19:03:02 22.2 C 15.12 g/m*3 22.2 C 0 km/h
1572 11-09-2008 19:08:02 22.1 C 15.03 g/m*3 22.1 C 0 km/h
1573 11-09-2008 19:13:02 22 C 14.94 g/m*3 22 C 0 km/h
1574 11-09-2008 19:18:02 21.8 C 15.16 g/m*3 21.8 C 0 km/h
1575 11-09-2008 19:23:02 21.6 C 14.98 g/m*3 21.6 C 0 km/h
Sensor: Nr:Datum:Temp:Abs-Feuchte:Windchill:Wind:
Aussen-T/F 1576 11-09-2008 19:28:02 21.4 C 14.81 g/m*3 21.4 C 0 km/h
1577 11-09-2008 19:33:01 21.2 C 14.83 g/m*3 21.2 C 0 km/h
1578 11-09-2008 19:38:01 21.1 C 14.74 g/m*3 21.1 C 0 km/h
1579 11-09-2008 19:43:01 21.1 C 14.92 g/m*3 21.1 C 0 km/h
1580 11-09-2008 19:48:02 20.9 C 14.93 g/m*3 20.9 C 0 km/h
1581 11-09-2008 19:53:02 20.8 C 14.85 g/m*3 20.8 C 0 km/h
1582 11-09-2008 19:58:02 20.7 C 14.76 g/m*3 20.7 C 0 km/h
1583 11-09-2008 20:03:02 20.6 C 14.68 g/m*3 20.6 C 0 km/h
1584 11-09-2008 20:08:02 20.4 C 14.51 g/m*3 20.4 C 0 km/h
1585 11-09-2008 20:13:02 20.3 C 14.42 g/m*3 20.3 C 0 km/h
1586 11-09-2008 20:18:02 20.1 C 14.25 g/m*3 20.1 C 0 km/h
1587 11-09-2008 20:23:02 20 C 14.17 g/m*3 20 C 0 km/h
1588 11-09-2008 20:28:02 19.9 C 14.26 g/m*3 19.9 C 0 km/h
1589 11-09-2008 20:33:02 19.9 C 14.26 g/m*3 19.9 C 0 km/h
1590 11-09-2008 20:38:02 19.9 C 14.26 g/m*3 19.9 C 0 km/h
1591 11-09-2008 20:43:02 19.9 C 14.26 g/m*3 19.9 C 0 km/h
1592 11-09-2008 20:48:01 20 C 14.17 g/m*3 20 C 0 km/h
1593 11-09-2008 20:53:01 19.7 C 14.26 g/m*3 19.7 C 0 km/h
1594 11-09-2008 20:58:01 19.6 C 14.18 g/m*3 19.6 C 0 km/h
1595 11-09-2008 21:03:01 19.5 C 14.1 g/m*3 19.5 C 0 km/h
1596 11-09-2008 21:08:01 19.6 C 14.18 g/m*3 19.6 C 0 km/h
1597 11-09-2008 21:13:01 19.5 C 14.1 g/m*3 19.5 C 0 km/h
1598 11-09-2008 21:18:01 19.5 C 14.1 g/m*3 19.5 C 0 km/h
1599 11-09-2008 21:23:01 19.5 C 14.1 g/m*3 19.5 C 0 km/h
1600 11-09-2008 21:28:01 19.4 C 14.01 g/m*3 19.4 C 0 km/h
Sensor: Nr:Datum:Temp:Abs-Feuchte:Windchill:Wind:
Aussen-T/F 1601 11-09-2008 21:33:01 19.3 C 13.93 g/m*3 19.3 C 0 km/h
1602 11-09-2008 21:38:01 19.3 C 13.93 g/m*3 19.3 C 0 km/h
1603 11-09-2008 21:43:01 19.3 C 14.1 g/m*3 19.3 C 0 km/h
1604 11-09-2008 21:49:03 19.2 C 14.02 g/m*3 19.2 C 0 km/h
1605 11-09-2008 21:54:03 19.2 C 14.02 g/m*3 19.2 C 0 km/h
1606 11-09-2008 21:59:03 19.1 C 13.93 g/m*3 19.1 C 0 km/h
1607 11-09-2008 22:04:03 19 C 13.85 g/m*3 19 C 0 km/h
1608 11-09-2008 22:09:03 19 C 13.85 g/m*3 19 C 0 km/h
1609 11-09-2008 22:14:03 19 C 13.85 g/m*3 19 C 0 km/h
1610 11-09-2008 22:19:03 18.9 C 13.93 g/m*3 18.9 C 0 km/h
1611 11-09-2008 22:24:03 18.9 C 13.93 g/m*3 18.9 C 0 km/h
1612 11-09-2008 22:29:03 18.8 C 13.85 g/m*3 18.8 C 0 km/h
1613 11-09-2008 22:34:03 18.8 C 13.85 g/m*3 18.8 C 0 km/h
1614 11-09-2008 22:39:03 18.7 C 13.93 g/m*3 18.7 C 0 km/h
1615 11-09-2008 22:44:03 18.7 C 13.93 g/m*3 18.7 C 0 km/h
1616 11-09-2008 22:49:03 18.7 C 13.77 g/m*3 18.7 C 0 km/h
1617 11-09-2008 22:54:03 18.6 C 13.69 g/m*3 18.6 C 0 km/h
1618 11-09-2008 22:59:03 18.6 C 13.85 g/m*3 18.6 C 0 km/h
1619 11-09-2008 23:04:04 18.6 C 13.85 g/m*3 18.6 C 0 km/h
1620 11-09-2008 23:09:04 18.5 C 13.77 g/m*3 18.5 C 0 km/h
1621 11-09-2008 23:14:04 18.5 C 13.77 g/m*3 18.5 C 0 km/h
1622 11-09-2008 23:19:04 18.5 C 13.77 g/m*3 18.5 C 0 km/h
1623 11-09-2008 23:24:04 18.4 C 13.68 g/m*3 18.4 C 0 km/h
1624 11-09-2008 23:29:04 18.3 C 13.6 g/m*3 18.3 C 0 km/h
1625 11-09-2008 23:34:04 18.2 C 13.52 g/m*3 18.2 C 0 km/h
Sensor: Nr:Datum:Temp:Abs-Feuchte:Windchill:Wind:
Aussen-T/F 1626 11-09-2008 23:39:04 18.1 C 13.44 g/m*3 18.1 C 0 km/h
1627 11-09-2008 23:44:04 18.1 C 13.44 g/m*3 18.1 C 0 km/h
1628 11-09-2008 23:49:04 18.1 C 13.44 g/m*3 18.1 C 0 km/h
1629 11-09-2008 23:54:04 18 C 13.36 g/m*3 18 C 0 km/h
1630 11-09-2008 23:59:04 18 C 13.52 g/m*3 18 C 0 km/h
1631 12-09-2008 00:04:04 18 C 13.52 g/m*3 18 C 0 km/h
1632 12-09-2008 00:09:04 18.1 C 13.6 g/m*3 18.1 C 0 km/h
1633 12-09-2008 00:14:04 18.1 C 13.6 g/m*3 18.1 C 0 km/h
1634 12-09-2008 00:19:04 18.1 C 13.6 g/m*3 18.1 C 0 km/h
1635 12-09-2008 00:24:04 18.1 C 13.6 g/m*3 18.1 C 0 km/h
1636 12-09-2008 00:29:04 18.1 C 13.6 g/m*3 18.1 C 0 km/h
1637 12-09-2008 00:34:04 18.1 C 13.6 g/m*3 18.1 C 0 km/h
1638 12-09-2008 00:39:05 18.1 C 13.6 g/m*3 18.1 C 0 km/h
1639 12-09-2008 00:44:05 18.1 C 13.6 g/m*3 18.1 C 0 km/h
1640 12-09-2008 00:49:05 18.1 C 13.6 g/m*3 18.1 C 0 km/h
1641 12-09-2008 00:54:05 18.1 C 13.6 g/m*3 18.1 C 0 km/h
1642 12-09-2008 00:59:05 18.1 C 13.6 g/m*3 18.1 C 0 km/h
1643 12-09-2008 01:04:05 18.1 C 13.6 g/m*3 18.1 C 0 km/h
1644 12-09-2008 01:09:05 18.1 C 13.6 g/m*3 18.1 C 0 km/h
1645 12-09-2008 01:14:05 18.1 C 13.6 g/m*3 18.1 C 0 km/h
1646 12-09-2008 01:19:05 18.2 C 13.68 g/m*3 18.2 C 0 km/h
1647 12-09-2008 01:24:05 18.2 C 13.68 g/m*3 18.2 C 0 km/h
1648 12-09-2008 01:29:05 18.2 C 13.68 g/m*3 18.2 C 0 km/h
1649 12-09-2008 01:34:05 18.2 C 13.52 g/m*3 18.2 C 0 km/h
1650 12-09-2008 01:39:05 18.3 C 13.6 g/m*3 18.3 C 0 km/h
Sensor: Nr:Datum:Temp:Abs-Feuchte:Windchill:Wind:
Aussen-T/F 1651 12-09-2008 01:44:05 18.3 C 13.6 g/m*3 18.3 C 0 km/h
1652 12-09-2008 01:49:05 18.3 C 13.6 g/m*3 18.3 C 0 km/h
1653 12-09-2008 01:54:05 18.3 C 13.45 g/m*3 18.3 C 0 km/h
1654 12-09-2008 01:59:05 18.3 C 13.45 g/m*3 18.3 C 0 km/h
1655 12-09-2008 02:04:05 18.2 C 13.37 g/m*3 18.2 C 0 km/h
1656 12-09-2008 02:09:05 18.3 C 13.45 g/m*3 18.3 C 0 km/h
1657 12-09-2008 02:14:06 18.2 C 13.37 g/m*3 18.2 C 0 km/h
1658 12-09-2008 02:19:06 18.3 C 13.45 g/m*3 18.3 C 0 km/h
1659 12-09-2008 02:24:06 18.3 C 13.45 g/m*3 18.3 C 0 km/h
1660 12-09-2008 02:29:06 18.3 C 13.45 g/m*3 18.3 C 0 km/h
1661 12-09-2008 02:34:06 18.3 C 13.45 g/m*3 18.3 C 0 km/h
1662 12-09-2008 02:39:06 18.3 C 13.45 g/m*3 18.3 C 0 km/h
1663 12-09-2008 02:44:06 18.3 C 13.45 g/m*3 18.3 C 0 km/h
1664 12-09-2008 02:49:06 18.3 C 13.45 g/m*3 18.3 C 0 km/h
1665 12-09-2008 02:54:06 18.3 C 13.45 g/m*3 18.3 C 0 km/h
1666 12-09-2008 02:59:06 18.3 C 13.45 g/m*3 18.3 C 0 km/h
1667 12-09-2008 03:04:06 18.3 C 13.45 g/m*3 18.3 C 0 km/h
1668 12-09-2008 03:09:06 18.2 C 13.37 g/m*3 18.2 C 0 km/h
1669 12-09-2008 03:14:06 18.1 C 13.44 g/m*3 18.1 C 0 km/h
1670 12-09-2008 03:19:06 18.1 C 13.44 g/m*3 18.1 C 0 km/h
1671 12-09-2008 03:24:06 18.1 C 13.44 g/m*3 18.1 C 0 km/h
1672 12-09-2008 03:29:06 18.2 C 13.52 g/m*3 18.2 C 0 km/h
1673 12-09-2008 03:34:06 18 C 13.36 g/m*3 18 C 0 km/h
1674 12-09-2008 03:39:06 17.9 C 13.44 g/m*3 17.9 C 0 km/h
1675 12-09-2008 03:44:06 17.9 C 13.59 g/m*3 17.9 C 0 km/h
Sensor: Nr:Datum:Temp:Abs-Feuchte:Windchill:Wind:
Aussen-T/F 1676 12-09-2008 03:49:07 17.8 C 13.51 g/m*3 17.8 C 0 km/h
1677 12-09-2008 03:54:07 17.8 C 13.51 g/m*3 17.8 C 0 km/h
1678 12-09-2008 03:59:07 17.8 C 13.51 g/m*3 17.8 C 0 km/h
1679 12-09-2008 04:04:07 17.9 C 13.59 g/m*3 17.9 C 0 km/h
1680 12-09-2008 04:09:07 17.9 C 13.59 g/m*3 17.9 C 0 km/h
1681 12-09-2008 04:14:07 17.9 C 13.59 g/m*3 17.9 C 0 km/h
1682 12-09-2008 04:19:07 17.8 C 13.51 g/m*3 17.8 C 0 km/h
1683 12-09-2008 04:24:07 17.8 C 13.51 g/m*3 17.8 C 0 km/h
1684 12-09-2008 04:29:07 17.8 C 13.51 g/m*3 17.8 C 0 km/h
1685 12-09-2008 04:34:07 17.8 C 13.51 g/m*3 17.8 C 0 km/h
1686 12-09-2008 04:39:07 17.8 C 13.51 g/m*3 17.8 C 0 km/h
1687 12-09-2008 04:44:07 17.7 C 13.43 g/m*3 17.7 C 0 km/h
1688 12-09-2008 04:49:07 17.7 C 13.43 g/m*3 17.7 C 0 km/h
1689 12-09-2008 04:54:07 17.7 C 13.43 g/m*3 17.7 C 0 km/h
1690 12-09-2008 04:59:07 17.7 C 13.58 g/m*3 17.7 C 0 km/h
1691 12-09-2008 05:04:07 17.7 C 13.58 g/m*3 17.7 C 0 km/h
1692 12-09-2008 05:09:07 17.7 C 13.58 g/m*3 17.7 C 0 km/h
1693 12-09-2008 05:14:07 17.7 C 13.58 g/m*3 17.7 C 0 km/h
1694 12-09-2008 05:19:07 17.5 C 13.27 g/m*3 17.5 C 0 km/h
1695 12-09-2008 05:24:07 17.5 C 13.27 g/m*3 17.5 C 0 km/h
1696 12-09-2008 05:29:08 17.5 C 13.42 g/m*3 17.5 C 0 km/h
1697 12-09-2008 05:34:08 17.4 C 13.19 g/m*3 17.4 C 0 km/h
1698 12-09-2008 05:39:08 17.4 C 13.19 g/m*3 17.4 C 0 km/h
1699 12-09-2008 05:44:08 17.4 C 13.19 g/m*3 17.4 C 0 km/h
1700 12-09-2008 05:49:08 17.4 C 13.34 g/m*3 17.4 C 0 km/h
Sensor: Nr:Datum:Temp:Abs-Feuchte:Windchill:Wind:
Aussen-T/F 1701 12-09-2008 05:54:08 17.2 C 13.03 g/m*3 17.2 C 0 km/h
1702 12-09-2008 05:59:08 17.2 C 13.03 g/m*3 17.2 C 0 km/h
1703 12-09-2008 06:04:08 17.3 C 13.26 g/m*3 17.3 C 0 km/h
1704 12-09-2008 06:09:08 17.5 C 13.42 g/m*3 17.5 C 0 km/h
1705 12-09-2008 06:14:08 17.5 C 13.42 g/m*3 17.5 C 0 km/h
1706 12-09-2008 06:19:08 17.4 C 13.34 g/m*3 17.4 C 0 km/h
1707 12-09-2008 06:24:08 17.4 C 13.34 g/m*3 17.4 C 0 km/h
1708 12-09-2008 06:29:08 17.5 C 13.42 g/m*3 17.5 C 0 km/h
1709 12-09-2008 06:34:08 17.4 C 13.34 g/m*3 17.4 C 0 km/h
1710 12-09-2008 06:39:08 17.2 C 13.18 g/m*3 17.2 C 0 km/h
1711 12-09-2008 06:44:08 17.2 C 13.18 g/m*3 17.2 C 0 km/h
1712 12-09-2008 06:49:08 17.2 C 13.03 g/m*3 17.2 C 0 km/h
1713 12-09-2008 06:54:08 17 C 12.88 g/m*3 17 C 0 km/h
1714 12-09-2008 06:59:08 16.9 C 12.94 g/m*3 16.9 C 0 km/h
1715 12-09-2008 07:04:02 16.9 C 12.94 g/m*3 16.9 C 0 km/h
1716 12-09-2008 07:09:02 16.9 C 12.94 g/m*3 16.9 C 0 km/h
1717 12-09-2008 07:14:02 17 C 12.88 g/m*3 17 C 0 km/h
1718 12-09-2008 07:19:03 17 C 12.88 g/m*3 17 C 0 km/h
1719 12-09-2008 07:24:03 16.9 C 12.94 g/m*3 16.9 C 0 km/h
1720 12-09-2008 07:29:03 16.9 C 12.94 g/m*3 16.9 C 0 km/h
1721 12-09-2008 07:34:02 17 C 12.88 g/m*3 17 C 0 km/h
1722 12-09-2008 07:39:02 16.8 C 12.87 g/m*3 16.8 C 0 km/h
1723 12-09-2008 07:44:02 16.9 C 12.8 g/m*3 16.9 C 0 km/h
1724 12-09-2008 07:49:01 16.8 C 12.87 g/m*3 16.8 C 0 km/h
1725 12-09-2008 07:54:01 16.8 C 12.87 g/m*3 16.8 C 0 km/h
Sensor: Nr:Datum:Temp:Abs-Feuchte:Windchill:Wind:
Aussen-T/F 1726 12-09-2008 07:59:01 16.9 C 12.94 g/m*3 16.9 C 0 km/h
1727 12-09-2008 08:04:02 16.9 C 12.94 g/m*3 16.9 C 0 km/h
1728 12-09-2008 08:09:02 16.9 C 12.94 g/m*3 16.9 C 0 km/h
1729 12-09-2008 08:14:02 17 C 12.88 g/m*3 17 C 0 km/h
1730 12-09-2008 08:19:01 17.1 C 12.96 g/m*3 17.1 C 0 km/h
1731 12-09-2008 08:24:01 17.1 C 12.96 g/m*3 17.1 C 0 km/h
1732 12-09-2008 08:29:01 17.1 C 12.81 g/m*3 17.1 C 0 km/h
1733 12-09-2008 08:34:02 17.2 C 12.89 g/m*3 17.2 C 0 km/h
1734 12-09-2008 08:39:02 17.3 C 12.96 g/m*3 17.3 C 0 km/h
1735 12-09-2008 08:44:02 17.5 C 13.12 g/m*3 17.5 C 0 km/h
1736 12-09-2008 08:49:02 17.4 C 12.89 g/m*3 17.4 C 0 km/h
1737 12-09-2008 08:54:02 17.5 C 12.97 g/m*3 17.5 C 0 km/h
1738 12-09-2008 08:59:02 17.4 C 12.89 g/m*3 17.4 C 0 km/h
1739 12-09-2008 09:04:02 17.2 C 12.74 g/m*3 17.2 C 0 km/h
1740 12-09-2008 09:09:02 17 C 12.73 g/m*3 17 C 0 km/h
1741 12-09-2008 09:14:02 16.9 C 12.8 g/m*3 16.9 C 0 km/h
1742 12-09-2008 09:19:02 16.9 C 12.8 g/m*3 16.9 C 0 km/h
1743 12-09-2008 09:24:02 17 C 12.88 g/m*3 17 C 0 km/h
1744 12-09-2008 09:29:02 17 C 12.88 g/m*3 17 C 0 km/h
1745 12-09-2008 09:34:02 16.9 C 12.94 g/m*3 16.9 C 0 km/h
1746 12-09-2008 09:39:02 16.8 C 12.87 g/m*3 16.8 C 0 km/h
1747 12-09-2008 09:44:02 16.9 C 13.09 g/m*3 16.9 C 0 km/h
1748 12-09-2008 09:49:02 17 C 13.02 g/m*3 17 C 0 km/h
1749 12-09-2008 09:54:02 17.3 C 13.41 g/m*3 17.3 C 0 km/h
1750 12-09-2008 09:59:02 17.5 C 13.57 g/m*3 17.5 C 0 km/h
Sensor: Nr:Datum:Temp:Abs-Feuchte:Windchill:Wind:
Aussen-T/F 1751 12-09-2008 10:04:01 17.5 C 13.57 g/m*3 17.5 C 0 km/h
1752 12-09-2008 10:09:01 17.3 C 13.26 g/m*3 17.3 C 0 km/h
1753 12-09-2008 10:14:01 17.3 C 13.26 g/m*3 17.3 C 0 km/h
1754 12-09-2008 10:19:02 17.4 C 13.34 g/m*3 17.4 C 0 km/h
1755 12-09-2008 10:24:02 17.7 C 13.73 g/m*3 17.7 C 0 km/h
1756 12-09-2008 10:29:02 17.6 C 13.65 g/m*3 17.6 C 0 km/h
1757 12-09-2008 10:34:01 17.5 C 13.57 g/m*3 17.5 C 0 km/h
1758 12-09-2008 10:39:01 17.6 C 13.65 g/m*3 17.6 C 0 km/h
1759 12-09-2008 10:44:01 17.6 C 13.65 g/m*3 17.6 C 0 km/h
1760 12-09-2008 10:49:01 17.6 C 13.65 g/m*3 17.6 C 0 km/h
1761 12-09-2008 10:54:01 17.7 C 13.73 g/m*3 17.7 C 0 km/h
1762 12-09-2008 10:59:01 17.7 C 13.73 g/m*3 17.7 C 0 km/h
1763 12-09-2008 11:04:02 17.7 C 13.73 g/m*3 17.7 C 0 km/h
1764 12-09-2008 11:09:02 17.6 C 13.65 g/m*3 17.6 C 0 km/h
1765 12-09-2008 11:14:02 17.5 C 13.57 g/m*3 17.5 C 0 km/h
1766 12-09-2008 11:19:01 17.6 C 13.65 g/m*3 17.6 C 0 km/h
1767 12-09-2008 11:24:01 17.6 C 13.65 g/m*3 17.6 C 0 km/h
1768 12-09-2008 11:29:01 17.7 C 13.73 g/m*3 17.7 C 0 km/h
1769 12-09-2008 11:34:02 17.6 C 13.65 g/m*3 17.6 C 0 km/h
1770 12-09-2008 11:39:02 17.6 C 13.8 g/m*3 17.6 C 0 km/h
1771 12-09-2008 11:44:02 17.7 C 13.88 g/m*3 17.7 C 0 km/h
1772 12-09-2008 11:49:02 17.7 C 13.88 g/m*3 17.7 C 0 km/h
1773 12-09-2008 11:54:02 17.7 C 13.88 g/m*3 17.7 C 0 km/h
1774 12-09-2008 11:59:02 17.7 C 13.88 g/m*3 17.7 C 0 km/h
1775 12-09-2008 12:04:02 17.7 C 13.88 g/m*3 17.7 C 0 km/h
Sensor: Nr:Datum:Temp:Abs-Feuchte:Windchill:Wind:
Aussen-T/F 1776 12-09-2008 12:09:02 17.9 C 14.05 g/m*3 17.9 C 0 km/h
1777 12-09-2008 12:14:02 17.9 C 14.05 g/m*3 17.9 C 0 km/h
1778 12-09-2008 12:19:02 17.7 C 13.88 g/m*3 17.7 C 0 km/h
1779 12-09-2008 12:24:02 17.7 C 13.88 g/m*3 17.7 C 0 km/h
1780 12-09-2008 12:29:02 17.7 C 13.88 g/m*3 17.7 C 0 km/h
1781 12-09-2008 12:34:02 17.8 C 13.96 g/m*3 17.8 C 0 km/h
1782 12-09-2008 12:39:02 17.9 C 14.05 g/m*3 17.9 C 0 km/h
1783 12-09-2008 12:44:02 17.9 C 14.05 g/m*3 17.9 C 0 km/h
1784 12-09-2008 12:49:02 18 C 13.98 g/m*3 18 C 0 km/h
1785 12-09-2008 12:54:02 18 C 13.98 g/m*3 18 C 0 km/h
1786 12-09-2008 12:59:02 18 C 13.98 g/m*3 18 C 0 km/h
1787 12-09-2008 13:04:02 17.9 C 14.05 g/m*3 17.9 C 0 km/h
1788 12-09-2008 13:09:02 18 C 13.98 g/m*3 18 C 0 km/h
1789 12-09-2008 13:14:02 18.1 C 14.06 g/m*3 18.1 C 0 km/h
1790 12-09-2008 13:19:02 18.1 C 14.06 g/m*3 18.1 C 0 km/h
1791 12-09-2008 13:24:02 18.1 C 14.06 g/m*3 18.1 C 0 km/h
1792 12-09-2008 13:29:02 18 C 13.98 g/m*3 18 C 0 km/h
1793 12-09-2008 13:34:02 17.9 C 14.05 g/m*3 17.9 C 0 km/h
1794 12-09-2008 13:39:02 17.9 C 14.05 g/m*3 17.9 C 0 km/h
1795 12-09-2008 13:44:02 17.9 C 14.05 g/m*3 17.9 C 0 km/h
1796 12-09-2008 13:49:02 18 C 13.98 g/m*3 18 C 0 km/h
1797 12-09-2008 13:54:02 18.1 C 14.21 g/m*3 18.1 C 0 km/h
1798 12-09-2008 13:59:02 18.2 C 14.3 g/m*3 18.2 C 0 km/h
1799 12-09-2008 14:04:02 18.1 C 14.21 g/m*3 18.1 C 0 km/h
1800 12-09-2008 14:09:02 18.2 C 14.3 g/m*3 18.2 C 0 km/h
Sensor: Nr:Datum:Temp:Abs-Feuchte:Windchill:Wind:
Aussen-T/F 1801 12-09-2008 14:14:02 18.2 C 14.3 g/m*3 18.2 C 0 km/h
1802 12-09-2008 14:19:02 18.1 C 14.21 g/m*3 18.1 C 0 km/h
1803 12-09-2008 14:24:02 17.9 C 14.2 g/m*3 17.9 C 0 km/h
1804 12-09-2008 14:29:02 17.4 C 13.63 g/m*3 17.4 C 0 km/h
1805 12-09-2008 14:34:02 17 C 13.17 g/m*3 17 C 0 km/h
1806 12-09-2008 14:39:03 17 C 13.17 g/m*3 17 C 0 km/h
1807 12-09-2008 14:44:03 16.8 C 13.15 g/m*3 16.8 C 0 km/h
1808 12-09-2008 14:49:02 16.7 C 13.07 g/m*3 16.7 C 0 km/h
1809 12-09-2008 14:54:02 16.7 C 13.07 g/m*3 16.7 C 0 km/h
1810 12-09-2008 14:59:02 16.6 C 13 g/m*3 16.6 C 0 km/h
1811 12-09-2008 15:04:03 16.4 C 12.84 g/m*3 16.4 C 0 km/h
1812 12-09-2008 15:09:03 16.2 C 12.69 g/m*3 16.2 C 0 km/h
1813 12-09-2008 15:14:03 16.1 C 12.61 g/m*3 16.1 C 0 km/h
1814 12-09-2008 15:19:02 15.8 C 12.38 g/m*3 15.8 C 0 km/h
1815 12-09-2008 15:24:03 15.7 C 12.31 g/m*3 15.7 C 0 km/h
1816 12-09-2008 15:29:03 15.7 C 12.31 g/m*3 15.7 C 0 km/h
1817 12-09-2008 15:34:02 15.7 C 12.31 g/m*3 15.7 C 0 km/h
1818 12-09-2008 15:39:02 15.8 C 12.52 g/m*3 15.8 C 0 km/h
1819 12-09-2008 15:44:02 15.8 C 12.52 g/m*3 15.8 C 0 km/h
1820 12-09-2008 15:49:03 15.8 C 12.52 g/m*3 15.8 C 0 km/h
1821 12-09-2008 15:54:03 15.9 C 12.59 g/m*3 15.9 C 0 km/h
1822 12-09-2008 15:59:03 15.8 C 12.52 g/m*3 15.8 C 0 km/h
1823 12-09-2008 16:04:02 15.8 C 12.52 g/m*3 15.8 C 0 km/h
1824 12-09-2008 16:09:02 15.8 C 12.52 g/m*3 15.8 C 0 km/h
1825 12-09-2008 16:14:02 15.7 C 12.44 g/m*3 15.7 C 0 km/h
Sensor: Nr:Datum:Temp:Abs-Feuchte:Windchill:Wind:
Aussen-T/F 1826 12-09-2008 16:19:02 15.8 C 12.52 g/m*3 15.8 C 0 km/h
1827 12-09-2008 16:24:02 15.8 C 12.52 g/m*3 15.8 C 0 km/h
1828 12-09-2008 16:29:02 15.8 C 12.52 g/m*3 15.8 C 0 km/h
1829 12-09-2008 16:34:02 15.8 C 12.52 g/m*3 15.8 C 0 km/h
1830 12-09-2008 16:39:03 15.8 C 12.65 g/m*3 15.8 C 0 km/h
1831 12-09-2008 16:44:03 15.8 C 12.65 g/m*3 15.8 C 0 km/h
1832 12-09-2008 16:49:01 15.9 C 12.73 g/m*3 15.9 C 0 km/h
1833 12-09-2008 16:54:01 15.8 C 12.65 g/m*3 15.8 C 0 km/h
1834 12-09-2008 16:59:01 15.6 C 12.5 g/m*3 15.6 C 0 km/h
1835 12-09-2008 17:04:02 15.6 C 12.5 g/m*3 15.6 C 0 km/h
1836 12-09-2008 17:09:02 15.7 C 12.58 g/m*3 15.7 C 0 km/h
1837 12-09-2008 17:14:02 15.7 C 12.58 g/m*3 15.7 C 0 km/h
1838 12-09-2008 17:19:01 15.7 C 12.58 g/m*3 15.7 C 0 km/h
1839 12-09-2008 17:24:01 15.7 C 12.58 g/m*3 15.7 C 0 km/h
1840 12-09-2008 17:29:01 15.7 C 12.58 g/m*3 15.7 C 0 km/h
1841 12-09-2008 17:34:01 15.8 C 12.65 g/m*3 15.8 C 0 km/h
1842 12-09-2008 17:39:01 15.7 C 12.58 g/m*3 15.7 C 0 km/h
1843 12-09-2008 17:44:01 15.7 C 12.58 g/m*3 15.7 C 0 km/h
1844 12-09-2008 17:49:03 15.5 C 12.43 g/m*3 15.5 C 0 km/h
1845 12-09-2008 17:54:03 15.5 C 12.43 g/m*3 15.5 C 0 km/h
1846 12-09-2008 17:59:03 15.5 C 12.43 g/m*3 15.5 C 0 km/h
1847 12-09-2008 18:04:02 15.6 C 12.5 g/m*3 15.6 C 0 km/h
1848 12-09-2008 18:09:02 15.6 C 12.5 g/m*3 15.6 C 0 km/h
1849 12-09-2008 18:14:02 15.6 C 12.5 g/m*3 15.6 C 0 km/h
1850 12-09-2008 18:19:03 15.6 C 12.5 g/m*3 15.6 C 0 km/h
Sensor: Nr:Datum:Temp:Abs-Feuchte:Windchill:Wind:
Aussen-T/F 1851 12-09-2008 18:24:03 15.6 C 12.5 g/m*3 15.6 C 0 km/h
1852 12-09-2008 18:29:03 15.6 C 12.5 g/m*3 15.6 C 0 km/h
1853 12-09-2008 18:34:02 15.6 C 12.5 g/m*3 15.6 C 0 km/h
1854 12-09-2008 18:39:02 15.5 C 12.43 g/m*3 15.5 C 0 km/h
1855 12-09-2008 18:44:02 15.4 C 12.35 g/m*3 15.4 C 0 km/h
1856 12-09-2008 18:49:01 15.4 C 12.35 g/m*3 15.4 C 0 km/h
1857 12-09-2008 18:54:01 15.4 C 12.35 g/m*3 15.4 C 0 km/h
1858 12-09-2008 18:59:01 15.3 C 12.28 g/m*3 15.3 C 0 km/h
1859 12-09-2008 19:04:02 15.3 C 12.28 g/m*3 15.3 C 0 km/h
1860 12-09-2008 19:09:02 15.2 C 12.2 g/m*3 15.2 C 0 km/h
1861 12-09-2008 19:14:02 15.2 C 12.2 g/m*3 15.2 C 0 km/h
1862 12-09-2008 19:19:01 15.2 C 12.2 g/m*3 15.2 C 0 km/h
1863 12-09-2008 19:24:01 15.2 C 12.2 g/m*3 15.2 C 0 km/h
1864 12-09-2008 19:29:01 15.2 C 12.2 g/m*3 15.2 C 0 km/h
1865 12-09-2008 19:34:02 15.2 C 12.2 g/m*3 15.2 C 0 km/h
1866 12-09-2008 19:39:02 15.1 C 12.13 g/m*3 15.1 C 0 km/h
1867 12-09-2008 19:44:02 15 C 12.05 g/m*3 15 C 0 km/h
1868 12-09-2008 19:49:03 14.9 C 12.11 g/m*3 14.9 C 0 km/h
1869 12-09-2008 19:54:03 14.9 C 12.11 g/m*3 14.9 C 0 km/h
1870 12-09-2008 19:59:03 14.9 C 12.11 g/m*3 14.9 C 0 km/h
1871 12-09-2008 20:04:02 15 C 12.05 g/m*3 15 C 0 km/h
1872 12-09-2008 20:09:02 14.8 C 12.03 g/m*3 14.8 C 0 km/h
1873 12-09-2008 20:14:02 14.8 C 12.03 g/m*3 14.8 C 0 km/h
1874 12-09-2008 20:19:03 15 C 12.05 g/m*3 15 C 0 km/h
1875 12-09-2008 20:24:03 15 C 12.05 g/m*3 15 C 0 km/h
Sensor: Nr:Datum:Temp:Abs-Feuchte:Windchill:Wind:
Aussen-T/F 1876 12-09-2008 20:29:03 15 C 12.05 g/m*3 15 C 0 km/h
1877 12-09-2008 20:34:02 14.8 C 11.91 g/m*3 14.8 C 0 km/h
1878 12-09-2008 20:39:02 14.8 C 11.91 g/m*3 14.8 C 0 km/h
1879 12-09-2008 20:44:02 14.8 C 11.91 g/m*3 14.8 C 0 km/h
1880 12-09-2008 20:49:01 14.8 C 11.91 g/m*3 14.8 C 0 km/h
1881 12-09-2008 20:54:01 14.8 C 11.91 g/m*3 14.8 C 0 km/h
1882 12-09-2008 20:59:01 14.7 C 11.83 g/m*3 14.7 C 0 km/h
1883 12-09-2008 21:04:02 14.6 C 11.64 g/m*3 14.6 C 0 km/h
1884 12-09-2008 21:09:02 14.7 C 11.71 g/m*3 14.7 C 0 km/h
1885 12-09-2008 21:14:02 14.6 C 11.64 g/m*3 14.6 C 0 km/h
1886 12-09-2008 21:19:01 14.6 C 11.64 g/m*3 14.6 C 0 km/h
1887 12-09-2008 21:24:01 14.6 C 11.64 g/m*3 14.6 C 0 km/h
1888 12-09-2008 21:29:01 14.6 C 11.64 g/m*3 14.6 C 0 km/h
1889 12-09-2008 21:34:02 14.6 C 11.64 g/m*3 14.6 C 0 km/h
1890 12-09-2008 21:39:02 14.5 C 11.57 g/m*3 14.5 C 0 km/h
1891 12-09-2008 21:44:02 14.5 C 11.57 g/m*3 14.5 C 0 km/h
1892 12-09-2008 21:49:02 14.5 C 11.57 g/m*3 14.5 C 0 km/h
1893 12-09-2008 21:54:02 14.5 C 11.57 g/m*3 14.5 C 0 km/h
1894 12-09-2008 21:59:02 14.4 C 11.5 g/m*3 14.4 C 0 km/h
1895 12-09-2008 22:04:02 14.4 C 11.5 g/m*3 14.4 C 0 km/h
1896 12-09-2008 22:09:02 14.4 C 11.5 g/m*3 14.4 C 0 km/h
1897 12-09-2008 22:14:02 14.4 C 11.5 g/m*3 14.4 C 0 km/h
1898 12-09-2008 22:19:02 14.4 C 11.5 g/m*3 14.4 C 0 km/h
1899 12-09-2008 22:24:02 14.4 C 11.5 g/m*3 14.4 C 0 km/h
1900 12-09-2008 22:29:02 14.4 C 11.5 g/m*3 14.4 C 0 km/h
Sensor: Nr:Datum:Temp:Abs-Feuchte:Windchill:Wind:
Aussen-T/F 1901 12-09-2008 22:34:02 14.4 C 11.5 g/m*3 14.4 C 0 km/h
1902 12-09-2008 22:39:02 14.3 C 11.3 g/m*3 14.3 C 0 km/h
1903 12-09-2008 22:44:02 14.3 C 11.43 g/m*3 14.3 C 0 km/h
1904 12-09-2008 22:49:02 14.2 C 11.23 g/m*3 14.2 C 0 km/h
1905 12-09-2008 22:54:02 14.2 C 11.23 g/m*3 14.2 C 0 km/h
1906 12-09-2008 22:59:02 14.2 C 11.23 g/m*3 14.2 C 0 km/h
1907 12-09-2008 23:04:02 14.2 C 11.23 g/m*3 14.2 C 0 km/h
1908 12-09-2008 23:09:02 14.2 C 11.23 g/m*3 14.2 C 0 km/h
1909 12-09-2008 23:14:02 14.2 C 11.23 g/m*3 14.2 C 0 km/h
1910 12-09-2008 23:19:02 14.2 C 11.23 g/m*3 14.2 C 0 km/h
1911 12-09-2008 23:24:02 14.2 C 11.23 g/m*3 14.2 C 0 km/h
1912 12-09-2008 23:29:02 14.2 C 11.23 g/m*3 14.2 C 0 km/h
1913 12-09-2008 23:34:02 14.2 C 11.23 g/m*3 14.2 C 0 km/h
1914 12-09-2008 23:39:02 14.1 C 11.17 g/m*3 14.1 C 0 km/h
1915 12-09-2008 23:44:02 14.1 C 11.17 g/m*3 14.1 C 0 km/h
1916 12-09-2008 23:49:02 14.2 C 11.23 g/m*3 14.2 C 0 km/h
1917 12-09-2008 23:54:02 14.2 C 11.23 g/m*3 14.2 C 0 km/h
1918 12-09-2008 23:59:03 14.2 C 11.23 g/m*3 14.2 C 0 km/h
1919 13-09-2008 00:04:01 14.1 C 11.04 g/m*3 14.1 C 0 km/h
1920 13-09-2008 00:09:01 14.1 C 11.04 g/m*3 14.1 C 0 km/h
1921 13-09-2008 00:14:01 14.1 C 11.04 g/m*3 14.1 C 0 km/h
1922 13-09-2008 00:19:02 14.2 C 11.11 g/m*3 14.2 C 0 km/h
1923 13-09-2008 00:24:02 14.1 C 11.04 g/m*3 14.1 C 0 km/h
1924 13-09-2008 00:29:02 14.1 C 11.04 g/m*3 14.1 C 0 km/h
1925 13-09-2008 00:34:02 14.1 C 11.04 g/m*3 14.1 C 0 km/h
Sensor: Nr:Datum:Temp:Abs-Feuchte:Windchill:Wind:
Aussen-T/F 1926 13-09-2008 00:39:02 14.1 C 11.04 g/m*3 14.1 C 0 km/h
1927 13-09-2008 00:44:02 14.1 C 11.04 g/m*3 14.1 C 0 km/h
1928 13-09-2008 00:49:02 14.1 C 11.04 g/m*3 14.1 C 0 km/h
1929 13-09-2008 00:54:02 14.1 C 11.04 g/m*3 14.1 C 0 km/h
1930 13-09-2008 00:59:02 14.1 C 11.04 g/m*3 14.1 C 0 km/h
1931 13-09-2008 01:04:01 14.1 C 11.04 g/m*3 14.1 C 0 km/h
1932 13-09-2008 01:09:01 14.1 C 11.04 g/m*3 14.1 C 0 km/h
1933 13-09-2008 01:14:01 14.1 C 11.04 g/m*3 14.1 C 0 km/h
1934 13-09-2008 01:19:02 14.1 C 11.04 g/m*3 14.1 C 0 km/h
1935 13-09-2008 01:24:02 14.1 C 11.04 g/m*3 14.1 C 0 km/h
1936 13-09-2008 01:29:02 14.2 C 11.11 g/m*3 14.2 C 0 km/h
1937 13-09-2008 01:34:01 14.2 C 11.11 g/m*3 14.2 C 0 km/h
1938 13-09-2008 01:39:01 14.2 C 11.11 g/m*3 14.2 C 0 km/h
1939 13-09-2008 01:44:01 14.1 C 11.04 g/m*3 14.1 C 0 km/h
1940 13-09-2008 01:49:01 14.1 C 11.04 g/m*3 14.1 C 0 km/h
1941 13-09-2008 01:54:01 14.1 C 10.92 g/m*3 14.1 C 0 km/h
1942 13-09-2008 01:59:01 14 C 10.86 g/m*3 14 C 0 km/h
1943 13-09-2008 02:04:02 13.9 C 10.91 g/m*3 13.9 C 0 km/h
1944 13-09-2008 02:09:02 13.9 C 10.91 g/m*3 13.9 C 0 km/h
1945 13-09-2008 02:14:02 13.9 C 10.91 g/m*3 13.9 C 0 km/h
1946 13-09-2008 02:19:01 13.8 C 10.84 g/m*3 13.8 C 0 km/h
1947 13-09-2008 02:24:01 13.9 C 10.91 g/m*3 13.9 C 0 km/h
1948 13-09-2008 02:29:01 13.9 C 11.03 g/m*3 13.9 C 0 km/h
1949 13-09-2008 02:34:02 13.8 C 10.96 g/m*3 13.8 C 0 km/h
1950 13-09-2008 02:39:02 13.8 C 10.96 g/m*3 13.8 C 0 km/h
Sensor: Nr:Datum:Temp:Abs-Feuchte:Windchill:Wind:
Aussen-T/F 1951 13-09-2008 02:44:02 13.8 C 10.96 g/m*3 13.8 C 0 km/h
1952 13-09-2008 02:50:04 13.7 C 11.01 g/m*3 13.7 C 0 km/h
1953 13-09-2008 02:55:05 13.7 C 11.01 g/m*3 13.7 C 0 km/h
1954 13-09-2008 03:00:05 13.7 C 11.01 g/m*3 13.7 C 0 km/h
1955 13-09-2008 03:05:05 13.7 C 11.01 g/m*3 13.7 C 0 km/h
1956 13-09-2008 03:10:03 13.7 C 11.01 g/m*3 13.7 C 0 km/h
1957 13-09-2008 03:15:03 13.7 C 11.01 g/m*3 13.7 C 0 km/h
1958 13-09-2008 03:20:03 13.7 C 11.13 g/m*3 13.7 C 0 km/h
1959 13-09-2008 03:25:03 13.7 C 11.13 g/m*3 13.7 C 0 km/h
1960 13-09-2008 03:30:03 13.7 C 11.13 g/m*3 13.7 C 0 km/h
1961 13-09-2008 03:35:01 13.7 C 11.13 g/m*3 13.7 C 0 km/h
1962 13-09-2008 03:40:01 13.7 C 11.13 g/m*3 13.7 C 0 km/h
1963 13-09-2008 03:45:01 13.7 C 11.13 g/m*3 13.7 C 0 km/h
1964 13-09-2008 03:50:01 13.7 C 11.13 g/m*3 13.7 C 0 km/h
1965 13-09-2008 03:55:01 13.6 C 11.06 g/m*3 13.6 C 0 km/h
1966 13-09-2008 04:00:01 13.7 C 11.13 g/m*3 13.7 C 0 km/h
1967 13-09-2008 04:05:02 13.6 C 11.06 g/m*3 13.6 C 0 km/h
1968 13-09-2008 04:10:02 13.7 C 11.13 g/m*3 13.7 C 0 km/h
1969 13-09-2008 04:15:02 13.7 C 11.13 g/m*3 13.7 C 0 km/h
1970 13-09-2008 04:20:02 13.7 C 11.13 g/m*3 13.7 C 0 km/h
1971 13-09-2008 04:25:02 13.8 C 11.2 g/m*3 13.8 C 0 km/h
1972 13-09-2008 04:30:02 13.8 C 11.2 g/m*3 13.8 C 0 km/h
1973 13-09-2008 04:35:02 13.9 C 11.27 g/m*3 13.9 C 0 km/h
1974 13-09-2008 04:40:02 13.9 C 11.27 g/m*3 13.9 C 0 km/h
1975 13-09-2008 04:45:02 13.9 C 11.27 g/m*3 13.9 C 0 km/h
Sensor: Nr:Datum:Temp:Abs-Feuchte:Windchill:Wind:
Aussen-T/F 1976 13-09-2008 04:50:02 14 C 11.34 g/m*3 14 C 0 km/h
1977 13-09-2008 04:55:02 13.9 C 11.27 g/m*3 13.9 C 0 km/h
1978 13-09-2008 05:00:02 13.9 C 11.27 g/m*3 13.9 C 0 km/h
1979 13-09-2008 05:05:01 13.9 C 11.27 g/m*3 13.9 C 0 km/h
1980 13-09-2008 05:10:01 13.8 C 11.2 g/m*3 13.8 C 0 km/h
1981 13-09-2008 05:15:02 13.8 C 11.2 g/m*3 13.8 C 0 km/h
1982 13-09-2008 05:20:02 13.9 C 11.27 g/m*3 13.9 C 0 km/h
1983 13-09-2008 05:25:02 13.7 C 11.13 g/m*3 13.7 C 0 km/h
1984 13-09-2008 05:30:02 13.7 C 11.13 g/m*3 13.7 C 0 km/h
1985 13-09-2008 05:35:01 13.6 C 11.06 g/m*3 13.6 C 0 km/h
1986 13-09-2008 05:40:01 13.6 C 11.06 g/m*3 13.6 C 0 km/h
1987 13-09-2008 05:45:02 13.6 C 10.95 g/m*3 13.6 C 0 km/h
1988 13-09-2008 05:50:02 13.6 C 10.95 g/m*3 13.6 C 0 km/h
1989 13-09-2008 05:55:02 13.6 C 10.95 g/m*3 13.6 C 0 km/h
1990 13-09-2008 06:00:02 13.6 C 10.95 g/m*3 13.6 C 0 km/h
1991 13-09-2008 06:05:01 13.5 C 10.88 g/m*3 13.5 C 0 km/h
1992 13-09-2008 06:10:01 13.5 C 10.88 g/m*3 13.5 C 0 km/h
1993 13-09-2008 06:15:01 13.5 C 10.88 g/m*3 13.5 C 0 km/h
1994 13-09-2008 06:20:01 13.5 C 10.88 g/m*3 13.5 C 0 km/h
1995 13-09-2008 06:25:01 13.6 C 10.95 g/m*3 13.6 C 0 km/h
1996 13-09-2008 06:30:01 13.5 C 10.88 g/m*3 13.5 C 0 km/h
1997 13-09-2008 06:35:01 13.5 C 10.99 g/m*3 13.5 C 0 km/h
1998 13-09-2008 06:40:02 13.6 C 11.06 g/m*3 13.6 C 0 km/h
1999 13-09-2008 06:45:02 13.5 C 10.99 g/m*3 13.5 C 0 km/h
2000 13-09-2008 06:50:02 13.6 C 11.06 g/m*3 13.6 C 0 km/h
Sensor: Nr:Datum:Temp:Abs-Feuchte:Windchill:Wind:
Aussen-T/F 2001 13-09-2008 06:55:02 13.5 C 10.99 g/m*3 13.5 C 0 km/h
2002 13-09-2008 07:00:02 13.6 C 11.06 g/m*3 13.6 C 0 km/h
2003 13-09-2008 07:05:01 13.5 C 10.99 g/m*3 13.5 C 0 km/h
2004 13-09-2008 07:10:01 13.5 C 10.99 g/m*3 13.5 C 0 km/h
2005 13-09-2008 07:15:02 13.5 C 10.99 g/m*3 13.5 C 0 km/h
2006 13-09-2008 07:20:02 13.5 C 11.11 g/m*3 13.5 C 0 km/h
2007 13-09-2008 07:25:02 13.5 C 11.11 g/m*3 13.5 C 0 km/h
2008 13-09-2008 07:30:03 13.5 C 11.11 g/m*3 13.5 C 0 km/h
2009 13-09-2008 07:35:01 13.6 C 11.18 g/m*3 13.6 C 0 km/h
2010 13-09-2008 07:40:01 13.6 C 11.18 g/m*3 13.6 C 0 km/h
2011 13-09-2008 07:45:02 13.6 C 11.18 g/m*3 13.6 C 0 km/h
2012 13-09-2008 07:50:02 13.7 C 11.25 g/m*3 13.7 C 0 km/h
2013 13-09-2008 07:55:02 13.7 C 11.25 g/m*3 13.7 C 0 km/h
2014 13-09-2008 08:00:02 13.7 C 11.25 g/m*3 13.7 C 0 km/h
2015 13-09-2008 08:05:01 13.7 C 11.25 g/m*3 13.7 C 0 km/h
2016 13-09-2008 08:10:01 13.7 C 11.25 g/m*3 13.7 C 0 km/h
2017 13-09-2008 08:15:01 13.7 C 11.25 g/m*3 13.7 C 0 km/h
2018 13-09-2008 08:20:01 13.8 C 11.32 g/m*3 13.8 C 0 km/h
2019 13-09-2008 08:25:01 13.8 C 11.32 g/m*3 13.8 C 0 km/h
2020 13-09-2008 08:30:01 13.7 C 11.25 g/m*3 13.7 C 0 km/h
2021 13-09-2008 08:35:01 13.6 C 11.18 g/m*3 13.6 C 0 km/h
2022 13-09-2008 08:40:01 13.5 C 11.11 g/m*3 13.5 C 0 km/h
2023 13-09-2008 08:45:01 13.4 C 11.04 g/m*3 13.4 C 0 km/h
2024 13-09-2008 08:50:01 13.4 C 11.04 g/m*3 13.4 C 0 km/h
2025 13-09-2008 08:55:01 13.4 C 11.04 g/m*3 13.4 C 0 km/h
Sensor: Nr:Datum:Temp:Abs-Feuchte:Windchill:Wind:
Aussen-T/F 2026 13-09-2008 09:00:01 13.4 C 11.04 g/m*3 13.4 C 0 km/h
2027 13-09-2008 09:05:02 13.4 C 11.04 g/m*3 13.4 C 0 km/h
2028 13-09-2008 09:10:02 13.4 C 11.04 g/m*3 13.4 C 0 km/h
2029 13-09-2008 09:15:01 13.3 C 10.98 g/m*3 13.3 C 0 km/h
2030 13-09-2008 09:20:01 13.3 C 10.98 g/m*3 13.3 C 0 km/h
2031 13-09-2008 09:25:01 13.1 C 10.84 g/m*3 13.1 C 0 km/h
2032 13-09-2008 09:30:01 13.1 C 10.84 g/m*3 13.1 C 0 km/h
2033 13-09-2008 09:35:01 13.1 C 10.84 g/m*3 13.1 C 0 km/h
2034 13-09-2008 09:40:01 13 C 10.77 g/m*3 13 C 0 km/h
2035 13-09-2008 09:45:02 13 C 10.77 g/m*3 13 C 0 km/h
2036 13-09-2008 09:50:02 13 C 10.77 g/m*3 13 C 0 km/h
2037 13-09-2008 09:55:02 13 C 10.77 g/m*3 13 C 0 km/h
2038 13-09-2008 10:00:02 12.9 C 10.71 g/m*3 12.9 C 0 km/h
2039 13-09-2008 10:05:02 13 C 10.77 g/m*3 13 C 0 km/h
2040 13-09-2008 10:10:02 13 C 10.77 g/m*3 13 C 0 km/h
2041 13-09-2008 10:15:02 13.1 C 10.84 g/m*3 13.1 C 0 km/h
2042 13-09-2008 10:20:02 13.1 C 10.84 g/m*3 13.1 C 0 km/h
2043 13-09-2008 10:25:02 13.1 C 10.84 g/m*3 13.1 C 0 km/h
2044 13-09-2008 10:30:02 13.1 C 10.84 g/m*3 13.1 C 0 km/h
2045 13-09-2008 10:35:02 13 C 10.77 g/m*3 13 C 0 km/h
2046 13-09-2008 10:40:02 12.9 C 10.71 g/m*3 12.9 C 0 km/h
2047 13-09-2008 10:45:02 12.8 C 10.64 g/m*3 12.8 C 0 km/h
2048 13-09-2008 10:50:02 12.8 C 10.64 g/m*3 12.8 C 0 km/h
2049 13-09-2008 10:55:02 12.8 C 10.64 g/m*3 12.8 C 0 km/h
2050 13-09-2008 11:00:02 12.7 C 10.58 g/m*3 12.7 C 0 km/h
Sensor: Nr:Datum:Temp:Abs-Feuchte:Windchill:Wind:
Aussen-T/F 2051 13-09-2008 11:05:02 12.5 C 10.44 g/m*3 12.5 C 0 km/h
2052 13-09-2008 11:10:02 12.5 C 10.44 g/m*3 12.5 C 0 km/h
2053 13-09-2008 11:15:02 12.5 C 10.44 g/m*3 12.5 C 0 km/h
2054 13-09-2008 11:20:02 12.5 C 10.44 g/m*3 12.5 C 0 km/h
2055 13-09-2008 11:25:02 12.5 C 10.44 g/m*3 12.5 C 0 km/h
2056 13-09-2008 11:30:02 12.3 C 10.32 g/m*3 12.3 C 0 km/h
2057 13-09-2008 11:35:02 12.3 C 10.32 g/m*3 12.3 C 0 km/h
2058 13-09-2008 11:40:02 12.4 C 10.38 g/m*3 12.4 C 0 km/h
2059 13-09-2008 11:45:02 12.2 C 10.25 g/m*3 12.2 C 0 km/h
2060 13-09-2008 11:50:02 12.2 C 10.25 g/m*3 12.2 C 0 km/h
2061 13-09-2008 11:55:02 12.2 C 10.25 g/m*3 12.2 C 0 km/h
2062 13-09-2008 12:00:02 12.3 C 10.32 g/m*3 12.3 C 0 km/h
2063 13-09-2008 12:05:01 12.3 C 10.32 g/m*3 12.3 C 0 km/h
2064 13-09-2008 12:10:01 12.2 C 10.25 g/m*3 12.2 C 0 km/h
2065 13-09-2008 12:15:02 12.2 C 10.25 g/m*3 12.2 C 0 km/h
2066 13-09-2008 12:20:02 12.2 C 10.25 g/m*3 12.2 C 0 km/h
2067 13-09-2008 12:25:02 12.2 C 10.25 g/m*3 12.2 C 0 km/h
2068 13-09-2008 12:30:02 12.1 C 10.19 g/m*3 12.1 C 0 km/h
2069 13-09-2008 12:35:01 12 C 10.12 g/m*3 12 C 0 km/h
2070 13-09-2008 12:40:01 12 C 10.12 g/m*3 12 C 0 km/h
2071 13-09-2008 12:45:01 11.9 C 10.06 g/m*3 11.9 C 0 km/h
2072 13-09-2008 12:50:01 11.9 C 10.06 g/m*3 11.9 C 0 km/h
2073 13-09-2008 12:55:01 11.9 C 10.06 g/m*3 11.9 C 0 km/h
2074 13-09-2008 13:00:01 12 C 10.12 g/m*3 12 C 0 km/h
2075 13-09-2008 13:05:02 11.9 C 10.06 g/m*3 11.9 C 0 km/h
Sensor: Nr:Datum:Temp:Abs-Feuchte:Windchill:Wind:
Aussen-T/F 2076 13-09-2008 13:10:02 11.9 C 10.06 g/m*3 11.9 C 0 km/h
2077 13-09-2008 13:15:01 11.9 C 10.06 g/m*3 11.9 C 0 km/h
2078 13-09-2008 13:20:01 11.9 C 10.06 g/m*3 11.9 C 0 km/h
2079 13-09-2008 13:25:01 12 C 10.02 g/m*3 12 C 0 km/h
2080 13-09-2008 13:30:01 12 C 10.02 g/m*3 12 C 0 km/h
2081 13-09-2008 13:35:02 11.7 C 9.94 g/m*3 11.7 C 0 km/h
2082 13-09-2008 13:40:02 11.7 C 9.94 g/m*3 11.7 C 0 km/h
2083 13-09-2008 13:45:02 11.7 C 9.94 g/m*3 11.7 C 0 km/h
2084 13-09-2008 13:50:02 11.7 C 9.94 g/m*3 11.7 C 0 km/h
2085 13-09-2008 13:55:03 11.6 C 9.77 g/m*3 11.6 C 0 km/h
2086 13-09-2008 14:00:03 11.6 C 9.77 g/m*3 11.6 C 0 km/h
2087 13-09-2008 14:05:02 11.8 C 9.89 g/m*3 11.8 C 0 km/h
2088 13-09-2008 14:10:02 11.9 C 9.96 g/m*3 11.9 C 0 km/h
2089 13-09-2008 14:15:02 11.9 C 9.96 g/m*3 11.9 C 0 km/h
2090 13-09-2008 14:20:02 12 C 10.02 g/m*3 12 C 0 km/h
2091 13-09-2008 14:25:02 12.1 C 10.08 g/m*3 12.1 C 0 km/h
2092 13-09-2008 14:30:02 12.1 C 9.97 g/m*3 12.1 C 0 km/h
2093 13-09-2008 14:35:02 12.1 C 9.97 g/m*3 12.1 C 0 km/h
2094 13-09-2008 14:40:02 12.1 C 9.97 g/m*3 12.1 C 0 km/h
2095 13-09-2008 14:45:01 12.2 C 10.04 g/m*3 12.2 C 0 km/h
2096 13-09-2008 14:50:01 12.3 C 10.1 g/m*3 12.3 C 0 km/h
2097 13-09-2008 14:55:01 12.5 C 10.22 g/m*3 12.5 C 0 km/h
2098 13-09-2008 15:00:01 12.8 C 10.3 g/m*3 12.8 C 0 km/h
2099 13-09-2008 15:05:02 13 C 10.43 g/m*3 13 C 0 km/h
2100 13-09-2008 15:10:02 13.5 C 10.76 g/m*3 13.5 C 0 km/h
Sensor: Nr:Datum:Temp:Abs-Feuchte:Windchill:Wind:
Aussen-T/F 2101 13-09-2008 15:15:02 13.7 C 10.78 g/m*3 13.7 C 0 km/h
2102 13-09-2008 15:20:02 13.9 C 10.91 g/m*3 13.9 C 0 km/h
2103 13-09-2008 15:25:02 14 C 10.86 g/m*3 14 C 0 km/h
2104 13-09-2008 15:30:02 14.3 C 11.06 g/m*3 14.3 C 0 km/h
2105 13-09-2008 15:35:02 14.4 C 11.13 g/m*3 14.4 C 0 km/h
2106 13-09-2008 15:40:02 14.4 C 11 g/m*3 14.4 C 0 km/h
2107 13-09-2008 15:45:02 14.4 C 11 g/m*3 14.4 C 0 km/h
2108 13-09-2008 15:50:02 14.5 C 11.07 g/m*3 14.5 C 0 km/h
2109 13-09-2008 15:55:02 14.5 C 11.07 g/m*3 14.5 C 0 km/h
2110 13-09-2008 16:00:03 14.8 C 11.15 g/m*3 14.8 C 0 km/h
2111 13-09-2008 16:05:02 14.9 C 11.09 g/m*3 14.9 C 0 km/h
2112 13-09-2008 16:10:02 15.1 C 10.97 g/m*3 15.1 C 0 km/h
2113 13-09-2008 16:15:02 15 C 10.64 g/m*3 15 C 0 km/h
2114 13-09-2008 16:20:03 14.7 C 10.45 g/m*3 14.7 C 0 km/h
2115 13-09-2008 16:25:03 15 C 10.51 g/m*3 15 C 0 km/h
2116 13-09-2008 16:30:03 15 C 10.39 g/m*3 15 C 0 km/h
2117 13-09-2008 16:35:02 15 C 10.39 g/m*3 15 C 0 km/h
2118 13-09-2008 16:40:02 15 C 10.39 g/m*3 15 C 0 km/h
2119 13-09-2008 16:45:03 14.9 C 10.45 g/m*3 14.9 C 0 km/h
2120 13-09-2008 16:50:03 14.8 C 10.51 g/m*3 14.8 C 0 km/h
2121 13-09-2008 16:55:03 14.9 C 10.58 g/m*3 14.9 C 0 km/h
2122 13-09-2008 17:00:03 14.9 C 10.58 g/m*3 14.9 C 0 km/h
2123 13-09-2008 17:05:02 14.8 C 10.39 g/m*3 14.8 C 0 km/h
2124 13-09-2008 17:10:02 14.7 C 10.32 g/m*3 14.7 C 0 km/h
2125 13-09-2008 17:15:02 14.6 C 10.26 g/m*3 14.6 C 0 km/h
Sensor: Nr:Datum:Temp:Abs-Feuchte:Windchill:Wind:
Aussen-T/F 2126 13-09-2008 17:20:02 14.4 C 10.14 g/m*3 14.4 C 0 km/h
2127 13-09-2008 17:25:02 14.3 C 10.07 g/m*3 14.3 C 0 km/h
2128 13-09-2008 17:30:02 14.3 C 9.95 g/m*3 14.3 C 0 km/h
2129 13-09-2008 17:35:03 14.3 C 9.95 g/m*3 14.3 C 0 km/h
2130 13-09-2008 17:40:03 14.2 C 9.89 g/m*3 14.2 C 0 km/h
2131 13-09-2008 17:45:02 14.2 C 10.01 g/m*3 14.2 C 0 km/h
2132 13-09-2008 17:50:02 14.1 C 9.95 g/m*3 14.1 C 0 km/h
2133 13-09-2008 17:55:02 14 C 9.89 g/m*3 14 C 0 km/h
2134 13-09-2008 18:00:03 13.9 C 9.95 g/m*3 13.9 C 0 km/h
2135 13-09-2008 18:05:01 13.8 C 9.77 g/m*3 13.8 C 0 km/h
2136 13-09-2008 18:10:01 13.7 C 9.71 g/m*3 13.7 C 0 km/h
2137 13-09-2008 18:15:02 13.5 C 9.59 g/m*3 13.5 C 0 km/h
2138 13-09-2008 18:20:03 13.4 C 9.65 g/m*3 13.4 C 0 km/h
2139 13-09-2008 18:25:03 13.4 C 9.65 g/m*3 13.4 C 0 km/h
2140 13-09-2008 18:30:03 13.2 C 9.64 g/m*3 13.2 C 0 km/h
2141 13-09-2008 18:35:02 13.1 C 9.59 g/m*3 13.1 C 0 km/h
2142 13-09-2008 18:40:02 13 C 9.64 g/m*3 13 C 0 km/h
2143 13-09-2008 18:45:01 12.9 C 9.69 g/m*3 12.9 C 0 km/h
2144 13-09-2008 18:50:01 12.9 C 9.69 g/m*3 12.9 C 0 km/h
2145 13-09-2008 18:55:01 12.9 C 9.69 g/m*3 12.9 C 0 km/h
2146 13-09-2008 19:00:01 12.8 C 9.74 g/m*3 12.8 C 0 km/h
2147 13-09-2008 19:05:02 12.8 C 9.74 g/m*3 12.8 C 0 km/h
2148 13-09-2008 19:10:02 12.7 C 9.68 g/m*3 12.7 C 0 km/h
2149 13-09-2008 19:15:01 12.5 C 9.57 g/m*3 12.5 C 0 km/h
2150 13-09-2008 19:20:01 12.4 C 9.4 g/m*3 12.4 C 0 km/h
Sensor: Nr:Datum:Temp:Abs-Feuchte:Windchill:Wind:
Aussen-T/F 2151 13-09-2008 19:25:01 12.1 C 9.22 g/m*3 12.1 C 0 km/h
2152 13-09-2008 19:30:01 12.1 C 9.22 g/m*3 12.1 C 0 km/h
2153 13-09-2008 19:35:02 11.8 C 9.05 g/m*3 11.8 C 0 km/h
2154 13-09-2008 19:40:02 11.7 C 9.1 g/m*3 11.7 C 0 km/h
2155 13-09-2008 19:45:02 11.6 C 9.04 g/m*3 11.6 C 0 km/h
2156 13-09-2008 19:50:02 11.4 C 8.93 g/m*3 11.4 C 0 km/h
2157 13-09-2008 19:55:02 11.2 C 8.82 g/m*3 11.2 C 0 km/h
2158 13-09-2008 20:00:02 11.2 C 8.82 g/m*3 11.2 C 0 km/h
2159 13-09-2008 20:05:02 11 C 8.71 g/m*3 11 C 0 km/h
2160 13-09-2008 20:10:02 10.8 C 8.7 g/m*3 10.8 C 0 km/h
2161 13-09-2008 20:15:02 10.7 C 8.64 g/m*3 10.7 C 0 km/h
2162 13-09-2008 20:20:02 10.6 C 8.59 g/m*3 10.6 C 0 km/h
2163 13-09-2008 20:25:03 10.4 C 8.48 g/m*3 10.4 C 0 km/h
2164 13-09-2008 20:30:03 10.2 C 8.37 g/m*3 10.2 C 0 km/h
2165 13-09-2008 20:35:02 10.1 C 8.32 g/m*3 10.1 C 0 km/h
2166 13-09-2008 20:40:02 10 C 8.27 g/m*3 10 C 0 km/h
2167 13-09-2008 20:45:03 9.9 C 8.31 g/m*3 9.9 C 0 km/h
2168 13-09-2008 20:50:03 9.9 C 8.31 g/m*3 9.9 C 0 km/h
2169 13-09-2008 20:55:03 9.7 C 8.2 g/m*3 9.7 C 0 km/h
2170 13-09-2008 21:00:03 9.6 C 8.06 g/m*3 9.6 C 0 km/h
2171 13-09-2008 21:05:02 9.6 C 8.06 g/m*3 9.6 C 0 km/h
2172 13-09-2008 21:10:02 9.5 C 8.01 g/m*3 9.5 C 0 km/h
2173 13-09-2008 21:15:02 9.4 C 7.96 g/m*3 9.4 C 0 km/h
2174 13-09-2008 21:20:02 9.4 C 7.96 g/m*3 9.4 C 0 km/h
2175 13-09-2008 21:25:02 9.2 C 7.86 g/m*3 9.2 C 0 km/h
Sensor: Nr:Datum:Temp:Abs-Feuchte:Windchill:Wind:
Aussen-T/F 2176 13-09-2008 21:30:02 9.2 C 7.86 g/m*3 9.2 C 0 km/h
2177 13-09-2008 21:35:02 9.1 C 7.81 g/m*3 9.1 C 0 km/h
2178 13-09-2008 21:40:02 9 C 7.76 g/m*3 9 C 0 km/h
2179 13-09-2008 21:45:02 8.9 C 7.8 g/m*3 8.9 C 0 km/h
2180 13-09-2008 21:50:02 8.8 C 7.75 g/m*3 8.8 C 0 km/h
2181 13-09-2008 21:55:02 8.8 C 7.75 g/m*3 8.8 C 0 km/h
2182 13-09-2008 22:00:02 8.7 C 7.7 g/m*3 8.7 C 0 km/h
2183 13-09-2008 22:05:01 8.6 C 7.65 g/m*3 8.6 C 0 km/h
2184 13-09-2008 22:10:01 8.6 C 7.65 g/m*3 8.6 C 0 km/h
2185 13-09-2008 22:15:02 8.5 C 7.6 g/m*3 8.5 C 0 km/h
2186 13-09-2008 22:20:02 8.5 C 7.51 g/m*3 8.5 C 0 km/h
2187 13-09-2008 22:25:03 8.5 C 7.51 g/m*3 8.5 C 0 km/h
2188 13-09-2008 22:30:03 8.5 C 7.51 g/m*3 8.5 C 0 km/h
2189 13-09-2008 22:35:01 8.5 C 7.43 g/m*3 8.5 C 0 km/h
2190 13-09-2008 22:40:01 8.4 C 7.38 g/m*3 8.4 C 0 km/h
2191 13-09-2008 22:45:02 8.4 C 7.3 g/m*3 8.4 C 0 km/h
2192 13-09-2008 22:50:02 8.5 C 7.26 g/m*3 8.5 C 0 km/h
2193 13-09-2008 22:55:02 8.4 C 7.13 g/m*3 8.4 C 0 km/h
2194 13-09-2008 23:00:02 8.4 C 7.13 g/m*3 8.4 C 0 km/h
2195 13-09-2008 23:06:01 8.4 C 7.04 g/m*3 8.4 C 0 km/h
2196 13-09-2008 23:11:01 8.4 C 6.96 g/m*3 8.4 C 0 km/h
2197 13-09-2008 23:16:01 8.3 C 6.91 g/m*3 8.3 C 0 km/h
2198 13-09-2008 23:21:01 8.2 C 6.87 g/m*3 8.2 C 0 km/h
2199 13-09-2008 23:26:01 8.1 C 6.82 g/m*3 8.1 C 0 km/h
2200 13-09-2008 23:31:01 8.1 C 6.82 g/m*3 8.1 C 0 km/h
Sensor: Nr:Datum:Temp:Abs-Feuchte:Windchill:Wind:
Aussen-T/F 2201 13-09-2008 23:36:01 8.1 C 6.82 g/m*3 8.1 C 0 km/h
2202 13-09-2008 23:41:01 8.1 C 6.82 g/m*3 8.1 C 0 km/h
2203 13-09-2008 23:46:01 8 C 6.78 g/m*3 8 C 0 km/h
2204 13-09-2008 23:51:01 8 C 6.78 g/m*3 8 C 0 km/h
2205 13-09-2008 23:56:02 7.9 C 6.82 g/m*3 7.9 C 0 km/h
2206 14-09-2008 00:01:02 8 C 6.78 g/m*3 8 C 0 km/h
2207 14-09-2008 00:06:02 8 C 6.7 g/m*3 8 C 0 km/h
2208 14-09-2008 00:11:02 7.9 C 6.74 g/m*3 7.9 C 0 km/h
2209 14-09-2008 00:16:02 8 C 6.7 g/m*3 8 C 0 km/h
2210 14-09-2008 00:21:02 8 C 6.61 g/m*3 8 C 0 km/h
2211 14-09-2008 00:26:02 8 C 6.53 g/m*3 8 C 0 km/h
2212 14-09-2008 00:31:02 8.1 C 6.57 g/m*3 8.1 C 0 km/h
2213 14-09-2008 00:36:02 8.1 C 6.49 g/m*3 8.1 C 0 km/h
2214 14-09-2008 00:41:02 8.2 C 6.53 g/m*3 8.2 C 0 km/h
2215 14-09-2008 00:46:02 8.2 C 6.36 g/m*3 8.2 C 0 km/h
2216 14-09-2008 00:51:02 8.2 C 6.36 g/m*3 8.2 C 0 km/h
2217 14-09-2008 00:56:02 8.2 C 6.36 g/m*3 8.2 C 0 km/h
2218 14-09-2008 01:01:02 8.2 C 6.28 g/m*3 8.2 C 0 km/h
2219 14-09-2008 01:06:02 8.2 C 6.2 g/m*3 8.2 C 0 km/h
2220 14-09-2008 01:11:02 8.1 C 6.16 g/m*3 8.1 C 0 km/h
2221 14-09-2008 01:16:02 8.1 C 6.16 g/m*3 8.1 C 0 km/h
2222 14-09-2008 01:21:02 8.1 C 6.24 g/m*3 8.1 C 0 km/h
2223 14-09-2008 01:26:02 8.1 C 6.24 g/m*3 8.1 C 0 km/h
2224 14-09-2008 01:31:02 8.1 C 6.24 g/m*3 8.1 C 0 km/h
2225 14-09-2008 01:36:03 8.1 C 6.24 g/m*3 8.1 C 0 km/h
Sensor: Nr:Datum:Temp:Abs-Feuchte:Windchill:Wind:
Aussen-T/F 2226 14-09-2008 01:41:03 8.3 C 6.24 g/m*3 8.3 C 0 km/h
2227 14-09-2008 01:46:03 8.3 C 6.15 g/m*3 8.3 C 0 km/h
2228 14-09-2008 01:51:03 8.4 C 6.19 g/m*3 8.4 C 0 km/h
2229 14-09-2008 01:56:03 8.4 C 6.19 g/m*3 8.4 C 0 km/h
2230 14-09-2008 02:01:03 8.4 C 6.19 g/m*3 8.4 C 0 km/h
2231 14-09-2008 02:06:03 8.5 C 6.23 g/m*3 8.5 C 0 km/h
2232 14-09-2008 02:11:03 8.4 C 6.19 g/m*3 8.4 C 0 km/h
2233 14-09-2008 02:16:03 8.4 C 6.19 g/m*3 8.4 C 0 km/h
2234 14-09-2008 02:21:03 8.4 C 6.28 g/m*3 8.4 C 0 km/h
2235 14-09-2008 02:26:03 8.3 C 6.15 g/m*3 8.3 C 0 km/h
2236 14-09-2008 02:31:03 8.2 C 6.2 g/m*3 8.2 C 0 km/h
2237 14-09-2008 02:36:03 8.2 C 6.2 g/m*3 8.2 C 0 km/h
2238 14-09-2008 02:41:03 8.2 C 6.11 g/m*3 8.2 C 0 km/h
2239 14-09-2008 02:46:03 8.2 C 6.11 g/m*3 8.2 C 0 km/h
2240 14-09-2008 02:51:03 8.2 C 6.11 g/m*3 8.2 C 0 km/h
2241 14-09-2008 02:56:03 8.5 C 6.06 g/m*3 8.5 C 0 km/h
2242 14-09-2008 03:01:03 8.4 C 6.02 g/m*3 8.4 C 0 km/h
2243 14-09-2008 03:06:03 8.5 C 5.98 g/m*3 8.5 C 0 km/h
2244 14-09-2008 03:11:03 8.4 C 6.02 g/m*3 8.4 C 0 km/h
2245 14-09-2008 03:16:04 8.3 C 6.07 g/m*3 8.3 C 0 km/h
2246 14-09-2008 03:21:04 8.3 C 5.98 g/m*3 8.3 C 0 km/h
2247 14-09-2008 03:26:04 8.2 C 6.03 g/m*3 8.2 C 0 km/h
2248 14-09-2008 03:31:04 8.2 C 6.03 g/m*3 8.2 C 0 km/h
2249 14-09-2008 03:36:04 8.2 C 6.03 g/m*3 8.2 C 0 km/h
2250 14-09-2008 03:41:04 8 C 6.04 g/m*3 8 C 0 km/h
Sensor: Nr:Datum:Temp:Abs-Feuchte:Windchill:Wind:
Aussen-T/F 2251 14-09-2008 03:46:04 8 C 6.04 g/m*3 8 C 0 km/h
2252 14-09-2008 03:51:04 8 C 6.04 g/m*3 8 C 0 km/h
2253 14-09-2008 03:56:04 8 C 6.04 g/m*3 8 C 0 km/h
2254 14-09-2008 04:01:04 7.9 C 6.08 g/m*3 7.9 C 0 km/h
2255 14-09-2008 04:06:04 7.8 C 6.04 g/m*3 7.8 C 0 km/h
2256 14-09-2008 04:11:04 7.7 C 6.08 g/m*3 7.7 C 0 km/h
2257 14-09-2008 04:16:04 7.5 C 6.08 g/m*3 7.5 C 0 km/h
2258 14-09-2008 04:21:04 7.4 C 6.12 g/m*3 7.4 C 0 km/h
2259 14-09-2008 04:26:04 7.3 C 6.08 g/m*3 7.3 C 0 km/h
2260 14-09-2008 04:31:04 7.2 C 6.12 g/m*3 7.2 C 0 km/h
2261 14-09-2008 04:36:04 7.2 C 6.12 g/m*3 7.2 C 0 km/h
2262 14-09-2008 04:41:04 7.1 C 6.08 g/m*3 7.1 C 0 km/h
2263 14-09-2008 04:46:04 7 C 6.12 g/m*3 7 C 0 km/h
2264 14-09-2008 04:51:05 7.1 C 6.16 g/m*3 7.1 C 0 km/h
2265 14-09-2008 04:56:05 7.1 C 6.16 g/m*3 7.1 C 0 km/h
2266 14-09-2008 05:01:05 7.3 C 6.16 g/m*3 7.3 C 0 km/h
2267 14-09-2008 05:06:05 7.3 C 6.16 g/m*3 7.3 C 0 km/h
2268 14-09-2008 05:11:05 7.7 C 6.32 g/m*3 7.7 C 0 km/h
2269 14-09-2008 05:16:05 7.3 C 6.08 g/m*3 7.3 C 0 km/h
2270 14-09-2008 05:21:05 7.1 C 6.01 g/m*3 7.1 C 0 km/h
2271 14-09-2008 05:26:05 7.1 C 6.08 g/m*3 7.1 C 0 km/h
2272 14-09-2008 05:31:05 7.1 C 6.01 g/m*3 7.1 C 0 km/h
2273 14-09-2008 05:36:05 6.9 C 6 g/m*3 6.9 C 0 km/h
2274 14-09-2008 05:41:05 6.9 C 6.08 g/m*3 6.9 C 0 km/h
2275 14-09-2008 05:46:05 6.8 C 6.12 g/m*3 6.8 C 0 km/h
Sensor: Nr:Datum:Temp:Abs-Feuchte:Windchill:Wind:
Aussen-T/F 2276 14-09-2008 05:51:05 6.8 C 6.12 g/m*3 6.8 C 0 km/h
2277 14-09-2008 05:56:05 6.8 C 6.12 g/m*3 6.8 C 0 km/h
2278 14-09-2008 06:01:05 6.8 C 6.19 g/m*3 6.8 C 0 km/h
2279 14-09-2008 06:06:05 6.8 C 6.12 g/m*3 6.8 C 0 km/h
2280 14-09-2008 06:11:05 6.8 C 6.19 g/m*3 6.8 C 0 km/h
2281 14-09-2008 06:16:05 6.7 C 6.15 g/m*3 6.7 C 0 km/h
2282 14-09-2008 06:21:05 6.7 C 6.15 g/m*3 6.7 C 0 km/h
2283 14-09-2008 06:26:06 6.8 C 6.12 g/m*3 6.8 C 0 km/h
2284 14-09-2008 06:31:06 6.8 C 6.04 g/m*3 6.8 C 0 km/h
2285 14-09-2008 06:36:06 6.8 C 5.97 g/m*3 6.8 C 0 km/h
2286 14-09-2008 06:41:06 6.7 C 5.93 g/m*3 6.7 C 0 km/h
2287 14-09-2008 06:46:06 6.6 C 5.96 g/m*3 6.6 C 0 km/h
2288 14-09-2008 06:51:06 6.5 C 6 g/m*3 6.5 C 0 km/h
2289 14-09-2008 06:56:06 6.4 C 5.96 g/m*3 6.4 C 0 km/h
2290 14-09-2008 07:01:02 6.4 C 5.96 g/m*3 6.4 C 0 km/h
2291 14-09-2008 07:06:02 6.2 C 5.96 g/m*3 6.2 C 0 km/h
2292 14-09-2008 07:11:02 6 C 5.88 g/m*3 6 C 0 km/h
2293 14-09-2008 07:16:02 5.9 C 5.98 g/m*3 5.9 C 0 km/h
2294 14-09-2008 07:21:02 5.8 C 5.95 g/m*3 5.8 C 0 km/h
2295 14-09-2008 07:26:02 5.8 C 5.95 g/m*3 5.8 C 0 km/h
2296 14-09-2008 07:31:01 5.8 C 6.02 g/m*3 5.8 C 0 km/h
2297 14-09-2008 07:36:01 5.8 C 6.02 g/m*3 5.8 C 0 km/h
2298 14-09-2008 07:41:01 5.7 C 5.98 g/m*3 5.7 C 0 km/h
2299 14-09-2008 07:46:02 5.8 C 6.09 g/m*3 5.8 C 0 km/h
2300 14-09-2008 07:51:02 5.8 C 6.09 g/m*3 5.8 C 0 km/h
Sensor: Nr:Datum:Temp:Abs-Feuchte:Windchill:Wind:
Aussen-T/F 2301 14-09-2008 07:56:02 5.8 C 6.09 g/m*3 5.8 C 0 km/h
2302 14-09-2008 08:01:02 5.8 C 6.09 g/m*3 5.8 C 0 km/h
2303 14-09-2008 08:06:02 5.7 C 6.05 g/m*3 5.7 C 0 km/h
2304 14-09-2008 08:11:02 5.7 C 6.12 g/m*3 5.7 C 0 km/h
2305 14-09-2008 08:16:01 5.8 C 6.16 g/m*3 5.8 C 0 km/h
2306 14-09-2008 08:21:01 5.9 C 6.2 g/m*3 5.9 C 0 km/h
2307 14-09-2008 08:26:01 5.9 C 6.2 g/m*3 5.9 C 0 km/h
2308 14-09-2008 08:31:02 5.9 C 6.27 g/m*3 5.9 C 0 km/h
2309 14-09-2008 08:36:03 5.9 C 6.27 g/m*3 5.9 C 0 km/h
2310 14-09-2008 08:41:03 5.9 C 6.27 g/m*3 5.9 C 0 km/h
2311 14-09-2008 08:46:02 6 C 6.24 g/m*3 6 C 0 km/h
2312 14-09-2008 08:51:02 6.2 C 6.4 g/m*3 6.2 C 0 km/h
2313 14-09-2008 08:56:02 6.2 C 6.4 g/m*3 6.2 C 0 km/h
2314 14-09-2008 09:01:02 6.3 C 6.44 g/m*3 6.3 C 0 km/h
2315 14-09-2008 09:06:02 6.4 C 6.48 g/m*3 6.4 C 0 km/h
2316 14-09-2008 09:11:02 6.6 C 6.64 g/m*3 6.6 C 0 km/h
2317 14-09-2008 09:16:02 6.7 C 6.69 g/m*3 6.7 C 0 km/h
2318 14-09-2008 09:21:02 6.8 C 6.65 g/m*3 6.8 C 0 km/h
2319 14-09-2008 09:26:03 7 C 6.66 g/m*3 7 C 0 km/h
2320 14-09-2008 09:31:01 7.1 C 6.71 g/m*3 7.1 C 0 km/h
2321 14-09-2008 09:36:01 7.3 C 6.79 g/m*3 7.3 C 0 km/h
2322 14-09-2008 09:41:01 7.6 C 6.85 g/m*3 7.6 C 0 km/h
2323 14-09-2008 09:46:02 7.6 C 6.85 g/m*3 7.6 C 0 km/h
2324 14-09-2008 09:51:02 7.7 C 6.89 g/m*3 7.7 C 0 km/h
2325 14-09-2008 09:56:02 8.1 C 6.91 g/m*3 8.1 C 0 km/h
Sensor: Nr:Datum:Temp:Abs-Feuchte:Windchill:Wind:
Aussen-T/F 2326 14-09-2008 10:01:02 8.4 C 7.04 g/m*3 8.4 C 0 km/h
2327 14-09-2008 10:06:02 8.5 C 7.09 g/m*3 8.5 C 0 km/h
2328 14-09-2008 10:11:02 8.8 C 7.14 g/m*3 8.8 C 0 km/h
2329 14-09-2008 10:16:01 9.2 C 7.05 g/m*3 9.2 C 0 km/h
2330 14-09-2008 10:21:01 9.4 C 7.05 g/m*3 9.4 C 0 km/h
2331 14-09-2008 10:26:01 9.6 C 6.96 g/m*3 9.6 C 0 km/h
2332 14-09-2008 10:31:02 9.8 C 6.96 g/m*3 9.8 C 0 km/h
2333 14-09-2008 10:36:02 10 C 6.86 g/m*3 10 C 0 km/h
2334 14-09-2008 10:41:03 10.3 C 6.7 g/m*3 10.3 C 0 km/h
2335 14-09-2008 10:46:02 10.7 C 6.48 g/m*3 10.7 C 0 km/h
2336 14-09-2008 10:51:02 10.9 C 6.56 g/m*3 10.9 C 0 km/h
2337 14-09-2008 10:56:02 11.1 C 6.25 g/m*3 11.1 C 0 km/h
2338 14-09-2008 11:01:03 11.4 C 6.16 g/m*3 11.4 C 0 km/h
2339 14-09-2008 11:06:03 11.8 C 6.1 g/m*3 11.8 C 0 km/h
2340 14-09-2008 11:11:03 12 C 6.18 g/m*3 12 C 0 km/h
2341 14-09-2008 11:16:02 12.2 C 5.5 g/m*3 12.2 C 0 km/h
2342 14-09-2008 11:21:02 12.5 C 5.5 g/m*3 12.5 C 0 km/h
2343 14-09-2008 11:26:03 12.6 C 5.42 g/m*3 12.6 C 0 km/h
2344 14-09-2008 11:31:02 12.8 C 5.6 g/m*3 12.8 C 0 km/h
2345 14-09-2008 11:36:02 13.1 C 5.36 g/m*3 13.1 C 0 km/h
2346 14-09-2008 11:41:02 13.2 C 5.4 g/m*3 13.2 C 0 km/h
2347 14-09-2008 11:46:02 13.6 C 5.41 g/m*3 13.6 C 0 km/h
2348 14-09-2008 11:51:02 13.7 C 5.09 g/m*3 13.7 C 0 km/h
2349 14-09-2008 11:56:02 13.7 C 5.09 g/m*3 13.7 C 0 km/h
2350 14-09-2008 12:01:02 14.1 C 4.85 g/m*3 14.1 C 0 km/h
Sensor: Nr:Datum:Temp:Abs-Feuchte:Windchill:Wind:
Aussen-T/F 2351 14-09-2008 12:06:02 14.3 C 4.79 g/m*3 14.3 C 0 km/h
2352 14-09-2008 12:11:02 14.4 C 4.7 g/m*3 14.4 C 0 km/h
2353 14-09-2008 12:16:02 14.5 C 4.6 g/m*3 14.5 C 0 km/h
2354 14-09-2008 12:21:02 14.7 C 4.78 g/m*3 14.7 C 0 km/h
2355 14-09-2008 12:26:02 14.6 C 4.63 g/m*3 14.6 C 0 km/h
2356 14-09-2008 12:31:02 14.6 C 4.63 g/m*3 14.6 C 0 km/h
2357 14-09-2008 12:36:02 14.2 C 4.52 g/m*3 14.2 C 0 km/h
2358 14-09-2008 12:41:02 14.2 C 4.88 g/m*3 14.2 C 0 km/h
2359 14-09-2008 12:46:02 14.4 C 4.7 g/m*3 14.4 C 0 km/h
2360 14-09-2008 12:51:02 14.9 C 4.72 g/m*3 14.9 C 0 km/h
2361 14-09-2008 12:56:02 15.3 C 4.83 g/m*3 15.3 C 0 km/h
2362 14-09-2008 13:01:01 15.8 C 4.71 g/m*3 15.8 C 0 km/h
2363 14-09-2008 13:06:01 16 C 4.77 g/m*3 16 C 0 km/h
2364 14-09-2008 13:11:01 16.4 C 5.02 g/m*3 16.4 C 0 km/h
2365 14-09-2008 13:16:02 16.1 C 4.8 g/m*3 16.1 C 0 km/h
2366 14-09-2008 13:21:02 15.9 C 4.74 g/m*3 15.9 C 0 km/h
2367 14-09-2008 13:26:02 15.5 C 4.76 g/m*3 15.5 C 0 km/h
2368 14-09-2008 13:31:01 15.2 C 4.67 g/m*3 15.2 C 0 km/h
2369 14-09-2008 13:36:01 15.1 C 4.64 g/m*3 15.1 C 0 km/h
2370 14-09-2008 13:41:01 15.8 C 5.12 g/m*3 15.8 C 0 km/h
2371 14-09-2008 13:46:01 16.3 C 4.86 g/m*3 16.3 C 0 km/h
2372 14-09-2008 13:51:01 16.5 C 5.06 g/m*3 16.5 C 0 km/h
2373 14-09-2008 13:56:01 16.9 C 4.75 g/m*3 16.9 C 0 km/h
2374 14-09-2008 14:01:02 17.4 C 4.74 g/m*3 17.4 C 0 km/h
2375 14-09-2008 14:06:03 17 C 4.63 g/m*3 17 C 0 km/h
Sensor: Nr:Datum:Temp:Abs-Feuchte:Windchill:Wind:
Aussen-T/F 2376 14-09-2008 14:11:03 16.8 C 4.58 g/m*3 16.8 C 0 km/h
2377 14-09-2008 14:16:01 17.5 C 4.92 g/m*3 17.5 C 0 km/h
2378 14-09-2008 14:21:01 18.3 C 4.85 g/m*3 18.3 C 0 km/h
2379 14-09-2008 14:26:01 18.6 C 4.62 g/m*3 18.6 C 0 km/h
2380 14-09-2008 14:31:02 18.9 C 4.86 g/m*3 18.9 C 0 km/h
2381 14-09-2008 14:36:02 19.1 C 4.92 g/m*3 19.1 C 0 km/h
2382 14-09-2008 14:41:02 19.4 C 5.01 g/m*3 19.4 C 0 km/h
2383 14-09-2008 14:46:01 19.6 C 4.56 g/m*3 19.6 C 0 km/h
2384 14-09-2008 14:51:01 19.5 C 4.53 g/m*3 19.5 C 0 km/h
2385 14-09-2008 14:56:01 19.3 C 4.81 g/m*3 19.3 C 0 km/h
2386 14-09-2008 15:01:02 19.3 C 4.64 g/m*3 19.3 C 0 km/h
2387 14-09-2008 15:06:02 19.3 C 4.81 g/m*3 19.3 C 0 km/h
2388 14-09-2008 15:11:02 19.1 C 4.43 g/m*3 19.1 C 0 km/h
2389 14-09-2008 15:16:02 19 C 4.73 g/m*3 19 C 0 km/h
2390 14-09-2008 15:21:02 19 C 4.73 g/m*3 19 C 0 km/h
2391 14-09-2008 15:26:02 18.7 C 4.64 g/m*3 18.7 C 0 km/h
2392 14-09-2008 15:31:01 18.5 C 4.75 g/m*3 18.5 C 0 km/h
2393 14-09-2008 15:36:01 18.5 C 4.9 g/m*3 18.5 C 0 km/h
2394 14-09-2008 15:41:01 18.2 C 4.82 g/m*3 18.2 C 0 km/h
2395 14-09-2008 15:46:02 18.1 C 4.79 g/m*3 18.1 C 0 km/h
2396 14-09-2008 15:51:02 17.9 C 4.89 g/m*3 17.9 C 0 km/h
2397 14-09-2008 15:56:02 17.8 C 5.01 g/m*3 17.8 C 0 km/h
2398 14-09-2008 16:01:02 18.1 C 5.25 g/m*3 18.1 C 0 km/h
2399 14-09-2008 16:06:02 18.5 C 5.22 g/m*3 18.5 C 0 km/h
2400 14-09-2008 16:11:02 19.1 C 4.92 g/m*3 19.1 C 0 km/h
Sensor: Nr:Datum:Temp:Abs-Feuchte:Windchill:Wind:
Aussen-T/F 2401 14-09-2008 16:16:02 18.8 C 4.83 g/m*3 18.8 C 0 km/h
2402 14-09-2008 16:21:02 18.9 C 4.86 g/m*3 18.9 C 0 km/h
2403 14-09-2008 16:26:02 18.7 C 4.8 g/m*3 18.7 C 0 km/h
2404 14-09-2008 16:31:01 18.6 C 4.77 g/m*3 18.6 C 0 km/h
2405 14-09-2008 16:36:01 18.5 C 4.75 g/m*3 18.5 C 0 km/h
2406 14-09-2008 16:41:01 19 C 4.89 g/m*3 19 C 0 km/h
2407 14-09-2008 16:46:02 20 C 5.01 g/m*3 20 C 0 km/h
2408 14-09-2008 16:51:02 20 C 4.84 g/m*3 20 C 0 km/h
2409 14-09-2008 16:56:02 20.3 C 4.75 g/m*3 20.3 C 0 km/h
2410 14-09-2008 17:01:02 21.3 C 4.66 g/m*3 21.3 C 0 km/h
2411 14-09-2008 17:06:02 20.6 C 4.47 g/m*3 20.6 C 0 km/h
2412 14-09-2008 17:11:02 20.4 C 4.6 g/m*3 20.4 C 0 km/h
2413 14-09-2008 17:16:02 19.7 C 4.75 g/m*3 19.7 C 0 km/h
2414 14-09-2008 17:21:02 19.2 C 4.95 g/m*3 19.2 C 0 km/h
2415 14-09-2008 17:26:02 18.7 C 4.8 g/m*3 18.7 C 0 km/h
2416 14-09-2008 17:31:02 18.4 C 5.35 g/m*3 18.4 C 0 km/h
2417 14-09-2008 17:36:02 18.2 C 5.44 g/m*3 18.2 C 0 km/h
2418 14-09-2008 17:41:02 18 C 5.53 g/m*3 18 C 0 km/h
2419 14-09-2008 17:46:02 17.7 C 5.73 g/m*3 17.7 C 0 km/h
2420 14-09-2008 17:51:02 17.6 C 5.55 g/m*3 17.6 C 0 km/h
2421 14-09-2008 17:56:02 17.9 C 6.11 g/m*3 17.9 C 0 km/h
2422 14-09-2008 18:01:02 17.9 C 6.11 g/m*3 17.9 C 0 km/h
2423 14-09-2008 18:06:02 17.8 C 5.62 g/m*3 17.8 C 0 km/h
2424 14-09-2008 18:11:03 17.6 C 5.55 g/m*3 17.6 C 0 km/h
2425 14-09-2008 18:16:01 17.5 C 5.52 g/m*3 17.5 C 0 km/h
Sensor: Nr:Datum:Temp:Abs-Feuchte:Windchill:Wind:
Aussen-T/F 2426 14-09-2008 18:21:01 17 C 5.5 g/m*3 17 C 0 km/h
2427 14-09-2008 18:26:01 16.9 C 5.9 g/m*3 16.9 C 0 km/h
2428 14-09-2008 18:31:02 16.8 C 5.72 g/m*3 16.8 C 0 km/h
2429 14-09-2008 18:36:02 16.6 C 5.79 g/m*3 16.6 C 0 km/h
2430 14-09-2008 18:41:02 16.1 C 5.35 g/m*3 16.1 C 0 km/h
2431 14-09-2008 18:46:02 16 C 5.18 g/m*3 16 C 0 km/h
2432 14-09-2008 18:51:02 15.8 C 5.25 g/m*3 15.8 C 0 km/h
2433 14-09-2008 18:56:02 15.5 C 5.42 g/m*3 15.5 C 0 km/h
2434 14-09-2008 19:01:02 15.4 C 5.39 g/m*3 15.4 C 0 km/h
2435 14-09-2008 19:06:02 15.3 C 5.35 g/m*3 15.3 C 0 km/h
2436 14-09-2008 19:11:02 15.2 C 5.58 g/m*3 15.2 C 0 km/h
2437 14-09-2008 19:16:02 15 C 5.26 g/m*3 15 C 0 km/h
2438 14-09-2008 19:21:02 14.9 C 5.48 g/m*3 14.9 C 0 km/h
2439 14-09-2008 19:26:02 14.8 C 5.57 g/m*3 14.8 C 0 km/h
2440 14-09-2008 19:31:02 14.7 C 5.67 g/m*3 14.7 C 0 km/h
2441 14-09-2008 19:36:02 14.4 C 5.81 g/m*3 14.4 C 0 km/h
2442 14-09-2008 19:41:02 14.3 C 5.65 g/m*3 14.3 C 0 km/h
2443 14-09-2008 19:46:02 14.1 C 5.34 g/m*3 14.1 C 0 km/h
2444 14-09-2008 19:51:02 13.8 C 5.48 g/m*3 13.8 C 0 km/h
2445 14-09-2008 19:56:03 13.7 C 5.45 g/m*3 13.7 C 0 km/h
2446 14-09-2008 20:01:01 13.5 C 5.38 g/m*3 13.5 C 0 km/h
2447 14-09-2008 20:06:01 13.2 C 5.28 g/m*3 13.2 C 0 km/h
2448 14-09-2008 20:11:01 13.1 C 5.25 g/m*3 13.1 C 0 km/h
2449 14-09-2008 20:16:02 13 C 5.33 g/m*3 13 C 0 km/h
2450 14-09-2008 20:21:02 12.8 C 5.38 g/m*3 12.8 C 0 km/h
Sensor: Nr:Datum:Temp:Abs-Feuchte:Windchill:Wind:
Aussen-T/F 2451 14-09-2008 20:26:02 12.7 C 5.57 g/m*3 12.7 C 0 km/h
2452 14-09-2008 20:31:01 12.5 C 5.72 g/m*3 12.5 C 0 km/h
2453 14-09-2008 20:36:01 12.4 C 5.68 g/m*3 12.4 C 0 km/h
2454 14-09-2008 20:41:01 12.3 C 5.65 g/m*3 12.3 C 0 km/h
2455 14-09-2008 20:46:01 12.2 C 5.61 g/m*3 12.2 C 0 km/h
2456 14-09-2008 20:51:01 12.3 C 5.75 g/m*3 12.3 C 0 km/h
2457 14-09-2008 20:56:01 12.2 C 5.83 g/m*3 12.2 C 0 km/h
2458 14-09-2008 21:01:02 12.2 C 5.94 g/m*3 12.2 C 0 km/h
2459 14-09-2008 21:06:02 12.3 C 6.08 g/m*3 12.3 C 0 km/h
2460 14-09-2008 21:11:02 12.4 C 6.01 g/m*3 12.4 C 0 km/h
2461 14-09-2008 21:16:01 12.2 C 5.94 g/m*3 12.2 C 0 km/h
2462 14-09-2008 21:21:01 12.4 C 6.01 g/m*3 12.4 C 0 km/h
2463 14-09-2008 21:26:01 12.4 C 6.01 g/m*3 12.4 C 0 km/h
2464 14-09-2008 21:31:02 12.2 C 6.04 g/m*3 12.2 C 0 km/h
2465 14-09-2008 21:36:02 12.2 C 6.04 g/m*3 12.2 C 0 km/h
2466 14-09-2008 21:41:02 12.4 C 6.23 g/m*3 12.4 C 0 km/h
2467 14-09-2008 21:46:02 12.4 C 6.23 g/m*3 12.4 C 0 km/h
2468 14-09-2008 21:51:02 12.4 C 6.12 g/m*3 12.4 C 0 km/h
2469 14-09-2008 21:56:02 12.2 C 6.04 g/m*3 12.2 C 0 km/h
2470 14-09-2008 22:02:02 12.2 C 6.15 g/m*3 12.2 C 0 km/h
2471 14-09-2008 22:07:02 12.2 C 6.15 g/m*3 12.2 C 0 km/h
2472 14-09-2008 22:12:02 12.1 C 6.11 g/m*3 12.1 C 0 km/h
2473 14-09-2008 22:17:02 12.1 C 6.33 g/m*3 12.1 C 0 km/h
2474 14-09-2008 22:22:02 12.1 C 6.33 g/m*3 12.1 C 0 km/h
2475 14-09-2008 22:27:02 12.1 C 6.43 g/m*3 12.1 C 0 km/h
Sensor: Nr:Datum:Temp:Abs-Feuchte:Windchill:Wind:
Aussen-T/F 2476 14-09-2008 22:32:02 12 C 6.39 g/m*3 12 C 0 km/h
2477 14-09-2008 22:37:02 11.8 C 6.31 g/m*3 11.8 C 0 km/h
2478 14-09-2008 22:42:02 11.7 C 6.48 g/m*3 11.7 C 0 km/h
2479 14-09-2008 22:47:02 11.5 C 6.4 g/m*3 11.5 C 0 km/h
2480 14-09-2008 22:52:02 11.3 C 6.32 g/m*3 11.3 C 0 km/h
2481 14-09-2008 22:57:03 11.2 C 6.28 g/m*3 11.2 C 0 km/h
2482 14-09-2008 23:02:03 11 C 6.31 g/m*3 11 C 0 km/h
2483 14-09-2008 23:07:03 10.9 C 6.47 g/m*3 10.9 C 0 km/h
2484 14-09-2008 23:12:03 10.8 C 6.42 g/m*3 10.8 C 0 km/h
2485 14-09-2008 23:17:03 10.8 C 6.52 g/m*3 10.8 C 0 km/h
2486 14-09-2008 23:22:03 10.9 C 6.56 g/m*3 10.9 C 0 km/h
2487 14-09-2008 23:27:03 10.8 C 6.52 g/m*3 10.8 C 0 km/h
2488 14-09-2008 23:32:03 10.8 C 6.52 g/m*3 10.8 C 0 km/h
2489 14-09-2008 23:37:03 10.7 C 6.48 g/m*3 10.7 C 0 km/h
2490 14-09-2008 23:42:03 10.7 C 6.58 g/m*3 10.7 C 0 km/h
2491 14-09-2008 23:47:03 10.7 C 6.58 g/m*3 10.7 C 0 km/h
2492 14-09-2008 23:52:03 10.5 C 6.6 g/m*3 10.5 C 0 km/h
2493 14-09-2008 23:57:03 10.4 C 6.55 g/m*3 10.4 C 0 km/h
2494 15-09-2008 00:02:03 10.3 C 6.51 g/m*3 10.3 C 0 km/h
2495 15-09-2008 00:07:03 10.1 C 6.43 g/m*3 10.1 C 0 km/h
2496 15-09-2008 00:12:03 9.9 C 6.54 g/m*3 9.9 C 0 km/h
2497 15-09-2008 00:17:03 9.8 C 6.49 g/m*3 9.8 C 0 km/h
2498 15-09-2008 00:22:03 9.7 C 6.55 g/m*3 9.7 C 0 km/h
2499 15-09-2008 00:27:03 9.6 C 6.6 g/m*3 9.6 C 0 km/h
2500 15-09-2008 00:32:03 9.6 C 6.6 g/m*3 9.6 C 0 km/h
Sensor: Nr:Datum:Temp:Abs-Feuchte:Windchill:Wind:
Aussen-T/F 2501 15-09-2008 00:37:04 9.4 C 6.51 g/m*3 9.4 C 0 km/h
2502 15-09-2008 00:42:04 9.3 C 6.56 g/m*3 9.3 C 0 km/h
2503 15-09-2008 00:47:04 9.3 C 6.56 g/m*3 9.3 C 0 km/h
2504 15-09-2008 00:52:04 9.2 C 6.52 g/m*3 9.2 C 0 km/h
2505 15-09-2008 00:57:04 9.1 C 6.57 g/m*3 9.1 C 0 km/h
2506 15-09-2008 01:02:04 9 C 6.52 g/m*3 9 C 0 km/h
2507 15-09-2008 01:07:04 9 C 6.52 g/m*3 9 C 0 km/h
2508 15-09-2008 01:12:04 9 C 6.61 g/m*3 9 C 0 km/h
2509 15-09-2008 01:17:04 9 C 6.61 g/m*3 9 C 0 km/h
2510 15-09-2008 01:22:04 9 C 6.52 g/m*3 9 C 0 km/h
2511 15-09-2008 01:27:04 9.1 C 6.48 g/m*3 9.1 C 0 km/h
2512 15-09-2008 01:32:04 9 C 6.44 g/m*3 9 C 0 km/h
2513 15-09-2008 01:37:04 9 C 6.44 g/m*3 9 C 0 km/h
2514 15-09-2008 01:42:04 8.9 C 6.48 g/m*3 8.9 C 0 km/h
2515 15-09-2008 01:47:04 8.9 C 6.57 g/m*3 8.9 C 0 km/h
2516 15-09-2008 01:52:04 8.9 C 6.48 g/m*3 8.9 C 0 km/h
2517 15-09-2008 01:57:04 8.8 C 6.44 g/m*3 8.8 C 0 km/h
2518 15-09-2008 02:02:04 8.7 C 6.4 g/m*3 8.7 C 0 km/h
2519 15-09-2008 02:07:04 8.7 C 6.49 g/m*3 8.7 C 0 km/h
2520 15-09-2008 02:12:05 8.7 C 6.49 g/m*3 8.7 C 0 km/h
2521 15-09-2008 02:17:05 8.8 C 6.53 g/m*3 8.8 C 0 km/h
2522 15-09-2008 02:22:05 8.8 C 6.53 g/m*3 8.8 C 0 km/h
2523 15-09-2008 02:27:05 8.8 C 6.44 g/m*3 8.8 C 0 km/h
2524 15-09-2008 02:32:05 8.8 C 6.44 g/m*3 8.8 C 0 km/h
2525 15-09-2008 02:37:05 8.7 C 6.31 g/m*3 8.7 C 0 km/h
Sensor: Nr:Datum:Temp:Abs-Feuchte:Windchill:Wind:
Aussen-T/F 2526 15-09-2008 02:42:05 8.7 C 6.31 g/m*3 8.7 C 0 km/h
2527 15-09-2008 02:47:05 8.7 C 6.31 g/m*3 8.7 C 0 km/h
2528 15-09-2008 02:52:05 8.6 C 6.27 g/m*3 8.6 C 0 km/h
2529 15-09-2008 02:57:05 8.6 C 6.27 g/m*3 8.6 C 0 km/h
2530 15-09-2008 03:02:05 8.5 C 6.23 g/m*3 8.5 C 0 km/h
2531 15-09-2008 03:07:05 8.4 C 6.28 g/m*3 8.4 C 0 km/h
2532 15-09-2008 03:12:05 8.2 C 6.28 g/m*3 8.2 C 0 km/h
2533 15-09-2008 03:17:05 8.2 C 6.36 g/m*3 8.2 C 0 km/h
2534 15-09-2008 03:22:05 8.2 C 6.36 g/m*3 8.2 C 0 km/h
2535 15-09-2008 03:27:05 8.3 C 6.49 g/m*3 8.3 C 0 km/h
2536 15-09-2008 03:32:05 8.2 C 6.45 g/m*3 8.2 C 0 km/h
2537 15-09-2008 03:37:05 8.2 C 6.45 g/m*3 8.2 C 0 km/h
2538 15-09-2008 03:42:05 8.2 C 6.53 g/m*3 8.2 C 0 km/h
2539 15-09-2008 03:47:06 8.2 C 6.53 g/m*3 8.2 C 0 km/h
2540 15-09-2008 03:52:06 8.2 C 6.53 g/m*3 8.2 C 0 km/h
2541 15-09-2008 03:57:06 8.1 C 6.49 g/m*3 8.1 C 0 km/h
2542 15-09-2008 04:02:06 8.1 C 6.57 g/m*3 8.1 C 0 km/h
2543 15-09-2008 04:07:06 8 C 6.53 g/m*3 8 C 0 km/h
2544 15-09-2008 04:12:06 7.9 C 6.57 g/m*3 7.9 C 0 km/h
2545 15-09-2008 04:17:06 7.8 C 6.53 g/m*3 7.8 C 0 km/h
2546 15-09-2008 04:22:06 7.7 C 6.49 g/m*3 7.7 C 0 km/h
2547 15-09-2008 04:27:06 7.6 C 6.44 g/m*3 7.6 C 0 km/h
2548 15-09-2008 04:32:06 7.5 C 6.48 g/m*3 7.5 C 0 km/h
2549 15-09-2008 04:37:06 7.4 C 6.44 g/m*3 7.4 C 0 km/h
2550 15-09-2008 04:42:06 7.4 C 6.52 g/m*3 7.4 C 0 km/h
Sensor: Nr:Datum:Temp:Abs-Feuchte:Windchill:Wind:
Aussen-T/F 2551 15-09-2008 04:47:06 7.5 C 6.56 g/m*3 7.5 C 0 km/h
2552 15-09-2008 04:52:06 7.3 C 6.48 g/m*3 7.3 C 0 km/h
2553 15-09-2008 04:57:06 7.3 C 6.56 g/m*3 7.3 C 0 km/h
2554 15-09-2008 05:02:06 7.3 C 6.56 g/m*3 7.3 C 0 km/h
2555 15-09-2008 05:07:06 7.3 C 6.56 g/m*3 7.3 C 0 km/h
2556 15-09-2008 05:12:06 7.2 C 6.52 g/m*3 7.2 C 0 km/h
2557 15-09-2008 05:17:06 7.2 C 6.52 g/m*3 7.2 C 0 km/h
2558 15-09-2008 05:22:07 7.2 C 6.59 g/m*3 7.2 C 0 km/h
2559 15-09-2008 05:27:07 7.3 C 6.64 g/m*3 7.3 C 0 km/h
2560 15-09-2008 05:32:07 7.4 C 6.68 g/m*3 7.4 C 0 km/h
2561 15-09-2008 05:37:07 7.4 C 6.68 g/m*3 7.4 C 0 km/h
2562 15-09-2008 05:42:07 7.2 C 6.59 g/m*3 7.2 C 0 km/h
2563 15-09-2008 05:47:07 7.1 C 6.55 g/m*3 7.1 C 0 km/h
2564 15-09-2008 05:52:07 7 C 6.51 g/m*3 7 C 0 km/h
2565 15-09-2008 05:57:07 6.9 C 6.62 g/m*3 6.9 C 0 km/h
2566 15-09-2008 06:02:07 6.9 C 6.62 g/m*3 6.9 C 0 km/h
2567 15-09-2008 06:07:07 6.9 C 6.62 g/m*3 6.9 C 0 km/h
2568 15-09-2008 06:12:07 6.9 C 6.62 g/m*3 6.9 C 0 km/h
2569 15-09-2008 06:17:07 6.8 C 6.58 g/m*3 6.8 C 0 km/h
2570 15-09-2008 06:22:07 6.8 C 6.58 g/m*3 6.8 C 0 km/h
2571 15-09-2008 06:27:07 6.8 C 6.58 g/m*3 6.8 C 0 km/h
2572 15-09-2008 06:32:07 6.7 C 6.61 g/m*3 6.7 C 0 km/h
2573 15-09-2008 06:37:07 6.6 C 6.57 g/m*3 6.6 C 0 km/h
2574 15-09-2008 06:42:07 6.6 C 6.57 g/m*3 6.6 C 0 km/h
2575 15-09-2008 06:47:07 6.5 C 6.52 g/m*3 6.5 C 0 km/h
Sensor: Nr:Datum:Temp:Abs-Feuchte:Windchill:Wind:
Aussen-T/F 2576 15-09-2008 06:52:07 6.4 C 6.48 g/m*3 6.4 C 0 km/h
2577 15-09-2008 06:57:08 6.4 C 6.48 g/m*3 6.4 C 0 km/h
2578 15-09-2008 07:02:02 6.3 C 6.51 g/m*3 6.3 C 0 km/h
2579 15-09-2008 07:07:02 6.3 C 6.51 g/m*3 6.3 C 0 km/h
2580 15-09-2008 07:12:02 6.2 C 6.47 g/m*3 6.2 C 0 km/h
2581 15-09-2008 07:17:02 6.2 C 6.47 g/m*3 6.2 C 0 km/h
2582 15-09-2008 07:22:02 6.2 C 6.47 g/m*3 6.2 C 0 km/h
2583 15-09-2008 07:27:02 6.2 C 6.47 g/m*3 6.2 C 0 km/h
2584 15-09-2008 07:32:02 6.2 C 6.55 g/m*3 6.2 C 0 km/h
2585 15-09-2008 07:37:02 6.1 C 6.43 g/m*3 6.1 C 0 km/h
2586 15-09-2008 07:42:02 6.1 C 6.5 g/m*3 6.1 C 0 km/h
2587 15-09-2008 07:47:02 6.1 C 6.5 g/m*3 6.1 C 0 km/h
2588 15-09-2008 07:52:02 6.1 C 6.5 g/m*3 6.1 C 0 km/h
2589 15-09-2008 07:57:02 6.1 C 6.5 g/m*3 6.1 C 0 km/h
2590 15-09-2008 08:02:02 6.1 C 6.5 g/m*3 6.1 C 0 km/h
2591 15-09-2008 08:07:02 6.2 C 6.55 g/m*3 6.2 C 0 km/h
2592 15-09-2008 08:12:02 6.2 C 6.55 g/m*3 6.2 C 0 km/h
2593 15-09-2008 08:17:02 6.2 C 6.55 g/m*3 6.2 C 0 km/h
2594 15-09-2008 08:22:02 6.3 C 6.59 g/m*3 6.3 C 0 km/h
2595 15-09-2008 08:27:02 6.3 C 6.59 g/m*3 6.3 C 0 km/h
2596 15-09-2008 08:32:02 6.4 C 6.63 g/m*3 6.4 C 0 km/h
2597 15-09-2008 08:37:02 6.5 C 6.67 g/m*3 6.5 C 0 km/h
2598 15-09-2008 08:42:02 6.6 C 6.72 g/m*3 6.6 C 0 km/h
2599 15-09-2008 08:47:02 6.8 C 6.81 g/m*3 6.8 C 0 km/h
2600 15-09-2008 08:52:03 6.9 C 6.85 g/m*3 6.9 C 0 km/h
Sensor: Nr:Datum:Temp:Abs-Feuchte:Windchill:Wind:
Aussen-T/F 2601 15-09-2008 08:57:03 7.1 C 6.86 g/m*3 7.1 C 0 km/h
2602 15-09-2008 09:02:01 7.3 C 6.95 g/m*3 7.3 C 0 km/h
2603 15-09-2008 09:07:01 7.3 C 6.95 g/m*3 7.3 C 0 km/h
2604 15-09-2008 09:12:01 7.4 C 6.92 g/m*3 7.4 C 0 km/h
2605 15-09-2008 09:17:02 7.6 C 6.93 g/m*3 7.6 C 0 km/h
2606 15-09-2008 09:22:02 7.6 C 6.93 g/m*3 7.6 C 0 km/h
2607 15-09-2008 09:27:02 7.6 C 6.93 g/m*3 7.6 C 0 km/h
2608 15-09-2008 09:32:01 7.7 C 6.89 g/m*3 7.7 C 0 km/h
2609 15-09-2008 09:37:01 7.8 C 6.94 g/m*3 7.8 C 0 km/h
2610 15-09-2008 09:42:01 8 C 6.94 g/m*3 8 C 0 km/h
2611 15-09-2008 09:47:01 8.2 C 7.03 g/m*3 8.2 C 0 km/h
2612 15-09-2008 09:52:01 8.5 C 7.09 g/m*3 8.5 C 0 km/h
2613 15-09-2008 09:57:01 8.7 C 7.09 g/m*3 8.7 C 0 km/h
2614 15-09-2008 10:02:02 9 C 7.05 g/m*3 9 C 0 km/h
2615 15-09-2008 10:07:02 9.2 C 7.05 g/m*3 9.2 C 0 km/h
2616 15-09-2008 10:12:02 9.4 C 7.05 g/m*3 9.4 C 0 km/h
2617 15-09-2008 10:17:01 9.7 C 7.01 g/m*3 9.7 C 0 km/h
2618 15-09-2008 10:22:01 10 C 6.95 g/m*3 10 C 0 km/h
2619 15-09-2008 10:27:01 10 C 6.86 g/m*3 10 C 0 km/h
2620 15-09-2008 10:32:02 10.2 C 6.85 g/m*3 10.2 C 0 km/h
2621 15-09-2008 10:37:02 10.4 C 6.75 g/m*3 10.4 C 0 km/h
2622 15-09-2008 10:42:02 10.7 C 6.88 g/m*3 10.7 C 0 km/h
2623 15-09-2008 10:47:02 10.8 C 6.92 g/m*3 10.8 C 0 km/h
2624 15-09-2008 10:52:03 11.3 C 7.04 g/m*3 11.3 C 0 km/h
2625 15-09-2008 10:57:03 11.8 C 7.05 g/m*3 11.8 C 0 km/h
Sensor: Nr:Datum:Temp:Abs-Feuchte:Windchill:Wind:
Aussen-T/F 2626 15-09-2008 11:02:02 12 C 6.93 g/m*3 12 C 0 km/h
2627 15-09-2008 11:07:02 12.1 C 6.65 g/m*3 12.1 C 0 km/h
2628 15-09-2008 11:12:02 12.1 C 6.54 g/m*3 12.1 C 0 km/h
2629 15-09-2008 11:17:02 12.1 C 6.54 g/m*3 12.1 C 0 km/h
2630 15-09-2008 11:22:02 12 C 6.39 g/m*3 12 C 0 km/h
2631 15-09-2008 11:27:02 11.8 C 6.53 g/m*3 11.8 C 0 km/h
2632 15-09-2008 11:32:02 11.8 C 6.53 g/m*3 11.8 C 0 km/h
2633 15-09-2008 11:37:02 11.9 C 6.57 g/m*3 11.9 C 0 km/h
2634 15-09-2008 11:42:02 12.2 C 6.47 g/m*3 12.2 C 0 km/h
2635 15-09-2008 11:47:02 12.5 C 6.38 g/m*3 12.5 C 0 km/h
2636 15-09-2008 11:52:02 12.6 C 6.2 g/m*3 12.6 C 0 km/h
2637 15-09-2008 11:57:02 12.8 C 6.16 g/m*3 12.8 C 0 km/h
2638 15-09-2008 12:02:02 13.1 C 6.05 g/m*3 13.1 C 0 km/h
2639 15-09-2008 12:07:02 13.2 C 6.09 g/m*3 13.2 C 0 km/h
2640 15-09-2008 12:12:02 13.3 C 5.89 g/m*3 13.3 C 0 km/h
2641 15-09-2008 12:17:02 13.4 C 5.93 g/m*3 13.4 C 0 km/h
2642 15-09-2008 12:22:02 13.4 C 5.81 g/m*3 13.4 C 0 km/h
2643 15-09-2008 12:27:02 13.4 C 5.81 g/m*3 13.4 C 0 km/h
2644 15-09-2008 12:32:02 13.4 C 5.93 g/m*3 13.4 C 0 km/h
2645 15-09-2008 12:37:02 13.8 C 6.08 g/m*3 13.8 C 0 km/h
2646 15-09-2008 12:42:02 14 C 6.03 g/m*3 14 C 0 km/h
2647 15-09-2008 12:47:02 14.2 C 5.74 g/m*3 14.2 C 0 km/h
2648 15-09-2008 12:52:03 14 C 5.67 g/m*3 14 C 0 km/h
2649 15-09-2008 12:57:03 14 C 5.67 g/m*3 14 C 0 km/h
2650 15-09-2008 13:02:01 14.2 C 5.74 g/m*3 14.2 C 0 km/h
Sensor: Nr:Datum:Temp:Abs-Feuchte:Windchill:Wind:
Aussen-T/F 2651 15-09-2008 13:07:01 14.1 C 5.83 g/m*3 14.1 C 0 km/h
2652 15-09-2008 13:12:01 14.2 C 5.86 g/m*3 14.2 C 0 km/h
2653 15-09-2008 13:17:02 14.5 C 5.85 g/m*3 14.5 C 0 km/h
2654 15-09-2008 13:22:02 14.8 C 5.83 g/m*3 14.8 C 0 km/h
2655 15-09-2008 13:27:02 14.7 C 5.79 g/m*3 14.7 C 0 km/h
2656 15-09-2008 13:32:01 14.4 C 5.81 g/m*3 14.4 C 0 km/h
2657 15-09-2008 13:37:01 14 C 6.03 g/m*3 14 C 0 km/h
2658 15-09-2008 13:42:01 13.2 C 6.54 g/m*3 13.2 C 0 km/h
2659 15-09-2008 13:47:01 12.8 C 6.72 g/m*3 12.8 C 0 km/h
2660 15-09-2008 13:52:01 12.2 C 6.8 g/m*3 12.2 C 0 km/h
2661 15-09-2008 13:57:01 12.1 C 7.08 g/m*3 12.1 C 0 km/h
2662 15-09-2008 14:02:02 12.2 C 7.23 g/m*3 12.2 C 0 km/h
2663 15-09-2008 14:07:02 12.8 C 7.28 g/m*3 12.8 C 0 km/h
2664 15-09-2008 14:12:02 13.5 C 6.9 g/m*3 13.5 C 0 km/h
2665 15-09-2008 14:17:02 13.9 C 6.95 g/m*3 13.9 C 0 km/h
2666 15-09-2008 14:22:02 14 C 6.51 g/m*3 14 C 0 km/h
2667 15-09-2008 14:27:02 14.1 C 6.43 g/m*3 14.1 C 0 km/h
2668 15-09-2008 14:32:02 13.8 C 6.43 g/m*3 13.8 C 0 km/h
2669 15-09-2008 14:37:02 13.7 C 6.51 g/m*3 13.7 C 0 km/h
2670 15-09-2008 14:42:02 13.2 C 6.66 g/m*3 13.2 C 0 km/h
2671 15-09-2008 14:47:02 12.2 C 7.01 g/m*3 12.2 C 0 km/h
2672 15-09-2008 14:52:02 12 C 7.35 g/m*3 12 C 0 km/h
2673 15-09-2008 14:57:02 11.7 C 7.95 g/m*3 11.7 C 0 km/h
2674 15-09-2008 15:02:01 11.8 C 8.31 g/m*3 11.8 C 0 km/h
2675 15-09-2008 15:07:01 11.9 C 8.47 g/m*3 11.9 C 0 km/h
Sensor: Nr:Datum:Temp:Abs-Feuchte:Windchill:Wind:
Aussen-T/F 2676 15-09-2008 15:12:01 12.2 C 8.63 g/m*3 12.2 C 0 km/h
2677 15-09-2008 15:17:02 12.2 C 8.74 g/m*3 12.2 C 0 km/h
2678 15-09-2008 15:22:02 12.3 C 8.9 g/m*3 12.3 C 0 km/h
2679 15-09-2008 15:27:02 12.8 C 9.18 g/m*3 12.8 C 0 km/h
2680 15-09-2008 15:32:01 13.4 C 9.3 g/m*3 13.4 C 0 km/h
2681 15-09-2008 15:37:01 14 C 9.17 g/m*3 14 C 0 km/h
2682 15-09-2008 15:42:01 14.2 C 9.28 g/m*3 14.2 C 0 km/h
2683 15-09-2008 15:47:01 14.2 C 9.04 g/m*3 14.2 C 0 km/h
2684 15-09-2008 15:52:01 14.4 C 9.27 g/m*3 14.4 C 0 km/h
2685 15-09-2008 15:57:01 14.4 C 9.15 g/m*3 14.4 C 0 km/h
2686 15-09-2008 16:02:02 14.5 C 9.08 g/m*3 14.5 C 0 km/h
2687 15-09-2008 16:07:02 14.6 C 8.88 g/m*3 14.6 C 0 km/h
2688 15-09-2008 16:12:02 14.5 C 8.71 g/m*3 14.5 C 0 km/h
2689 15-09-2008 16:17:01 14.4 C 8.53 g/m*3 14.4 C 0 km/h
2690 15-09-2008 16:22:01 14.5 C 8.83 g/m*3 14.5 C 0 km/h
2691 15-09-2008 16:27:01 14.5 C 8.95 g/m*3 14.5 C 0 km/h
2692 15-09-2008 16:32:02 14.5 C 9.2 g/m*3 14.5 C 0 km/h
2693 15-09-2008 16:37:02 14.3 C 9.09 g/m*3 14.3 C 0 km/h
2694 15-09-2008 16:42:02 14 C 8.93 g/m*3 14 C 0 km/h
2695 15-09-2008 16:47:02 13.8 C 8.82 g/m*3 13.8 C 0 km/h
2696 15-09-2008 16:52:03 13.3 C 8.43 g/m*3 13.3 C 0 km/h
2697 15-09-2008 16:57:03 13.3 C 8.55 g/m*3 13.3 C 0 km/h
2698 15-09-2008 17:02:02 13.2 C 8.38 g/m*3 13.2 C 0 km/h
2699 15-09-2008 17:07:02 13.1 C 8.44 g/m*3 13.1 C 0 km/h
2700 15-09-2008 17:12:02 13.1 C 8.22 g/m*3 13.1 C 0 km/h
Sensor: Nr:Datum:Temp:Abs-Feuchte:Windchill:Wind:
Aussen-T/F 2701 15-09-2008 17:17:03 13.1 C 8.1 g/m*3 13.1 C 0 km/h
2702 15-09-2008 17:22:03 12.9 C 7.89 g/m*3 12.9 C 0 km/h
2703 15-09-2008 17:27:03 12.6 C 7.74 g/m*3 12.6 C 0 km/h
2704 15-09-2008 17:32:02 12.4 C 7.87 g/m*3 12.4 C 0 km/h
2705 15-09-2008 17:37:02 12.4 C 7.87 g/m*3 12.4 C 0 km/h
2706 15-09-2008 17:42:02 12.4 C 7.87 g/m*3 12.4 C 0 km/h
2707 15-09-2008 17:47:02 12.2 C 7.77 g/m*3 12.2 C 0 km/h
2708 15-09-2008 17:52:03 12.1 C 7.83 g/m*3 12.1 C 0 km/h
2709 15-09-2008 17:57:03 12.1 C 7.83 g/m*3 12.1 C 0 km/h
2710 15-09-2008 18:02:01 12.1 C 7.83 g/m*3 12.1 C 0 km/h
2711 15-09-2008 18:07:01 12.1 C 7.83 g/m*3 12.1 C 0 km/h
2712 15-09-2008 18:12:01 12.1 C 7.83 g/m*3 12.1 C 0 km/h
2713 15-09-2008 18:17:02 12 C 7.67 g/m*3 12 C 0 km/h
2714 15-09-2008 18:22:02 12 C 7.57 g/m*3 12 C 0 km/h
2715 15-09-2008 18:27:02 11.9 C 7.73 g/m*3 11.9 C 0 km/h
2716 15-09-2008 18:32:01 11.9 C 7.73 g/m*3 11.9 C 0 km/h
2717 15-09-2008 18:37:01 11.8 C 7.58 g/m*3 11.8 C 0 km/h
2718 15-09-2008 18:42:01 11.7 C 7.53 g/m*3 11.7 C 0 km/h
2719 15-09-2008 18:47:01 11.7 C 7.43 g/m*3 11.7 C 0 km/h
2720 15-09-2008 18:52:01 11.6 C 7.38 g/m*3 11.6 C 0 km/h
2721 15-09-2008 18:57:01 11.6 C 7.38 g/m*3 11.6 C 0 km/h
2722 15-09-2008 19:02:02 11.5 C 7.44 g/m*3 11.5 C 0 km/h
2723 15-09-2008 19:07:02 11.4 C 7.39 g/m*3 11.4 C 0 km/h
2724 15-09-2008 19:12:02 11.3 C 7.45 g/m*3 11.3 C 0 km/h
2725 15-09-2008 19:17:01 11.2 C 7.4 g/m*3 11.2 C 0 km/h
Sensor: Nr:Datum:Temp:Abs-Feuchte:Windchill:Wind:
Aussen-T/F 2726 15-09-2008 19:22:01 11.2 C 7.4 g/m*3 11.2 C 0 km/h
2727 15-09-2008 19:27:01 11.1 C 7.25 g/m*3 11.1 C 0 km/h
2728 15-09-2008 19:32:02 11.1 C 7.35 g/m*3 11.1 C 0 km/h
2729 15-09-2008 19:37:02 11.1 C 7.35 g/m*3 11.1 C 0 km/h
2730 15-09-2008 19:42:02 11.2 C 7.3 g/m*3 11.2 C 0 km/h
2731 15-09-2008 19:47:02 11.2 C 7.4 g/m*3 11.2 C 0 km/h
2732 15-09-2008 19:52:02 11.2 C 7.4 g/m*3 11.2 C 0 km/h
2733 15-09-2008 19:57:02 11.1 C 7.45 g/m*3 11.1 C 0 km/h
2734 15-09-2008 20:02:02 11.1 C 7.45 g/m*3 11.1 C 0 km/h
2735 15-09-2008 20:07:02 11 C 7.51 g/m*3 11 C 0 km/h
2736 15-09-2008 20:12:02 11.1 C 7.45 g/m*3 11.1 C 0 km/h
2737 15-09-2008 20:17:02 11.1 C 7.45 g/m*3 11.1 C 0 km/h
2738 15-09-2008 20:22:02 11 C 7.51 g/m*3 11 C 0 km/h
2739 15-09-2008 20:27:02 11 C 7.51 g/m*3 11 C 0 km/h
2740 15-09-2008 20:32:02 11 C 7.51 g/m*3 11 C 0 km/h
2741 15-09-2008 20:37:02 10.9 C 7.56 g/m*3 10.9 C 0 km/h
2742 15-09-2008 20:42:02 10.9 C 7.56 g/m*3 10.9 C 0 km/h
2743 15-09-2008 20:47:02 10.9 C 7.66 g/m*3 10.9 C 0 km/h
2744 15-09-2008 20:52:02 10.8 C 7.61 g/m*3 10.8 C 0 km/h
2745 15-09-2008 20:57:02 10.9 C 7.66 g/m*3 10.9 C 0 km/h
2746 15-09-2008 21:02:02 10.9 C 7.56 g/m*3 10.9 C 0 km/h
2747 15-09-2008 21:07:02 10.9 C 7.56 g/m*3 10.9 C 0 km/h
2748 15-09-2008 21:12:02 10.8 C 7.51 g/m*3 10.8 C 0 km/h
2749 15-09-2008 21:17:02 10.8 C 7.51 g/m*3 10.8 C 0 km/h
2750 15-09-2008 21:22:02 10.8 C 7.51 g/m*3 10.8 C 0 km/h
Sensor: Nr:Datum:Temp:Abs-Feuchte:Windchill:Wind:
Aussen-T/F 2751 15-09-2008 21:27:02 10.8 C 7.41 g/m*3 10.8 C 0 km/h
2752 15-09-2008 21:32:02 10.8 C 7.41 g/m*3 10.8 C 0 km/h
2753 15-09-2008 21:37:02 10.9 C 7.46 g/m*3 10.9 C 0 km/h
2754 15-09-2008 21:42:02 10.8 C 7.41 g/m*3 10.8 C 0 km/h
2755 15-09-2008 21:47:02 10.8 C 7.51 g/m*3 10.8 C 0 km/h
2756 15-09-2008 21:52:02 10.9 C 7.56 g/m*3 10.9 C 0 km/h
2757 15-09-2008 21:57:03 10.9 C 7.56 g/m*3 10.9 C 0 km/h
2758 15-09-2008 22:02:01 10.9 C 7.56 g/m*3 10.9 C 0 km/h
2759 15-09-2008 22:07:01 10.8 C 7.51 g/m*3 10.8 C 0 km/h
2760 15-09-2008 22:12:01 10.8 C 7.51 g/m*3 10.8 C 0 km/h
2761 15-09-2008 22:17:02 10.8 C 7.51 g/m*3 10.8 C 0 km/h
2762 15-09-2008 22:22:02 10.8 C 7.51 g/m*3 10.8 C 0 km/h
2763 15-09-2008 22:27:02 10.7 C 7.37 g/m*3 10.7 C 0 km/h
2764 15-09-2008 22:33:02 10.8 C 7.41 g/m*3 10.8 C 0 km/h
2765 15-09-2008 22:38:02 10.8 C 7.41 g/m*3 10.8 C 0 km/h
2766 15-09-2008 22:43:02 10.8 C 7.41 g/m*3 10.8 C 0 km/h
2767 15-09-2008 22:48:02 10.8 C 7.41 g/m*3 10.8 C 0 km/h
2768 15-09-2008 22:53:02 10.8 C 7.41 g/m*3 10.8 C 0 km/h
2769 15-09-2008 22:58:02 10.7 C 7.46 g/m*3 10.7 C 0 km/h
2770 15-09-2008 23:03:02 10.7 C 7.46 g/m*3 10.7 C 0 km/h
2771 15-09-2008 23:08:02 10.6 C 7.52 g/m*3 10.6 C 0 km/h
2772 15-09-2008 23:13:02 10.5 C 7.47 g/m*3 10.5 C 0 km/h
2773 15-09-2008 23:18:02 10.5 C 7.47 g/m*3 10.5 C 0 km/h
2774 15-09-2008 23:23:02 10.5 C 7.47 g/m*3 10.5 C 0 km/h
2775 15-09-2008 23:28:02 10.5 C 7.57 g/m*3 10.5 C 0 km/h
Sensor: Nr:Datum:Temp:Abs-Feuchte:Windchill:Wind:
Aussen-T/F 2776 15-09-2008 23:33:02 10.5 C 7.57 g/m*3 10.5 C 0 km/h
2777 15-09-2008 23:38:02 10.5 C 7.57 g/m*3 10.5 C 0 km/h
2778 15-09-2008 23:43:02 10.5 C 7.57 g/m*3 10.5 C 0 km/h
2779 15-09-2008 23:48:02 10.5 C 7.57 g/m*3 10.5 C 0 km/h
2780 15-09-2008 23:53:02 10.5 C 7.57 g/m*3 10.5 C 0 km/h
2781 15-09-2008 23:58:02 10.4 C 7.61 g/m*3 10.4 C 0 km/h
2782 16-09-2008 00:03:03 10.4 C 7.52 g/m*3 10.4 C 0 km/h
2783 16-09-2008 00:08:03 10.4 C 7.52 g/m*3 10.4 C 0 km/h
2784 16-09-2008 00:13:03 10.4 C 7.61 g/m*3 10.4 C 0 km/h
2785 16-09-2008 00:18:03 10.3 C 7.57 g/m*3 10.3 C 0 km/h
2786 16-09-2008 00:23:03 10.3 C 7.57 g/m*3 10.3 C 0 km/h
2787 16-09-2008 00:28:03 10.2 C 7.52 g/m*3 10.2 C 0 km/h
2788 16-09-2008 00:33:03 10.2 C 7.52 g/m*3 10.2 C 0 km/h
2789 16-09-2008 00:38:03 10.1 C 7.47 g/m*3 10.1 C 0 km/h
2790 16-09-2008 00:43:03 10.1 C 7.47 g/m*3 10.1 C 0 km/h
2791 16-09-2008 00:48:03 10.1 C 7.47 g/m*3 10.1 C 0 km/h
2792 16-09-2008 00:53:03 10.1 C 7.47 g/m*3 10.1 C 0 km/h
2793 16-09-2008 00:58:03 10 C 7.52 g/m*3 10 C 0 km/h
2794 16-09-2008 01:03:03 10 C 7.52 g/m*3 10 C 0 km/h
2795 16-09-2008 01:08:03 10 C 7.52 g/m*3 10 C 0 km/h
2796 16-09-2008 01:13:03 10 C 7.52 g/m*3 10 C 0 km/h
2797 16-09-2008 01:18:03 10 C 7.52 g/m*3 10 C 0 km/h
2798 16-09-2008 01:23:03 10 C 7.52 g/m*3 10 C 0 km/h
2799 16-09-2008 01:28:03 10 C 7.61 g/m*3 10 C 0 km/h
2800 16-09-2008 01:33:03 10 C 7.61 g/m*3 10 C 0 km/h
Sensor: Nr:Datum:Temp:Abs-Feuchte:Windchill:Wind:
Aussen-T/F 2801 16-09-2008 01:38:03 9.9 C 7.66 g/m*3 9.9 C 0 km/h
2802 16-09-2008 01:43:03 9.9 C 7.66 g/m*3 9.9 C 0 km/h
2803 16-09-2008 01:48:04 9.9 C 7.75 g/m*3 9.9 C 0 km/h
2804 16-09-2008 01:53:04 9.8 C 7.61 g/m*3 9.8 C 0 km/h
2805 16-09-2008 01:58:04 9.9 C 7.66 g/m*3 9.9 C 0 km/h
2806 16-09-2008 02:03:04 9.7 C 7.56 g/m*3 9.7 C 0 km/h
2807 16-09-2008 02:08:04 9.6 C 7.51 g/m*3 9.6 C 0 km/h
2808 16-09-2008 02:13:04 9.5 C 7.46 g/m*3 9.5 C 0 km/h
2809 16-09-2008 02:18:04 9.5 C 7.55 g/m*3 9.5 C 0 km/h
2810 16-09-2008 02:23:04 9.4 C 7.51 g/m*3 9.4 C 0 km/h
2811 16-09-2008 02:28:04 9.3 C 7.46 g/m*3 9.3 C 0 km/h
2812 16-09-2008 02:33:04 9.3 C 7.46 g/m*3 9.3 C 0 km/h
2813 16-09-2008 02:38:04 9.3 C 7.46 g/m*3 9.3 C 0 km/h
2814 16-09-2008 02:43:04 9.3 C 7.46 g/m*3 9.3 C 0 km/h
2815 16-09-2008 02:48:04 9.4 C 7.51 g/m*3 9.4 C 0 km/h
2816 16-09-2008 02:53:04 9.4 C 7.51 g/m*3 9.4 C 0 km/h
2817 16-09-2008 02:58:04 9.4 C 7.51 g/m*3 9.4 C 0 km/h
2818 16-09-2008 03:03:04 9.5 C 7.55 g/m*3 9.5 C 0 km/h
2819 16-09-2008 03:08:04 9.5 C 7.55 g/m*3 9.5 C 0 km/h
2820 16-09-2008 03:13:04 9.5 C 7.55 g/m*3 9.5 C 0 km/h
2821 16-09-2008 03:18:04 9.3 C 7.46 g/m*3 9.3 C 0 km/h
2822 16-09-2008 03:23:04 9.2 C 7.41 g/m*3 9.2 C 0 km/h
2823 16-09-2008 03:28:04 9 C 7.32 g/m*3 9 C 0 km/h
2824 16-09-2008 03:33:05 8.9 C 7.36 g/m*3 8.9 C 0 km/h
2825 16-09-2008 03:38:05 8.6 C 7.22 g/m*3 8.6 C 0 km/h
Sensor: Nr:Datum:Temp:Abs-Feuchte:Windchill:Wind:
Aussen-T/F 2826 16-09-2008 03:43:05 8.4 C 7.13 g/m*3 8.4 C 0 km/h
2827 16-09-2008 03:48:05 8.3 C 7.08 g/m*3 8.3 C 0 km/h
2828 16-09-2008 03:53:05 8.2 C 7.03 g/m*3 8.2 C 0 km/h
2829 16-09-2008 03:58:05 8.1 C 6.99 g/m*3 8.1 C 0 km/h
2830 16-09-2008 04:03:05 8 C 6.94 g/m*3 8 C 0 km/h
2831 16-09-2008 04:08:05 7.9 C 7.06 g/m*3 7.9 C 0 km/h
2832 16-09-2008 04:13:05 7.8 C 7.02 g/m*3 7.8 C 0 km/h
2833 16-09-2008 04:18:05 7.7 C 6.97 g/m*3 7.7 C 0 km/h
2834 16-09-2008 04:23:05 7.7 C 7.05 g/m*3 7.7 C 0 km/h
2835 16-09-2008 04:28:05 7.6 C 7.01 g/m*3 7.6 C 0 km/h
2836 16-09-2008 04:33:05 7.5 C 6.96 g/m*3 7.5 C 0 km/h
2837 16-09-2008 04:38:05 7.5 C 6.96 g/m*3 7.5 C 0 km/h
2838 16-09-2008 04:43:05 7.3 C 6.87 g/m*3 7.3 C 0 km/h
2839 16-09-2008 04:48:05 7.4 C 6.92 g/m*3 7.4 C 0 km/h
2840 16-09-2008 04:53:05 7.3 C 6.87 g/m*3 7.3 C 0 km/h
2841 16-09-2008 04:58:05 7.2 C 6.83 g/m*3 7.2 C 0 km/h
2842 16-09-2008 05:03:05 7.2 C 6.91 g/m*3 7.2 C 0 km/h
2843 16-09-2008 05:08:05 7.1 C 6.86 g/m*3 7.1 C 0 km/h
2844 16-09-2008 05:13:06 7.1 C 6.86 g/m*3 7.1 C 0 km/h
2845 16-09-2008 05:18:06 7 C 6.82 g/m*3 7 C 0 km/h
2846 16-09-2008 05:23:06 6.9 C 6.85 g/m*3 6.9 C 0 km/h
2847 16-09-2008 05:28:06 6.9 C 6.85 g/m*3 6.9 C 0 km/h
2848 16-09-2008 05:33:06 6.9 C 6.85 g/m*3 6.9 C 0 km/h
2849 16-09-2008 05:38:06 6.9 C 6.85 g/m*3 6.9 C 0 km/h
2850 16-09-2008 05:43:06 6.9 C 6.85 g/m*3 6.9 C 0 km/h
Sensor: Nr:Datum:Temp:Abs-Feuchte:Windchill:Wind:
Aussen-T/F 2851 16-09-2008 05:48:06 6.8 C 6.81 g/m*3 6.8 C 0 km/h
2852 16-09-2008 05:53:06 6.8 C 6.88 g/m*3 6.8 C 0 km/h
2853 16-09-2008 05:58:06 6.8 C 6.88 g/m*3 6.8 C 0 km/h
2854 16-09-2008 06:03:06 6.7 C 6.84 g/m*3 6.7 C 0 km/h
2855 16-09-2008 06:08:06 6.5 C 6.75 g/m*3 6.5 C 0 km/h
2856 16-09-2008 06:13:06 6.4 C 6.71 g/m*3 6.4 C 0 km/h
2857 16-09-2008 06:18:06 6.4 C 6.71 g/m*3 6.4 C 0 km/h
2858 16-09-2008 06:23:06 6.5 C 6.75 g/m*3 6.5 C 0 km/h
2859 16-09-2008 06:28:06 6.7 C 6.91 g/m*3 6.7 C 0 km/h
2860 16-09-2008 06:33:06 6.7 C 6.91 g/m*3 6.7 C 0 km/h
2861 16-09-2008 06:38:06 6.7 C 6.91 g/m*3 6.7 C 0 km/h
2862 16-09-2008 06:43:06 6.7 C 6.91 g/m*3 6.7 C 0 km/h
2863 16-09-2008 06:48:06 6.7 C 6.99 g/m*3 6.7 C 0 km/h
2864 16-09-2008 06:53:06 6.8 C 7.04 g/m*3 6.8 C 0 km/h
2865 16-09-2008 06:58:07 6.9 C 7.08 g/m*3 6.9 C 0 km/h
2866 16-09-2008 07:03:03 6.9 C 7.08 g/m*3 6.9 C 0 km/h
2867 16-09-2008 07:08:03 7 C 7.05 g/m*3 7 C 0 km/h
2868 16-09-2008 07:13:03 7 C 7.13 g/m*3 7 C 0 km/h
2869 16-09-2008 07:18:02 7 C 7.13 g/m*3 7 C 0 km/h
2870 16-09-2008 07:23:02 7.1 C 7.18 g/m*3 7.1 C 0 km/h
2871 16-09-2008 07:28:02 7.2 C 7.22 g/m*3 7.2 C 0 km/h
2872 16-09-2008 07:33:02 7.2 C 7.22 g/m*3 7.2 C 0 km/h
2873 16-09-2008 07:38:02 7.3 C 7.27 g/m*3 7.3 C 0 km/h
2874 16-09-2008 07:43:03 7.3 C 7.27 g/m*3 7.3 C 0 km/h
2875 16-09-2008 07:48:01 7.4 C 7.32 g/m*3 7.4 C 0 km/h
Sensor: Nr:Datum:Temp:Abs-Feuchte:Windchill:Wind:
Aussen-T/F 2876 16-09-2008 07:53:01 7.6 C 7.41 g/m*3 7.6 C 0 km/h
2877 16-09-2008 07:58:01 7.5 C 7.44 g/m*3 7.5 C 0 km/h
2878 16-09-2008 08:03:02 7.6 C 7.41 g/m*3 7.6 C 0 km/h
2879 16-09-2008 08:08:02 7.7 C 7.46 g/m*3 7.7 C 0 km/h
2880 16-09-2008 08:13:02 7.8 C 7.59 g/m*3 7.8 C 0 km/h
2881 16-09-2008 08:18:01 7.9 C 7.56 g/m*3 7.9 C 0 km/h
2882 16-09-2008 08:23:01 8 C 7.52 g/m*3 8 C 0 km/h
2883 16-09-2008 08:28:01 8.1 C 7.57 g/m*3 8.1 C 0 km/h
2884 16-09-2008 08:33:01 8.2 C 7.62 g/m*3 8.2 C 0 km/h
2885 16-09-2008 08:38:01 8.3 C 7.67 g/m*3 8.3 C 0 km/h
2886 16-09-2008 08:43:01 8.4 C 7.72 g/m*3 8.4 C 0 km/h
2887 16-09-2008 08:48:03 8.5 C 7.68 g/m*3 8.5 C 0 km/h
2888 16-09-2008 08:53:03 8.6 C 7.73 g/m*3 8.6 C 0 km/h
2889 16-09-2008 08:58:03 8.7 C 7.78 g/m*3 8.7 C 0 km/h
2890 16-09-2008 09:03:02 8.9 C 7.88 g/m*3 8.9 C 0 km/h
2891 16-09-2008 09:08:02 9.1 C 7.81 g/m*3 9.1 C 0 km/h
2892 16-09-2008 09:13:02 9.1 C 7.81 g/m*3 9.1 C 0 km/h
2893 16-09-2008 09:18:02 9.2 C 7.77 g/m*3 9.2 C 0 km/h
2894 16-09-2008 09:23:02 9.3 C 7.73 g/m*3 9.3 C 0 km/h
2895 16-09-2008 09:28:02 9.4 C 7.69 g/m*3 9.4 C 0 km/h
2896 16-09-2008 09:33:02 9.6 C 7.79 g/m*3 9.6 C 0 km/h
2897 16-09-2008 09:38:02 10.1 C 7.85 g/m*3 10.1 C 0 km/h
2898 16-09-2008 09:43:03 9.9 C 7.75 g/m*3 9.9 C 0 km/h
2899 16-09-2008 09:48:01 10.1 C 7.66 g/m*3 10.1 C 0 km/h
2900 16-09-2008 09:53:01 10.2 C 7.71 g/m*3 10.2 C 0 km/h
Sensor: Nr:Datum:Temp:Abs-Feuchte:Windchill:Wind:
Aussen-T/F 2901 16-09-2008 09:58:01 10.3 C 7.76 g/m*3 10.3 C 0 km/h
2902 16-09-2008 10:03:02 10.2 C 7.52 g/m*3 10.2 C 0 km/h
2903 16-09-2008 10:08:02 10.3 C 7.47 g/m*3 10.3 C 0 km/h
2904 16-09-2008 10:13:02 10.5 C 7.57 g/m*3 10.5 C 0 km/h
2905 16-09-2008 10:18:02 10.8 C 7.71 g/m*3 10.8 C 0 km/h
2906 16-09-2008 10:23:02 10.9 C 7.76 g/m*3 10.9 C 0 km/h
2907 16-09-2008 10:28:02 11.1 C 7.76 g/m*3 11.1 C 0 km/h
2908 16-09-2008 10:33:01 11.3 C 7.65 g/m*3 11.3 C 0 km/h
2909 16-09-2008 10:38:01 11.4 C 7.6 g/m*3 11.4 C 0 km/h
2910 16-09-2008 10:43:01 11.4 C 7.39 g/m*3 11.4 C 0 km/h
2911 16-09-2008 10:48:02 11.5 C 7.33 g/m*3 11.5 C 0 km/h
2912 16-09-2008 10:53:02 11.6 C 7.38 g/m*3 11.6 C 0 km/h
2913 16-09-2008 10:58:02 11.9 C 7.52 g/m*3 11.9 C 0 km/h
2914 16-09-2008 11:03:01 12.1 C 7.51 g/m*3 12.1 C 0 km/h
2915 16-09-2008 11:08:01 12.3 C 7.49 g/m*3 12.3 C 0 km/h
2916 16-09-2008 11:13:01 12.5 C 7.59 g/m*3 12.5 C 0 km/h
2917 16-09-2008 11:18:02 12.5 C 7.37 g/m*3 12.5 C 0 km/h
2918 16-09-2008 11:23:02 12.7 C 7.46 g/m*3 12.7 C 0 km/h
2919 16-09-2008 11:28:02 12.7 C 7.35 g/m*3 12.7 C 0 km/h
2920 16-09-2008 11:33:01 13 C 7.37 g/m*3 13 C 0 km/h
2921 16-09-2008 11:38:01 13.3 C 7.39 g/m*3 13.3 C 0 km/h
2922 16-09-2008 11:43:01 13.5 C 7.49 g/m*3 13.5 C 0 km/h
2923 16-09-2008 11:48:01 13.7 C 7.22 g/m*3 13.7 C 0 km/h
2924 16-09-2008 11:53:01 13.8 C 7.03 g/m*3 13.8 C 0 km/h
2925 16-09-2008 11:58:01 13.8 C 6.91 g/m*3 13.8 C 0 km/h
Sensor: Nr:Datum:Temp:Abs-Feuchte:Windchill:Wind:
Aussen-T/F 2926 16-09-2008 12:03:02 14 C 6.88 g/m*3 14 C 0 km/h
2927 16-09-2008 12:08:02 14.3 C 7 g/m*3 14.3 C 0 km/h
2928 16-09-2008 12:13:02 14.4 C 7.05 g/m*3 14.4 C 0 km/h
2929 16-09-2008 12:18:01 14 C 6.63 g/m*3 14 C 0 km/h
2930 16-09-2008 12:23:01 14.4 C 6.55 g/m*3 14.4 C 0 km/h
2931 16-09-2008 12:28:01 14.6 C 6.63 g/m*3 14.6 C 0 km/h
2932 16-09-2008 12:33:01 14.8 C 6.71 g/m*3 14.8 C 0 km/h
2933 16-09-2008 12:38:01 15 C 6.67 g/m*3 15 C 0 km/h
2934 16-09-2008 12:43:01 14.7 C 6.67 g/m*3 14.7 C 0 km/h
2935 16-09-2008 12:48:02 14.9 C 6.88 g/m*3 14.9 C 0 km/h
2936 16-09-2008 12:53:02 14.8 C 6.59 g/m*3 14.8 C 0 km/h
2937 16-09-2008 12:58:02 14.3 C 6.51 g/m*3 14.3 C 0 km/h
2938 16-09-2008 13:03:01 14.2 C 6.59 g/m*3 14.2 C 0 km/h
2939 16-09-2008 13:08:01 14 C 6.75 g/m*3 14 C 0 km/h
2940 16-09-2008 13:13:01 13.7 C 6.75 g/m*3 13.7 C 0 km/h
2941 16-09-2008 13:18:01 13.5 C 6.9 g/m*3 13.5 C 0 km/h
2942 16-09-2008 13:23:01 13.4 C 6.97 g/m*3 13.4 C 0 km/h
2943 16-09-2008 13:28:01 13.5 C 7.13 g/m*3 13.5 C 0 km/h
2944 16-09-2008 13:33:01 13.7 C 7.22 g/m*3 13.7 C 0 km/h
2945 16-09-2008 13:38:01 13.8 C 7.27 g/m*3 13.8 C 0 km/h
2946 16-09-2008 13:43:02 14.2 C 6.96 g/m*3 14.2 C 0 km/h
2947 16-09-2008 13:48:02 14.7 C 7.05 g/m*3 14.7 C 0 km/h
2948 16-09-2008 13:53:02 14.9 C 7.01 g/m*3 14.9 C 0 km/h
2949 16-09-2008 13:58:02 15.4 C 6.7 g/m*3 15.4 C 0 km/h
2950 16-09-2008 14:03:02 15.7 C 6.69 g/m*3 15.7 C 0 km/h
Sensor: Nr:Datum:Temp:Abs-Feuchte:Windchill:Wind:
Aussen-T/F 2951 16-09-2008 14:08:02 15.7 C 6.69 g/m*3 15.7 C 0 km/h
2952 16-09-2008 14:13:02 15.5 C 6.48 g/m*3 15.5 C 0 km/h
2953 16-09-2008 14:18:02 15.2 C 6.49 g/m*3 15.2 C 0 km/h
2954 16-09-2008 14:23:02 15.4 C 6.57 g/m*3 15.4 C 0 km/h
2955 16-09-2008 14:28:03 15.4 C 6.57 g/m*3 15.4 C 0 km/h
2956 16-09-2008 14:33:01 16 C 6.68 g/m*3 16 C 0 km/h
2957 16-09-2008 14:38:01 16 C 6.68 g/m*3 16 C 0 km/h
2958 16-09-2008 14:43:01 15.8 C 6.73 g/m*3 15.8 C 0 km/h
2959 16-09-2008 14:48:02 15.6 C 6.78 g/m*3 15.6 C 0 km/h
2960 16-09-2008 14:53:02 15.2 C 6.75 g/m*3 15.2 C 0 km/h
2961 16-09-2008 14:58:02 15 C 7.05 g/m*3 15 C 0 km/h
2962 16-09-2008 15:03:01 14.6 C 7.13 g/m*3 14.6 C 0 km/h
2963 16-09-2008 15:08:01 14.3 C 7.13 g/m*3 14.3 C 0 km/h
2964 16-09-2008 15:13:01 14 C 7.24 g/m*3 14 C 0 km/h
2965 16-09-2008 15:18:01 13.8 C 7.39 g/m*3 13.8 C 0 km/h
2966 16-09-2008 15:23:01 13.7 C 7.46 g/m*3 13.7 C 0 km/h
2967 16-09-2008 15:28:01 14 C 7.48 g/m*3 14 C 0 km/h
2968 16-09-2008 15:33:02 14.2 C 7.57 g/m*3 14.2 C 0 km/h
2969 16-09-2008 15:38:03 14.6 C 7.63 g/m*3 14.6 C 0 km/h
2970 16-09-2008 15:43:03 15.1 C 7.48 g/m*3 15.1 C 0 km/h
2971 16-09-2008 15:48:02 15.5 C 7.4 g/m*3 15.5 C 0 km/h
2972 16-09-2008 15:53:02 16.3 C 6.94 g/m*3 16.3 C 0 km/h
2973 16-09-2008 15:58:02 17 C 6.66 g/m*3 17 C 0 km/h
2974 16-09-2008 16:03:01 17 C 6.37 g/m*3 17 C 0 km/h
2975 16-09-2008 16:08:01 16.7 C 6.4 g/m*3 16.7 C 0 km/h
Sensor: Nr:Datum:Temp:Abs-Feuchte:Windchill:Wind:
Aussen-T/F 2976 16-09-2008 16:13:01 16.4 C 6.42 g/m*3 16.4 C 0 km/h
2977 16-09-2008 16:18:02 16.1 C 6.31 g/m*3 16.1 C 0 km/h
2978 16-09-2008 16:23:02 16 C 6.54 g/m*3 16 C 0 km/h
2979 16-09-2008 16:28:03 15.9 C 7.04 g/m*3 15.9 C 0 km/h
2980 16-09-2008 16:33:01 16 C 6.95 g/m*3 16 C 0 km/h
2981 16-09-2008 16:38:01 16 C 6.81 g/m*3 16 C 0 km/h
2982 16-09-2008 16:43:01 15.9 C 6.09 g/m*3 15.9 C 0 km/h
2983 16-09-2008 16:48:02 15.8 C 5.79 g/m*3 15.8 C 0 km/h
2984 16-09-2008 16:53:02 15.6 C 5.72 g/m*3 15.6 C 0 km/h
2985 16-09-2008 16:58:02 15.4 C 5.65 g/m*3 15.4 C 0 km/h
2986 16-09-2008 17:03:02 15.2 C 5.84 g/m*3 15.2 C 0 km/h
2987 16-09-2008 17:08:02 15.1 C 5.81 g/m*3 15.1 C 0 km/h
2988 16-09-2008 17:13:02 15.2 C 5.97 g/m*3 15.2 C 0 km/h
2989 16-09-2008 17:18:01 15.2 C 5.97 g/m*3 15.2 C 0 km/h
2990 16-09-2008 17:23:01 15.2 C 5.84 g/m*3 15.2 C 0 km/h
2991 16-09-2008 17:28:01 15.2 C 5.97 g/m*3 15.2 C 0 km/h
2992 16-09-2008 17:33:02 15.1 C 6.32 g/m*3 15.1 C 0 km/h
2993 16-09-2008 17:38:03 14.8 C 6.59 g/m*3 14.8 C 0 km/h
2994 16-09-2008 17:43:03 14.7 C 6.55 g/m*3 14.7 C 0 km/h
2995 16-09-2008 17:48:02 14.4 C 6.92 g/m*3 14.4 C 0 km/h
2996 16-09-2008 17:53:02 14.1 C 7.16 g/m*3 14.1 C 0 km/h
2997 16-09-2008 17:58:02 14 C 7.12 g/m*3 14 C 0 km/h
2998 16-09-2008 18:03:02 13.8 C 7.39 g/m*3 13.8 C 0 km/h
2999 16-09-2008 18:08:02 13.6 C 7.3 g/m*3 13.6 C 0 km/h
3000 16-09-2008 18:13:02 13.6 C 7.41 g/m*3 13.6 C 0 km/h
Sensor: Nr:Datum:Temp:Abs-Feuchte:Windchill:Wind:
Aussen-T/F 3001 16-09-2008 18:18:02 13.5 C 7.37 g/m*3 13.5 C 0 km/h
3002 16-09-2008 18:23:02 13.5 C 7.25 g/m*3 13.5 C 0 km/h
3003 16-09-2008 18:28:03 13.5 C 6.9 g/m*3 13.5 C 0 km/h
3004 16-09-2008 18:33:01 13.6 C 6.59 g/m*3 13.6 C 0 km/h
3005 16-09-2008 18:38:01 13.5 C 6.43 g/m*3 13.5 C 0 km/h
3006 16-09-2008 18:43:01 13.5 C 6.55 g/m*3 13.5 C 0 km/h
3007 16-09-2008 18:48:02 13.4 C 6.51 g/m*3 13.4 C 0 km/h
3008 16-09-2008 18:53:02 13.4 C 6.74 g/m*3 13.4 C 0 km/h
3009 16-09-2008 18:58:02 13.3 C 6.93 g/m*3 13.3 C 0 km/h
3010 16-09-2008 19:03:02 13.2 C 6.77 g/m*3 13.2 C 0 km/h
3011 16-09-2008 19:08:02 13.1 C 6.85 g/m*3 13.1 C 0 km/h
3012 16-09-2008 19:13:02 13 C 6.92 g/m*3 13 C 0 km/h
3013 16-09-2008 19:18:01 12.8 C 6.83 g/m*3 12.8 C 0 km/h
3014 16-09-2008 19:23:01 12.8 C 6.83 g/m*3 12.8 C 0 km/h
3015 16-09-2008 19:28:01 12.7 C 6.68 g/m*3 12.7 C 0 km/h
3016 16-09-2008 19:33:02 12.7 C 6.46 g/m*3 12.7 C 0 km/h
3017 16-09-2008 19:38:03 12.7 C 6.35 g/m*3 12.7 C 0 km/h
3018 16-09-2008 19:43:03 12.6 C 6.31 g/m*3 12.6 C 0 km/h
3019 16-09-2008 19:48:02 12.6 C 6.31 g/m*3 12.6 C 0 km/h
3020 16-09-2008 19:53:02 12.5 C 6.05 g/m*3 12.5 C 0 km/h
3021 16-09-2008 19:58:02 12.6 C 5.97 g/m*3 12.6 C 0 km/h
3022 16-09-2008 20:03:03 12.5 C 6.05 g/m*3 12.5 C 0 km/h
3023 16-09-2008 20:08:03 12.4 C 6.12 g/m*3 12.4 C 0 km/h
3024 16-09-2008 20:13:03 12.4 C 6.23 g/m*3 12.4 C 0 km/h
3025 16-09-2008 20:18:02 12.3 C 6.41 g/m*3 12.3 C 0 km/h
Sensor: Nr:Datum:Temp:Abs-Feuchte:Windchill:Wind:
Aussen-T/F 3026 16-09-2008 20:23:02 12.2 C 6.15 g/m*3 12.2 C 0 km/h
3027 16-09-2008 20:28:03 12.3 C 6.19 g/m*3 12.3 C 0 km/h
3028 16-09-2008 20:33:02 12.1 C 6.01 g/m*3 12.1 C 0 km/h
3029 16-09-2008 20:38:02 12.1 C 6.01 g/m*3 12.1 C 0 km/h
3030 16-09-2008 20:43:02 12.1 C 5.9 g/m*3 12.1 C 0 km/h
3031 16-09-2008 20:48:02 12.1 C 5.79 g/m*3 12.1 C 0 km/h
3032 16-09-2008 20:53:02 12.1 C 5.79 g/m*3 12.1 C 0 km/h
3033 16-09-2008 20:58:02 12.1 C 5.79 g/m*3 12.1 C 0 km/h
3034 16-09-2008 21:03:02 12.1 C 5.9 g/m*3 12.1 C 0 km/h
3035 16-09-2008 21:08:02 12.1 C 5.9 g/m*3 12.1 C 0 km/h
3036 16-09-2008 21:13:02 12 C 5.86 g/m*3 12 C 0 km/h
3037 16-09-2008 21:18:01 12.1 C 5.68 g/m*3 12.1 C 0 km/h
3038 16-09-2008 21:23:01 12.1 C 5.79 g/m*3 12.1 C 0 km/h
3039 16-09-2008 21:28:01 12 C 5.97 g/m*3 12 C 0 km/h
3040 16-09-2008 21:33:02 12 C 6.07 g/m*3 12 C 0 km/h
3041 16-09-2008 21:38:03 11.9 C 6.46 g/m*3 11.9 C 0 km/h
3042 16-09-2008 21:43:03 11.9 C 6.46 g/m*3 11.9 C 0 km/h
3043 16-09-2008 21:48:01 11.8 C 6.42 g/m*3 11.8 C 0 km/h
3044 16-09-2008 21:53:01 11.7 C 6.38 g/m*3 11.7 C 0 km/h
3045 16-09-2008 21:58:01 11.7 C 6.38 g/m*3 11.7 C 0 km/h
3046 16-09-2008 22:04:02 11.7 C 6.38 g/m*3 11.7 C 0 km/h
3047 16-09-2008 22:09:02 11.7 C 6.38 g/m*3 11.7 C 0 km/h
3048 16-09-2008 22:14:02 11.7 C 6.48 g/m*3 11.7 C 0 km/h
3049 16-09-2008 22:19:02 11.6 C 6.44 g/m*3 11.6 C 0 km/h
3050 16-09-2008 22:24:02 11.5 C 6.4 g/m*3 11.5 C 0 km/h
Sensor: Nr:Datum:Temp:Abs-Feuchte:Windchill:Wind:
Aussen-T/F 3051 16-09-2008 22:29:02 11.5 C 6.3 g/m*3 11.5 C 0 km/h
3052 16-09-2008 22:34:02 11.5 C 6.3 g/m*3 11.5 C 0 km/h
3053 16-09-2008 22:39:02 11.4 C 6.26 g/m*3 11.4 C 0 km/h
3054 16-09-2008 22:44:02 11.4 C 6.26 g/m*3 11.4 C 0 km/h
3055 16-09-2008 22:49:02 11.4 C 6.26 g/m*3 11.4 C 0 km/h
3056 16-09-2008 22:54:02 11.4 C 6.36 g/m*3 11.4 C 0 km/h
3057 16-09-2008 22:59:02 11.3 C 6.32 g/m*3 11.3 C 0 km/h
3058 16-09-2008 23:04:02 11.3 C 6.32 g/m*3 11.3 C 0 km/h
3059 16-09-2008 23:09:03 11.3 C 6.32 g/m*3 11.3 C 0 km/h
3060 16-09-2008 23:14:03 11.3 C 6.32 g/m*3 11.3 C 0 km/h
3061 16-09-2008 23:19:03 11.3 C 6.32 g/m*3 11.3 C 0 km/h
3062 16-09-2008 23:24:03 11.3 C 6.43 g/m*3 11.3 C 0 km/h
3063 16-09-2008 23:29:03 11.2 C 6.49 g/m*3 11.2 C 0 km/h
3064 16-09-2008 23:34:03 11.2 C 6.39 g/m*3 11.2 C 0 km/h
3065 16-09-2008 23:39:03 11.2 C 6.49 g/m*3 11.2 C 0 km/h
3066 16-09-2008 23:44:03 11.2 C 6.49 g/m*3 11.2 C 0 km/h
3067 16-09-2008 23:49:03 11.2 C 6.49 g/m*3 11.2 C 0 km/h
3068 16-09-2008 23:54:03 11.2 C 6.28 g/m*3 11.2 C 0 km/h
3069 16-09-2008 23:59:03 11.2 C 6.28 g/m*3 11.2 C 0 km/h
3070 17-09-2008 00:04:03 11.2 C 6.49 g/m*3 11.2 C 0 km/h
3071 17-09-2008 00:09:03 11.1 C 6.45 g/m*3 11.1 C 0 km/h
3072 17-09-2008 00:14:03 11.1 C 6.55 g/m*3 11.1 C 0 km/h
3073 17-09-2008 00:19:03 11 C 6.51 g/m*3 11 C 0 km/h
3074 17-09-2008 00:24:03 11 C 6.51 g/m*3 11 C 0 km/h
3075 17-09-2008 00:29:03 10.9 C 6.66 g/m*3 10.9 C 0 km/h
Sensor: Nr:Datum:Temp:Abs-Feuchte:Windchill:Wind:
Aussen-T/F 3076 17-09-2008 00:34:03 10.9 C 6.66 g/m*3 10.9 C 0 km/h
3077 17-09-2008 00:39:03 10.9 C 6.66 g/m*3 10.9 C 0 km/h
3078 17-09-2008 00:44:03 10.9 C 6.66 g/m*3 10.9 C 0 km/h
3079 17-09-2008 00:49:03 10.9 C 6.66 g/m*3 10.9 C 0 km/h
3080 17-09-2008 00:54:04 10.8 C 6.62 g/m*3 10.8 C 0 km/h
3081 17-09-2008 00:59:04 10.8 C 6.62 g/m*3 10.8 C 0 km/h
3082 17-09-2008 01:04:04 10.8 C 6.62 g/m*3 10.8 C 0 km/h
3083 17-09-2008 01:09:04 10.7 C 6.58 g/m*3 10.7 C 0 km/h
3084 17-09-2008 01:14:04 10.6 C 6.54 g/m*3 10.6 C 0 km/h
3085 17-09-2008 01:19:04 10.5 C 6.5 g/m*3 10.5 C 0 km/h
3086 17-09-2008 01:24:04 10.5 C 6.5 g/m*3 10.5 C 0 km/h
3087 17-09-2008 01:29:04 10.5 C 6.4 g/m*3 10.5 C 0 km/h
3088 17-09-2008 01:34:04 10.4 C 6.07 g/m*3 10.4 C 0 km/h
3089 17-09-2008 01:39:04 10.5 C 5.92 g/m*3 10.5 C 0 km/h
3090 17-09-2008 01:44:04 10.5 C 5.92 g/m*3 10.5 C 0 km/h
3091 17-09-2008 01:49:04 10.5 C 6.01 g/m*3 10.5 C 0 km/h
3092 17-09-2008 01:54:04 10.5 C 6.01 g/m*3 10.5 C 0 km/h
3093 17-09-2008 01:59:04 10.4 C 6.07 g/m*3 10.4 C 0 km/h
3094 17-09-2008 02:04:04 10.3 C 6.03 g/m*3 10.3 C 0 km/h
3095 17-09-2008 02:09:04 10.3 C 6.03 g/m*3 10.3 C 0 km/h
3096 17-09-2008 02:14:04 10.3 C 6.13 g/m*3 10.3 C 0 km/h
3097 17-09-2008 02:19:04 10.2 C 6.09 g/m*3 10.2 C 0 km/h
3098 17-09-2008 02:24:04 10.1 C 6.05 g/m*3 10.1 C 0 km/h
3099 17-09-2008 02:29:04 10.1 C 6.05 g/m*3 10.1 C 0 km/h
3100 17-09-2008 02:34:05 10 C 6.01 g/m*3 10 C 0 km/h
Sensor: Nr:Datum:Temp:Abs-Feuchte:Windchill:Wind:
Aussen-T/F 3101 17-09-2008 02:39:05 10 C 6.01 g/m*3 10 C 0 km/h
3102 17-09-2008 02:44:05 9.9 C 6.16 g/m*3 9.9 C 0 km/h
3103 17-09-2008 02:49:05 9.7 C 6.18 g/m*3 9.7 C 0 km/h
3104 17-09-2008 02:54:05 9.5 C 6.01 g/m*3 9.5 C 0 km/h
3105 17-09-2008 02:59:05 9.3 C 5.93 g/m*3 9.3 C 0 km/h
3106 17-09-2008 03:04:05 9 C 5.82 g/m*3 9 C 0 km/h
3107 17-09-2008 03:09:05 8.8 C 5.83 g/m*3 8.8 C 0 km/h
3108 17-09-2008 03:14:05 8.6 C 5.84 g/m*3 8.6 C 0 km/h
3109 17-09-2008 03:19:05 8.3 C 5.73 g/m*3 8.3 C 0 km/h
3110 17-09-2008 03:24:05 8.2 C 5.78 g/m*3 8.2 C 0 km/h
3111 17-09-2008 03:29:05 8 C 5.7 g/m*3 8 C 0 km/h
3112 17-09-2008 03:34:05 7.9 C 5.83 g/m*3 7.9 C 0 km/h
3113 17-09-2008 03:39:05 7.8 C 5.79 g/m*3 7.8 C 0 km/h
3114 17-09-2008 03:44:05 7.7 C 5.84 g/m*3 7.7 C 0 km/h
3115 17-09-2008 03:49:05 7.6 C 5.8 g/m*3 7.6 C 0 km/h
3116 17-09-2008 03:54:05 7.6 C 5.88 g/m*3 7.6 C 0 km/h
3117 17-09-2008 03:59:05 7.5 C 5.84 g/m*3 7.5 C 0 km/h
3118 17-09-2008 04:04:05 7.4 C 5.81 g/m*3 7.4 C 0 km/h
3119 17-09-2008 04:09:05 7.3 C 5.85 g/m*3 7.3 C 0 km/h
3120 17-09-2008 04:14:05 7.2 C 5.81 g/m*3 7.2 C 0 km/h
3121 17-09-2008 04:19:06 7.2 C 5.81 g/m*3 7.2 C 0 km/h
3122 17-09-2008 04:24:06 7.1 C 5.77 g/m*3 7.1 C 0 km/h
3123 17-09-2008 04:29:06 7 C 5.73 g/m*3 7 C 0 km/h
3124 17-09-2008 04:34:06 6.9 C 5.77 g/m*3 6.9 C 0 km/h
3125 17-09-2008 04:39:06 6.9 C 5.77 g/m*3 6.9 C 0 km/h
Sensor: Nr:Datum:Temp:Abs-Feuchte:Windchill:Wind:
Aussen-T/F 3126 17-09-2008 04:44:06 6.9 C 5.7 g/m*3 6.9 C 0 km/h
3127 17-09-2008 04:49:06 6.9 C 5.7 g/m*3 6.9 C 0 km/h
3128 17-09-2008 04:54:06 6.9 C 5.62 g/m*3 6.9 C 0 km/h
3129 17-09-2008 04:59:06 6.9 C 5.62 g/m*3 6.9 C 0 km/h
3130 17-09-2008 05:04:06 6.9 C 5.62 g/m*3 6.9 C 0 km/h
3131 17-09-2008 05:09:06 6.8 C 5.58 g/m*3 6.8 C 0 km/h
3132 17-09-2008 05:14:06 6.7 C 5.55 g/m*3 6.7 C 0 km/h
3133 17-09-2008 05:19:06 6.5 C 5.47 g/m*3 6.5 C 0 km/h
3134 17-09-2008 05:24:06 6.5 C 5.55 g/m*3 6.5 C 0 km/h
3135 17-09-2008 05:29:06 6.6 C 5.66 g/m*3 6.6 C 0 km/h
3136 17-09-2008 05:34:06 6.6 C 5.74 g/m*3 6.6 C 0 km/h
3137 17-09-2008 05:39:06 6.5 C 5.7 g/m*3 6.5 C 0 km/h
3138 17-09-2008 05:44:06 6.4 C 5.66 g/m*3 6.4 C 0 km/h
3139 17-09-2008 05:49:06 6.3 C 5.7 g/m*3 6.3 C 0 km/h
3140 17-09-2008 05:54:06 6.3 C 5.7 g/m*3 6.3 C 0 km/h
3141 17-09-2008 05:59:06 6.2 C 5.74 g/m*3 6.2 C 0 km/h
3142 17-09-2008 06:04:07 6.2 C 5.74 g/m*3 6.2 C 0 km/h
3143 17-09-2008 06:09:07 6.1 C 5.7 g/m*3 6.1 C 0 km/h
3144 17-09-2008 06:14:07 6.1 C 5.7 g/m*3 6.1 C 0 km/h
3145 17-09-2008 06:19:07 6.1 C 5.77 g/m*3 6.1 C 0 km/h
3146 17-09-2008 06:24:07 6 C 5.73 g/m*3 6 C 0 km/h
3147 17-09-2008 06:29:07 5.9 C 5.77 g/m*3 5.9 C 0 km/h
3148 17-09-2008 06:34:07 5.7 C 5.69 g/m*3 5.7 C 0 km/h
3149 17-09-2008 06:39:07 5.7 C 5.62 g/m*3 5.7 C 0 km/h
3150 17-09-2008 06:44:07 5.7 C 5.69 g/m*3 5.7 C 0 km/h
Sensor: Nr:Datum:Temp:Abs-Feuchte:Windchill:Wind:
Aussen-T/F 3151 17-09-2008 06:49:07 5.7 C 5.69 g/m*3 5.7 C 0 km/h
3152 17-09-2008 06:54:07 5.7 C 5.69 g/m*3 5.7 C 0 km/h
3153 17-09-2008 06:59:07 5.7 C 5.69 g/m*3 5.7 C 0 km/h
3154 17-09-2008 07:04:01 5.6 C 5.66 g/m*3 5.6 C 0 km/h
3155 17-09-2008 07:09:01 5.6 C 5.66 g/m*3 5.6 C 0 km/h
3156 17-09-2008 07:14:01 5.6 C 5.73 g/m*3 5.6 C 0 km/h
3157 17-09-2008 07:19:01 5.6 C 5.73 g/m*3 5.6 C 0 km/h
3158 17-09-2008 07:24:01 5.5 C 5.69 g/m*3 5.5 C 0 km/h
3159 17-09-2008 07:29:01 5.5 C 5.69 g/m*3 5.5 C 0 km/h
3160 17-09-2008 07:34:02 5.6 C 5.73 g/m*3 5.6 C 0 km/h
3161 17-09-2008 07:39:02 5.6 C 5.73 g/m*3 5.6 C 0 km/h
3162 17-09-2008 07:44:02 5.7 C 5.84 g/m*3 5.7 C 0 km/h
3163 17-09-2008 07:49:03 5.7 C 5.84 g/m*3 5.7 C 0 km/h
3164 17-09-2008 07:54:03 5.8 C 5.87 g/m*3 5.8 C 0 km/h
3165 17-09-2008 07:59:03 5.8 C 5.95 g/m*3 5.8 C 0 km/h
3166 17-09-2008 08:04:02 5.8 C 5.95 g/m*3 5.8 C 0 km/h
3167 17-09-2008 08:09:02 5.9 C 5.98 g/m*3 5.9 C 0 km/h
3168 17-09-2008 08:14:02 6 C 5.95 g/m*3 6 C 0 km/h
3169 17-09-2008 08:19:03 6.1 C 5.99 g/m*3 6.1 C 0 km/h
3170 17-09-2008 08:24:03 6.4 C 6.18 g/m*3 6.4 C 0 km/h
3171 17-09-2008 08:29:03 6.5 C 6.22 g/m*3 6.5 C 0 km/h
3172 17-09-2008 08:34:02 6.6 C 6.27 g/m*3 6.6 C 0 km/h
3173 17-09-2008 08:39:02 6.8 C 6.27 g/m*3 6.8 C 0 km/h
3174 17-09-2008 08:44:02 6.9 C 6.31 g/m*3 6.9 C 0 km/h
3175 17-09-2008 08:49:01 6.9 C 6.31 g/m*3 6.9 C 0 km/h
Sensor: Nr:Datum:Temp:Abs-Feuchte:Windchill:Wind:
Aussen-T/F 3176 17-09-2008 08:54:01 7.1 C 6.32 g/m*3 7.1 C 0 km/h
3177 17-09-2008 08:59:01 7.2 C 6.36 g/m*3 7.2 C 0 km/h
3178 17-09-2008 09:04:02 7.3 C 6.32 g/m*3 7.3 C 0 km/h
3179 17-09-2008 09:09:02 7.4 C 6.36 g/m*3 7.4 C 0 km/h
3180 17-09-2008 09:14:02 7.4 C 6.28 g/m*3 7.4 C 0 km/h
3181 17-09-2008 09:19:01 7.5 C 6.32 g/m*3 7.5 C 0 km/h
3182 17-09-2008 09:24:01 7.7 C 6.41 g/m*3 7.7 C 0 km/h
3183 17-09-2008 09:29:01 7.9 C 6.41 g/m*3 7.9 C 0 km/h
3184 17-09-2008 09:34:02 8 C 6.37 g/m*3 8 C 0 km/h
3185 17-09-2008 09:39:02 8.1 C 6.32 g/m*3 8.1 C 0 km/h
3186 17-09-2008 09:44:02 8.3 C 6.41 g/m*3 8.3 C 0 km/h
3187 17-09-2008 09:49:02 8.5 C 6.4 g/m*3 8.5 C 0 km/h
3188 17-09-2008 09:54:02 8.6 C 6.44 g/m*3 8.6 C 0 km/h
3189 17-09-2008 09:59:02 8.8 C 6.44 g/m*3 8.8 C 0 km/h
3190 17-09-2008 10:04:02 9 C 6.44 g/m*3 9 C 0 km/h
3191 17-09-2008 10:09:02 9.3 C 6.47 g/m*3 9.3 C 0 km/h
3192 17-09-2008 10:14:02 9.4 C 6.51 g/m*3 9.4 C 0 km/h
3193 17-09-2008 10:19:03 9.7 C 6.55 g/m*3 9.7 C 0 km/h
3194 17-09-2008 10:24:03 10 C 6.48 g/m*3 10 C 0 km/h
3195 17-09-2008 10:29:03 10.2 C 6.57 g/m*3 10.2 C 0 km/h
3196 17-09-2008 10:34:02 10.4 C 6.55 g/m*3 10.4 C 0 km/h
3197 17-09-2008 10:39:02 10.8 C 6.62 g/m*3 10.8 C 0 km/h
3198 17-09-2008 10:44:02 11 C 6.61 g/m*3 11 C 0 km/h
3199 17-09-2008 10:49:01 11.2 C 6.59 g/m*3 11.2 C 0 km/h
3200 17-09-2008 10:54:01 11.5 C 6.2 g/m*3 11.5 C 0 km/h
Sensor: Nr:Datum:Temp:Abs-Feuchte:Windchill:Wind:
Aussen-T/F 3201 17-09-2008 10:59:01 11.7 C 5.75 g/m*3 11.7 C 0 km/h
3202 17-09-2008 11:04:02 11.8 C 5.79 g/m*3 11.8 C 0 km/h
3203 17-09-2008 11:09:02 12.1 C 5.79 g/m*3 12.1 C 0 km/h
3204 17-09-2008 11:14:02 12.3 C 5.54 g/m*3 12.3 C 0 km/h
3205 17-09-2008 11:19:01 12.4 C 5.57 g/m*3 12.4 C 0 km/h
3206 17-09-2008 11:24:01 12.7 C 5.57 g/m*3 12.7 C 0 km/h
3207 17-09-2008 11:29:01 12.9 C 5.52 g/m*3 12.9 C 0 km/h
3208 17-09-2008 11:34:02 13.1 C 5.36 g/m*3 13.1 C 0 km/h
3209 17-09-2008 11:39:02 13.2 C 5.28 g/m*3 13.2 C 0 km/h
3210 17-09-2008 11:44:02 13.4 C 5.11 g/m*3 13.4 C 0 km/h
3211 17-09-2008 11:49:02 13.5 C 5.03 g/m*3 13.5 C 0 km/h
3212 17-09-2008 11:54:02 13.7 C 4.97 g/m*3 13.7 C 0 km/h
3213 17-09-2008 11:59:02 13.9 C 4.92 g/m*3 13.9 C 0 km/h
3214 17-09-2008 12:04:02 14 C 4.7 g/m*3 14 C 0 km/h
3215 17-09-2008 12:09:02 14 C 4.82 g/m*3 14 C 0 km/h
3216 17-09-2008 12:14:02 14.2 C 4.88 g/m*3 14.2 C 0 km/h
3217 17-09-2008 12:19:02 14.3 C 4.91 g/m*3 14.3 C 0 km/h
3218 17-09-2008 12:24:02 14.3 C 4.79 g/m*3 14.3 C 0 km/h
3219 17-09-2008 12:29:02 14.3 C 4.79 g/m*3 14.3 C 0 km/h
3220 17-09-2008 12:34:02 14.4 C 4.94 g/m*3 14.4 C 0 km/h
3221 17-09-2008 12:39:02 14.7 C 5.16 g/m*3 14.7 C 0 km/h
3222 17-09-2008 12:44:02 14.9 C 5.1 g/m*3 14.9 C 0 km/h
3223 17-09-2008 12:49:02 14.9 C 4.84 g/m*3 14.9 C 0 km/h
3224 17-09-2008 12:54:02 15 C 4.74 g/m*3 15 C 0 km/h
3225 17-09-2008 12:59:02 15.2 C 4.93 g/m*3 15.2 C 0 km/h
Sensor: Nr:Datum:Temp:Abs-Feuc